Provisional Data: Yellow Breeches Creek near Lisburn, PA


Please select a monitoring station.
Please select start date.
Please select start date.

Toggle Unit: C/F Toggle Unit: C/F
Sample Time Temperature (C) Temperature (F) Specific Conductivity (mS/cm) pH   Turbidity (NTU+) DO (mg/L)
5/17/2022 12:00:00 AM 17.29 63.122 0.193 7.68 4.36 0.01
5/17/2022 12:15:00 AM 17.25 63.05 0.192 7.69 3.34 0.01
5/17/2022 12:30:00 AM 17.2 62.96 0.193 7.66 3.88 0.05
5/17/2022 12:45:00 AM 17.16 62.888 0.193 7.68 4.56 0.01
5/17/2022 1:00:00 AM 17.1 62.78 0.195 7.67 3.72 0.01
5/17/2022 1:15:00 AM 17.04 62.672 0.19 7.64 2.75 0.01
5/17/2022 1:30:00 AM 16.97 62.546 0.188 7.67 3.38 0.01
5/17/2022 1:45:00 AM 16.92 62.456 0.191 7.7 2.85 0.01
5/17/2022 2:00:00 AM 16.84 62.312 0.196 7.65 5.9 0.34
5/17/2022 2:15:00 AM 16.79 62.222 0.191 7.65 22.76 2.94
5/17/2022 2:30:00 AM 16.72 62.096 0.196 7.65 6.27 4.97
5/17/2022 2:45:00 AM 16.66 61.988 0.199 7.64 3.69 4.45
5/17/2022 3:00:00 AM 16.6 61.88 0.198 7.64 3.97 3.65
5/17/2022 3:15:00 AM 16.54 61.772 0.198 7.66 3.57 3.41
5/17/2022 3:30:00 AM 16.49 61.682 0.197 7.67 4.09 2.59
5/17/2022 3:45:00 AM 16.43 61.574 0.204 7.61 3.9 1.62
5/17/2022 4:00:00 AM 16.37 61.466 0.201 7.64 3.65 2.88
5/17/2022 4:15:00 AM 16.33 61.394 0.194 7.67 3.5 2.98
5/17/2022 4:30:00 AM 16.27 61.286 0.193 7.62 3.51 3.05
5/17/2022 4:45:00 AM 16.21 61.178 0.195 7.65 3.17 3.94
5/17/2022 5:00:00 AM 16.16 61.088 0.194 7.65 3.9 4.58
5/17/2022 5:15:00 AM 16.1 60.98 0.2 7.64 4.44 4.43
5/17/2022 5:30:00 AM 16.06 60.908 0.196 7.62 3.13 3.71
5/17/2022 5:45:00 AM 16 60.8 0.199 7.66 6.63 4.57
5/17/2022 6:00:00 AM 15.95 60.71 0.202 7.65 296.9 5.84
5/17/2022 6:15:00 AM 15.91 60.638 0.198 7.66 7.04 6.99
5/17/2022 6:30:00 AM 15.86 60.548 0.197 7.66 11.46 7.41
5/17/2022 6:45:00 AM 15.81 60.458 0.197 7.67 33.93 6.73
5/17/2022 7:00:00 AM 15.76 60.368 0.201 7.66 5.06 7.48
5/17/2022 7:15:00 AM 15.73 60.314 0.197 7.66 6.11 7.64
5/17/2022 7:30:00 AM 15.71 60.278 0.178 7.67 543.8 7.75
5/17/2022 7:45:00 AM 15.69 60.242 0.199 7.65 23.95 7.71
5/17/2022 8:00:00 AM 15.68 60.224 0.181 7.67 24.41 8.15
5/17/2022 8:15:00 AM 15.68 60.224 0.196 7.67 17.64 7.87
5/17/2022 8:30:00 AM 15.7 60.26 0.195 7.7 6.61 8.07
5/17/2022 8:45:00 AM 15.73 60.314 0.196 7.71 10.38 8.05
5/17/2022 9:00:00 AM 15.79 60.422 0.192 7.71 5.12 8.35
5/17/2022 9:15:00 AM 15.87 60.566 0.198 7.71 13.8 7.73
5/17/2022 9:30:00 AM 15.93 60.674 0.181 7.72 6.6 7.91
5/17/2022 9:45:00 AM 16 60.8 0.186 7.73 6.57 8.74
5/17/2022 10:00:00 AM 16.07 60.926 0.187 7.77 7.35 8.79
5/17/2022 10:15:00 AM 16.12 61.016 0.197 7.76 7.69 8.78
5/17/2022 10:30:00 AM 16.24 61.232 0.196 7.79 20.41 8.92
5/17/2022 10:45:00 AM 16.33 61.394 0.197 7.79 6.43 8.15
5/17/2022 11:00:00 AM 16.38 61.484 0.196 7.8 279.1 8.71
5/17/2022 11:15:00 AM 16.46 61.628 0.196 7.81 51.07 9.09
5/17/2022 11:30:00 AM 16.57 61.826 0.192 7.83 8.11 9.03
5/17/2022 11:45:00 AM 16.66 61.988 0.198 7.85 5.86 9.27
5/17/2022 12:00:00 PM 16.73 62.114 0.2 7.84 15.97 9.18
5/17/2022 12:15:00 PM 16.8 62.24 0.199 7.86 22.75 8.79
5/17/2022 12:30:00 PM 16.89 62.402 0.2 7.87 14.43 9.11
5/17/2022 12:45:00 PM 16.89 62.402 0.201 7.87 57.41 9.16
5/17/2022 1:00:00 PM 16.97 62.546 0.199 7.87 6.25 8.84
5/17/2022 1:15:00 PM 17.07 62.726 0.2 7.89 76.51 9.07
5/17/2022 1:30:00 PM 17.17 62.906 0.189 7.91 6.82 9.21
5/17/2022 1:45:00 PM 17.27 63.086 0.196 7.92 4.36 9.14
5/17/2022 2:00:00 PM 17.3 63.14 0.2 7.91 16.25 9.31
5/17/2022 2:15:00 PM 17.37 63.266 0.199 7.94 6.56 9.23
5/17/2022 2:30:00 PM 17.48 63.464 0.198 7.95 8.55 9.23
5/17/2022 2:45:00 PM 17.52 63.536 0.202 7.95 4.23 9.48
5/17/2022 3:00:00 PM 17.61 63.698 0.2 7.95 7.15 9.47
5/17/2022 3:15:00 PM 17.69 63.842 0.201 7.96 7.62 9.24
5/17/2022 3:30:00 PM 17.77 63.986 0.2 7.95 6.82 9.04
5/17/2022 3:45:00 PM 17.87 64.166 0.2 7.97 322.9 9.1
5/17/2022 4:00:00 PM 17.9 64.22 0.2 8.01 642.8 9.37
5/17/2022 4:15:00 PM 17.97 64.346 0.2 8 689.1 9.53
5/17/2022 4:30:00 PM 18.03 64.454 0.194 8.02 5572 9.46
5/17/2022 4:45:00 PM 18.06 64.508 0.2 8.03 5572 9.08
5/17/2022 5:00:00 PM 18.12 64.616 0.199 8.04 5572 9.44
5/17/2022 5:15:00 PM 18.12 64.616 0.2 8.03 5572 9.47
5/17/2022 5:30:00 PM 18.18 64.724 0.203 8.01 5572 9.44
5/17/2022 5:45:00 PM 18.21 64.778 0.201 8.02 5571 9.41
5/17/2022 6:00:00 PM 18.25 64.85 0.202 8.03 5572 9.39
5/17/2022 6:15:00 PM 18.26 64.868 0.203 8.01 5572 9.29
5/17/2022 6:30:00 PM 18.28 64.904 0.203 8.03 5571 9.32
5/17/2022 6:45:00 PM 18.29 64.922 0.203 8.04 5571 9.35
5/17/2022 7:00:00 PM 18.24 64.832 0.201 8.03 5572 9.21
5/17/2022 7:15:00 PM 18.21 64.778 0.204 7.99 5572 9.08
5/17/2022 7:30:00 PM 18.14 64.652 0.203 8 5572 9.07
5/17/2022 7:45:00 PM 18.13 64.634 0.203 7.99 5571 9.04
5/17/2022 8:00:00 PM 18.08 64.544 0.202 7.99 18.99 8.88
5/17/2022 8:15:00 PM 18.02 64.436 0.204 7.94 25.19 8.88
5/17/2022 8:30:00 PM 17.98 64.364 0.202 7.94 19.53 8.85
5/17/2022 8:45:00 PM 17.87 64.166 0.205 7.89 2620 8.75
5/17/2022 9:00:00 PM 17.87 64.166 0.196 7.9 2718 8.69
5/17/2022 9:15:00 PM 17.79 64.022 0.186 7.85 2927 8.63
5/17/2022 9:30:00 PM 17.74 63.932 0.191 7.87 2786 8.46
5/17/2022 9:45:00 PM 17.69 63.842 0.208 7.83 2709 8.5
5/17/2022 10:00:00 PM 17.6 63.68 0.206 7.84 2514 8.37
5/17/2022 10:15:00 PM 17.54 63.572 0.205 7.83 2580 8.31
5/17/2022 10:30:00 PM 17.48 63.464 0.206 7.81 2643 8.37
5/17/2022 10:45:00 PM 17.39 63.302 0.186 7.81 2563 8.31
5/17/2022 11:00:00 PM 17.35 63.23 0.192 7.82 2649 8.24
5/17/2022 11:15:00 PM 17.27 63.086 0.202 7.78 5572 8.08
5/17/2022 11:30:00 PM 17.22 62.996 0.204 7.78 5572 8.12
5/17/2022 11:45:00 PM 17.12 62.816 0.19 7.8 5572 8.22
5/18/2022 12:00:00 AM 17.07 62.726 0.2 7.74 5572 8.19
5/18/2022 12:15:00 AM 17.01 62.618 0.21 7.75 5262 8.23
5/18/2022 12:30:00 AM 16.94 62.492 0.18 7.74 5217 8.23
5/18/2022 12:45:00 AM 16.89 62.402 0.206 7.75 5572 8.2
5/18/2022 1:00:00 AM 16.79 62.222 0.193 7.77 5572 8.19
5/18/2022 1:15:00 AM 16.76 62.168 0.201 7.77 5572 8.11
5/18/2022 1:30:00 AM 16.69 62.042 0.19 7.75 5572 8.2
5/18/2022 1:45:00 AM 16.63 61.934 0.189 7.75 5572 8.09
5/18/2022 2:00:00 AM 16.57 61.826 0.189 7.77 5572 8.19
5/18/2022 2:15:00 AM 16.49 61.682 0.21 7.75 5572 8.2
5/18/2022 2:30:00 AM 16.44 61.592 0.197 7.72 5572 8.16
5/18/2022 2:45:00 AM 16.37 61.466 0.204 7.72 5572 8.15
5/18/2022 3:00:00 AM 16.3 61.34 0.205 7.74 5572 8.13
5/18/2022 3:15:00 AM 16.24 61.232 0.204 7.73 5572 7.95
5/18/2022 3:30:00 AM 16.18 61.124 0.202 7.72 5572 8.13
5/18/2022 3:45:00 AM 16.11 60.998 0.207 7.71 5573 8.09
5/18/2022 4:00:00 AM 16.06 60.908 0.203 7.69 5573 8.1
5/18/2022 4:15:00 AM 16 60.8 0.207 7.72 5573 8.24
5/18/2022 4:30:00 AM 15.93 60.674 0.203 7.7 5573 8.27
5/18/2022 4:45:00 AM 15.88 60.584 0.206 7.69 5573 8.14
5/18/2022 5:00:00 AM 15.82 60.476 0.204 7.69 5573 8.16
5/18/2022 5:15:00 AM 15.76 60.368 0.204 7.7 5573 8.19
5/18/2022 5:30:00 AM 15.67 60.206 0.228 7.69 5573 8.2
5/18/2022 5:45:00 AM 15.65 60.17 0.205 7.7 5573 8.24
5/18/2022 6:00:00 AM 15.58 60.044 0.191 7.69 5573 8.29
5/18/2022 6:15:00 AM 15.53 59.954 0.208 7.67 5573 8.24
5/18/2022 6:30:00 AM 15.48 59.864 0.209 7.7 5573 8.26
5/18/2022 6:45:00 AM 15.42 59.756 0.205 7.67 5573 8.17
5/18/2022 7:00:00 AM 15.37 59.666 0.206 7.7 5573 8.26
5/18/2022 7:15:00 AM 15.32 59.576 0.207 7.7 5573 8.2
5/18/2022 7:30:00 AM 15.29 59.522 0.199 7.7 5573 8.35
5/18/2022 7:45:00 AM 15.26 59.468 0.198 7.72 5573 8.39
5/18/2022 8:00:00 AM 15.24 59.432 0.206 7.71 5573 7.97
5/18/2022 8:15:00 AM 15.25 59.45 0.207 7.73 5573 8.38
5/18/2022 8:30:00 AM 15.25 59.45 0.207 7.72 5573 8.42
5/18/2022 8:45:00 AM 15.27 59.486 0.206 7.74 5573 8.66
5/18/2022 9:00:00 AM 15.35 59.63 0.207 7.74 5573 8.68
5/18/2022 9:15:00 AM 15.42 59.756 0.204 7.75 5573 8.78
5/18/2022 9:30:00 AM 15.48 59.864 0.209 7.73 5573 8.81
5/18/2022 9:45:00 AM 15.54 59.972 0.209 7.8 5573 9.03
5/18/2022 10:00:00 AM 15.59 60.062 0.209 7.81 5573 9.07
5/18/2022 10:15:00 AM 15.66 60.188 0.21 7.82 5573 9.04
5/18/2022 10:30:00 AM 15.74 60.332 0.21 7.8 5573 9.22
5/18/2022 10:45:00 AM 15.81 60.458 0.207 7.85 5573 9.39
5/18/2022 11:00:00 AM 15.88 60.584 0.208 7.89 5573 9.5
5/18/2022 11:15:00 AM 15.95 60.71 0.209 7.89 5573 9.42
5/18/2022 11:30:00 AM 16.03 60.854 0.209 7.9 5573 9.5
5/18/2022 11:45:00 AM 16.11 60.998 0.195 7.94 5573 9.59
5/18/2022 12:00:00 PM 16.17 61.106 0.211 7.92 5573 9.58
5/18/2022 12:15:00 PM 16.24 61.232 0.211 7.93 5573 9.71
5/18/2022 12:30:00 PM 16.3 61.34 0.213 7.95 5573 9.78
5/18/2022 12:45:00 PM 16.38 61.484 0.213 7.95 5573 9.39
5/18/2022 1:00:00 PM 16.52 61.736 0.212 7.98 5572 9.83
5/18/2022 1:15:00 PM 16.58 61.844 0.211 8.02 5573 9.94
5/18/2022 1:30:00 PM 16.68 62.024 0.212 8 5572 9.77
5/18/2022 1:45:00 PM 16.81 62.258 0.209 8.04 5572 9.99
5/18/2022 2:00:00 PM 16.92 62.456 0.212 8.05 5572 10.01
5/18/2022 2:15:00 PM 17.04 62.672 0.21 8.06 5572 9.53
5/18/2022 2:30:00 PM 17.16 62.888 0.211 8.06 5572 9.76
5/18/2022 2:45:00 PM 17.27 63.086 0.21 8.08 5572 10.05
5/18/2022 3:00:00 PM 17.34 63.212 0.211 8.09 5572 9.98
5/18/2022 3:15:00 PM 17.4 63.32 0.212 8.03 5572 10.11
5/18/2022 3:30:00 PM 17.48 63.464 0.212 8.12 5572 9.69
5/18/2022 3:45:00 PM 17.53 63.554 0.212 8.16 5572 10.14
5/18/2022 4:00:00 PM 17.5 63.5 0.218 8.13 5572 10.12
5/18/2022 4:15:00 PM 17.47 63.446 0.215 8.11 5572 9.89
5/18/2022 4:30:00 PM 17.43 63.374 0.207 8.1 5572 9.89
5/18/2022 4:45:00 PM 17.4 63.32 0.214 8.08 5572 9.83
5/18/2022 5:00:00 PM 17.36 63.248 0.211 8.07 5572 9.69
5/18/2022 5:15:00 PM 17.32 63.176 0.201 8.1 5572 9.75
5/18/2022 5:30:00 PM 17.3 63.14 0.211 8.08 5572 9.71
5/18/2022 5:45:00 PM 17.28 63.104 0.209 8.07 5572 9.54
5/18/2022 6:00:00 PM 17.24 63.032 0.21 8.02 5572 9.48
5/18/2022 6:15:00 PM 17.22 62.996 0.215 8.01 5572 9.48
5/18/2022 6:30:00 PM 17.21 62.978 0.214 8 5572 9.27
5/18/2022 6:45:00 PM 17.21 62.978 0.211 8 5572 9.31
5/18/2022 7:00:00 PM 17.2 62.96 0.214 8 5572 9.21
5/18/2022 7:15:00 PM 17.16 62.888 0.216 7.99 5572 9.23
5/18/2022 7:30:00 PM 17.18 62.924 0.213 7.95 5572 9.2
5/18/2022 7:45:00 PM 17.13 62.834 0.211 7.95 5572 9.01
5/18/2022 8:00:00 PM 17.05 62.69 0.217 7.9 5572 9.04
5/18/2022 8:15:00 PM 17.07 62.726 0.209 7.94 5572 9.01
5/18/2022 8:30:00 PM 17 62.6 0.21 7.89 5572 8.92
5/18/2022 8:45:00 PM 16.98 62.564 0.2 7.89 5572 8.79
5/18/2022 9:00:00 PM 16.91 62.438 0.214 7.87 5572 8.83
5/18/2022 9:15:00 PM 16.86 62.348 0.211 7.84 5572 8.78
5/18/2022 9:30:00 PM 16.82 62.276 0.215 7.85 5572 8.75
5/18/2022 9:45:00 PM 16.76 62.168 0.23 7.83 5572 8.73
5/18/2022 10:00:00 PM 16.72 62.096 0.215 7.83 5572 8.68
5/18/2022 10:15:00 PM 16.67 62.006 0.214 7.81 5572 8.58
5/18/2022 10:30:00 PM 16.6 61.88 0.214 7.82 5572 8.59
5/18/2022 10:45:00 PM 16.56 61.808 0.214 7.8 5572 8.59
5/18/2022 11:00:00 PM 16.51 61.718 0.216 7.82 5572 8.55
5/18/2022 11:15:00 PM 16.48 61.664 0.211 7.74 5572 8.45
5/18/2022 11:30:00 PM 16.42 61.556 0.21 7.79 5572 8.5
5/18/2022 11:45:00 PM 16.36 61.448 0.211 7.78 5572 8.4
5/19/2022 12:00:00 AM 16.35 61.43 0.209 7.81 5572 8.45
5/19/2022 12:15:00 AM 16.28 61.304 0.212 7.78 5572 8.46
5/19/2022 12:30:00 AM 16.23 61.214 0.214 7.78 5573 8.47
5/19/2022 12:45:00 AM 16.18 61.124 0.214 7.76 5573 8.42
5/19/2022 1:00:00 AM 16.13 61.034 0.215 7.76 5573 8.42
5/19/2022 1:15:00 AM 16.09 60.962 0.212 7.74 5573 8.39
5/19/2022 1:30:00 AM 16.04 60.872 0.222 7.73 5572 8.32
5/19/2022 1:45:00 AM 15.99 60.782 0.21 7.72 5573 8.36
5/19/2022 2:00:00 AM 15.94 60.692 0.208 7.69 5573 8.27
5/19/2022 2:15:00 AM 15.9 60.62 0.206 7.72 5573 8.15
5/19/2022 2:30:00 AM 15.83 60.494 0.213 7.73 5573 8.28
5/19/2022 2:45:00 AM 15.79 60.422 0.207 7.7 5573 8.26
5/19/2022 3:00:00 AM 15.74 60.332 0.206 7.71 5573 8.28
5/19/2022 3:15:00 AM 15.7 60.26 0.18 7.72 5573 8.38
5/19/2022 3:30:00 AM 15.66 60.188 0.192 7.69 5573 8.33
5/19/2022 3:45:00 AM 15.62 60.116 0.196 7.69 5573 8.34
5/19/2022 4:00:00 AM 15.58 60.044 0.213 7.68 5573 8.39
5/19/2022 4:15:00 AM 15.54 59.972 0.208 7.67 5573 8.38
5/19/2022 4:30:00 AM 15.5 59.9 0.206 7.66 5573 8.38
5/19/2022 4:45:00 AM 15.47 59.846 0.206 7.67 5573 8.39
5/19/2022 5:00:00 AM 15.44 59.792 0.205 7.67 5573 8.38
5/19/2022 5:15:00 AM 15.41 59.738 0.205 7.69 5573 8.44
5/19/2022 5:30:00 AM 15.4 59.72 0.204 7.69 5573 8.44
5/19/2022 5:45:00 AM 15.37 59.666 0.205 7.69 5573 8.39
5/19/2022 6:00:00 AM 15.35 59.63 0.201 7.69 5573 8.43
5/19/2022 6:15:00 AM 15.32 59.576 0.196 7.68 5573 8.4
5/19/2022 6:30:00 AM 15.29 59.522 0.202 7.69 5573 8.4
5/19/2022 6:45:00 AM 15.26 59.468 0.187 7.68 5573 8.4
5/19/2022 7:00:00 AM 15.23 59.414 0.19 7.72 5573 8.48
5/19/2022 7:15:00 AM 15.2 59.36 0.187 7.71 5573 8.48
5/19/2022 7:30:00 AM 15.18 59.324 0.2 7.71 5573 8.46
5/19/2022 7:45:00 AM 15.16 59.288 0.201 7.7 5573 8.45
5/19/2022 8:00:00 AM 15.14 59.252 0.199 7.69 5573 8.49
5/19/2022 8:15:00 AM 15.13 59.234 0.207 7.7 5573 8.45
5/19/2022 8:30:00 AM 15.12 59.216 0.21 7.7 5573 8.5
5/19/2022 8:45:00 AM 15.11 59.198 0.201 7.71 5573 8.55
5/19/2022 9:00:00 AM 15.09 59.162 0.195 7.7 5573 8.52
5/19/2022 9:15:00 AM 15.09 59.162 0.212 7.71 5573 8.53
5/19/2022 9:30:00 AM 15.09 59.162 0.211 7.71 5573 8.57
5/19/2022 9:45:00 AM 15.09 59.162 0.206 7.7 5573 8.59
5/19/2022 10:00:00 AM 15.1 59.18 0.196 7.7 5573 8.27
5/19/2022 10:15:00 AM 15.11 59.198 0.209 7.7 5573 8.57
5/19/2022 10:30:00 AM 15.15 59.27 0.189 7.66 5573 8.59
5/19/2022 10:45:00 AM 15.23 59.414 0.198 7.71 5573 8.64
5/19/2022 11:00:00 AM 15.29 59.522 0.195 7.71 5573 8.74
5/19/2022 11:15:00 AM 15.39 59.702 0.181 7.73 5573 8.65
5/19/2022 11:30:00 AM 15.45 59.81 0.213 7.71 5573 8.83
5/19/2022 11:45:00 AM 15.55 59.99 0.202 7.73 5573 8.9
5/19/2022 12:00:00 PM 15.63 60.134 0.207 7.73 5573 8.92
5/19/2022 12:15:00 PM 15.72 60.296 0.2 7.74 5573 8.99
5/19/2022 12:30:00 PM 15.79 60.422 0.204 7.73 5573 9.01
5/19/2022 12:45:00 PM 15.85 60.53 0.175 7.77 5573 9.14
5/19/2022 1:00:00 PM 15.9 60.62 0.201 7.78 5573 9.13
5/19/2022 1:15:00 PM 16 60.8 0.196 7.8 5573 9.22
5/19/2022 1:30:00 PM 16.12 61.016 0.197 7.77 5573 9.24
5/19/2022 1:45:00 PM 16.24 61.232 0.201 7.81 5573 9.33
5/19/2022 2:00:00 PM 16.34 61.412 0.197 7.82 5573 9.28
5/19/2022 2:15:00 PM 16.45 61.61 0.205 7.82 5573 9.44
5/19/2022 2:30:00 PM 16.55 61.79 0.203 7.76 5572 9.39
5/19/2022 2:45:00 PM 16.62 61.916 0.203 7.81 5572 9.43
5/19/2022 3:00:00 PM 16.69 62.042 0.199 7.82 5572 9.46
5/19/2022 3:15:00 PM 16.78 62.204 0.196 7.85 5572 9.49
5/19/2022 3:30:00 PM 16.84 62.312 0.196 7.85 5572 9.49
5/19/2022 3:45:00 PM 16.88 62.384 0.179 7.87 5572 9.46
5/19/2022 4:00:00 PM 16.92 62.456 0.192 7.86 5278 9.45
5/19/2022 4:15:00 PM 16.96 62.528 0.195 7.74 4705 9.33
5/19/2022 4:30:00 PM 17.05 62.69 0.176 7.83 3637 9.38
5/19/2022 4:45:00 PM 17.09 62.762 0.192 7.82 3015 9.31
5/19/2022 5:00:00 PM 17.17 62.906 0.193 7.86 3462 9.39
5/19/2022 5:15:00 PM 17.23 63.014 0.18 7.85 4213 9.38
5/19/2022 5:30:00 PM 17.29 63.122 0.197 7.87 4885 9.32
5/19/2022 5:45:00 PM 17.36 63.248 0.193 7.82 4597 9.29
5/19/2022 6:00:00 PM 17.39 63.302 0.196 7.87 2344 9.28
5/19/2022 6:15:00 PM 17.39 63.302 0.196 7.77 2701 9.21
5/19/2022 6:30:00 PM 17.48 63.464 0.191 7.86 3191 9.16
5/19/2022 6:45:00 PM 17.44 63.392 0.19 7.83 3298 9.08
5/19/2022 7:00:00 PM 17.37 63.266 0.191 7.84 3332 9.1
5/19/2022 7:15:00 PM 17.49 63.482 0.187 7.8 3239 8.99
5/19/2022 7:30:00 PM 17.47 63.446 0.186 7.62 3074 8.9
5/19/2022 7:45:00 PM 17.44 63.392 0.182 7.78 2710 8.84
5/19/2022 8:00:00 PM 17.41 63.338 0.184 7.72 2494 8.81
5/19/2022 8:15:00 PM 17.39 63.302 0.185 7.72 2629 8.72
5/19/2022 8:30:00 PM 17.36 63.248 0.188 7.75 2344 8.71
5/19/2022 8:45:00 PM 17.26 63.068 0.192 7.65 2587 8.56
5/19/2022 9:00:00 PM 17.26 63.068 0.19 7.67 2478 8.53
5/19/2022 9:15:00 PM 17.22 62.996 0.19 7.63 2412 8.47
5/19/2022 9:30:00 PM 17.17 62.906 0.187 7.71 2253 8.51
5/19/2022 9:45:00 PM 17.15 62.87 0.186 7.68 2143 8.49
5/19/2022 10:00:00 PM 17.12 62.816 0.188 7.63 2221 8.33
5/19/2022 10:15:00 PM 17.07 62.726 0.199 7.61 2302 8.28
5/19/2022 10:30:00 PM 17.06 62.708 0.184 7.62 2153 8.34
5/19/2022 10:45:00 PM 17.03 62.654 0.185 7.63 2221 8.3
5/19/2022 11:00:00 PM 16.99 62.582 0.189 7.58 2132 8.11
5/19/2022 11:15:00 PM 16.96 62.528 0.188 7.6 2034 8.26
5/19/2022 11:30:00 PM 16.94 62.492 0.189 7.61 2102 8.24
5/19/2022 11:45:00 PM 16.89 62.402 0.193 7.56 2139 8.08
5/20/2022 12:00:00 AM 16.87 62.366 0.194 7.61 2215 8.06
5/20/2022 12:15:00 AM 16.82 62.276 0.195 7.59 2238 8.16
5/20/2022 12:30:00 AM 16.8 62.24 0.193 7.54 2148 8.18
5/20/2022 12:45:00 AM 16.77 62.186 0.192 7.6 2131 8.25
5/20/2022 1:00:00 AM 16.72 62.096 0.188 7.62 2084 8.15
5/20/2022 1:15:00 AM 16.68 62.024 0.186 7.62 2213 8.07
5/20/2022 1:30:00 AM 16.66 61.988 0.185 7.58 2203 8.1
5/20/2022 1:45:00 AM 16.64 61.952 0.185 7.58 2135 8.07
5/20/2022 2:00:00 AM 16.6 61.88 0.188 7.58 2112 8.02
5/20/2022 2:15:00 AM 16.55 61.79 0.192 7.64 1863 7.91
5/20/2022 2:30:00 AM 16.52 61.736 0.188 7.62 1846 8
5/20/2022 2:45:00 AM 16.48 61.664 0.194 7.58 1391 8.03
5/20/2022 3:00:00 AM 16.48 61.664 0.19 7.64 1115 8.03
5/20/2022 3:15:00 AM 16.45 61.61 0.197 7.61 979.8 7.96
5/20/2022 3:30:00 AM 16.42 61.556 0.194 7.59 945 7.9
5/20/2022 3:45:00 AM 16.41 61.538 0.191 7.59 922.6 7.94
5/20/2022 4:00:00 AM 16.39 61.502 0.195 7.57 940.5 7.93
5/20/2022 4:15:00 AM 16.36 61.448 0.195 7.52 921.7 7.99
5/20/2022 4:30:00 AM 16.36 61.448 0.188 7.59 894.4 7.98
5/20/2022 4:45:00 AM 16.34 61.412 0.19 7.57 1274 7.77
5/20/2022 5:00:00 AM 16.32 61.376 0.192 7.6 1317 8.01
5/20/2022 5:15:00 AM 16.3 61.34 0.19 7.61 1474 7.91
5/20/2022 5:30:00 AM 16.27 61.286 0.199 7.58 1423 7.98
5/20/2022 5:45:00 AM 16.25 61.25 0.195 7.58 1396 7.99
5/20/2022 6:00:00 AM 16.24 61.232 0.195 7.58 1394 7.93
5/20/2022 6:15:00 AM 16.22 61.196 0.198 7.56 4538 8.02
5/20/2022 6:30:00 AM 16.19 61.142 0.196 7.56 4266 8.02
5/20/2022 6:45:00 AM 16.18 61.124 0.199 7.58 4075 8.18
5/20/2022 7:00:00 AM 16.17 61.106 0.198 7.59 3813 8.18
5/20/2022 7:15:00 AM 16.16 61.088 0.197 7.58 3581 8.19
5/20/2022 7:30:00 AM 16.14 61.052 0.21 7.6 3415 7.91
5/20/2022 7:45:00 AM 16.12 61.016 0.197 7.59 3194 7.66
5/20/2022 8:00:00 AM 16.13 61.034 0.196 7.62 2992 7.8
5/20/2022 8:15:00 AM 16.13 61.034 0.202 7.6 2959 8.15
5/20/2022 8:30:00 AM 16.15 61.07 0.2 7.6 2753 8.02
5/20/2022 8:45:00 AM 16.16 61.088 0.197 7.57 2508 7.99
5/20/2022 9:00:00 AM 16.15 61.07 0.208 7.62 2289 8.27
5/20/2022 9:15:00 AM 16.16 61.088 0.202 7.61 2140 8.17
5/20/2022 9:30:00 AM 16.17 61.106 0.201 7.65 2022 8.19
5/20/2022 9:45:00 AM 16.18 61.124 0.202 7.64 1750 8.25
5/20/2022 10:00:00 AM 16.28 61.304 0.203 7.62 1645 8.15
5/20/2022 10:15:00 AM 16.31 61.358 0.2 7.68 1559 8.59
5/20/2022 10:30:00 AM 16.32 61.376 0.201 7.72 1377 8.54
5/20/2022 10:45:00 AM 16.35 61.43 0.205 7.7 1242 8.76
5/20/2022 11:00:00 AM 16.39 61.502 0.207 7.65 1134 8.45
5/20/2022 11:15:00 AM 16.42 61.556 0.206 7.66 941.4 8.61
5/20/2022 11:30:00 AM 16.43 61.574 0.207 7.71 876.5 8.74
5/20/2022 11:45:00 AM 16.5 61.7 0.205 7.75 839.6 8.72
5/20/2022 12:00:00 PM 16.51 61.718 0.216 7.75 823.6 9.08
5/20/2022 12:15:00 PM 16.59 61.862 0.223 7.75 796.8 9.03
5/20/2022 12:30:00 PM 16.65 61.97 0.206 7.8 748.2 9.21
5/20/2022 12:45:00 PM 16.68 62.024 0.211 7.75 701.8 9.23
5/20/2022 1:00:00 PM 16.72 62.096 0.207 7.81 780.9 9.31
5/20/2022 1:15:00 PM 16.79 62.222 0.209 7.78 746.3 9.28
5/20/2022 1:30:00 PM 16.83 62.294 0.209 7.85 678.2 9.43
5/20/2022 1:45:00 PM 16.87 62.366 0.207 7.85 616.7 9.45
5/20/2022 2:00:00 PM 16.9 62.42 0.208 7.87 552.1 9.37
5/20/2022 2:15:00 PM 16.92 62.456 0.208 7.89 492.6 9.48
5/20/2022 2:30:00 PM 16.93 62.474 0.21 7.85 441.8 9.38
5/20/2022 2:45:00 PM 16.94 62.492 0.21 7.87 417.5 9.39
5/20/2022 3:00:00 PM 16.96 62.528 0.208 7.89 398.1 9.51
5/20/2022 3:15:00 PM 16.99 62.582 0.208 7.88 392.7 9.34
5/20/2022 3:30:00 PM 17.02 62.636 0.211 7.91 385.2 9.49
5/20/2022 3:45:00 PM 17.03 62.654 0.21 7.94 382.9 9.53
5/20/2022 4:00:00 PM 17.04 62.672 0.212 7.87 367.7 9.43
5/20/2022 4:15:00 PM 17.05 62.69 0.21 7.85 365.6 9.49
5/20/2022 4:30:00 PM 17.09 62.762 0.21 7.89 350.3 9.47
5/20/2022 4:45:00 PM 17.12 62.816 0.213 7.89 344.3 9.51
5/20/2022 5:00:00 PM 17.18 62.924 0.211 7.8 343.3 9.53
5/20/2022 5:15:00 PM 17.21 62.978 0.211 7.83 326.8 9.47
5/20/2022 5:30:00 PM 17.22 62.996 0.219 7.81 320.4 9.46
5/20/2022 5:45:00 PM 17.22 62.996 0.218 7.74 293.7 9.32
5/20/2022 6:00:00 PM 17.26 63.068 0.219 7.83 279.3 9.29
5/20/2022 6:15:00 PM 17.26 63.068 0.217 7.87 264 9.45
5/20/2022 6:30:00 PM 17.27 63.086 0.217 7.89 256.5 9.32
5/20/2022 6:45:00 PM 17.27 63.086 0.201 7.94 248.2 9.42
5/20/2022 7:00:00 PM 17.28 63.104 0.221 7.81 247.5 9.27
5/20/2022 7:15:00 PM 17.27 63.086 0.199 7.93 241.8 9.31
5/20/2022 7:30:00 PM 17.26 63.068 0.213 7.92 240.9 9.24
5/20/2022 7:45:00 PM 17.26 63.068 0.212 7.94 233.4 9.27
5/20/2022 8:00:00 PM 17.22 62.996 0.218 7.85 228 8.93
5/20/2022 8:15:00 PM 17.19 62.942 0.213 7.83 219.8 9.01
5/20/2022 8:30:00 PM 17.21 62.978 0.211 7.88 223.8 8.95
5/20/2022 8:45:00 PM 17.17 62.906 0.213 7.86 219.5 8.81
5/20/2022 9:00:00 PM 17.17 62.906 0.22 7.81 208.4 8.87
5/20/2022 9:15:00 PM 17.12 62.816 0.221 7.79 213.4 8.78
5/20/2022 9:30:00 PM 17.09 62.762 0.223 7.79 207.6 8.71
5/20/2022 9:45:00 PM 17.06 62.708 0.219 7.79 201.9 8.58
5/20/2022 10:00:00 PM 17.03 62.654 0.218 7.79 193.5 8.59
5/20/2022 10:15:00 PM 16.99 62.582 0.217 7.77 195.4 8.53
5/20/2022 10:30:00 PM 16.97 62.546 0.213 7.75 186.9 8.49
5/20/2022 10:45:00 PM 16.94 62.492 0.216 7.72 190.4 8.33
5/20/2022 11:00:00 PM 16.92 62.456 0.216 7.73 184.2 8.48
5/20/2022 11:15:00 PM 16.91 62.438 0.219 7.71 176.3 8.46
5/20/2022 11:30:00 PM 16.88 62.384 0.214 7.72 169.2 8.36
5/20/2022 11:45:00 PM 16.86 62.348 0.214 7.74 169.1 8.41
5/21/2022 12:00:00 AM 16.84 62.312 0.218 7.69 168.4 8.35
5/21/2022 12:15:00 AM 16.81 62.258 0.219 7.72 172 8.34
5/21/2022 12:30:00 AM 16.79 62.222 0.22 7.74 163.6 8.32
5/21/2022 12:45:00 AM 16.76 62.168 0.223 7.68 166.5 8.28
5/21/2022 1:00:00 AM 16.74 62.132 0.22 7.65 163.6 8.26
5/21/2022 1:15:00 AM 16.71 62.078 0.222 7.69 167 8.31
5/21/2022 1:30:00 AM 16.69 62.042 0.216 7.7 163.8 8.25
5/21/2022 1:45:00 AM 16.67 62.006 0.217 7.66 161.8 8.25
5/21/2022 2:00:00 AM 16.64 61.952 0.215 7.68 154 8.29
5/21/2022 2:15:00 AM 16.62 61.916 0.225 7.6 151.2 8.27
5/21/2022 2:30:00 AM 16.6 61.88 0.215 7.65 146.7 8.21
5/21/2022 2:45:00 AM 16.58 61.844 0.215 7.66 143.8 8.24
5/21/2022 3:00:00 AM 16.55 61.79 0.222 7.64 155.8 8.17
5/21/2022 3:15:00 AM 16.53 61.754 0.222 7.65 153.2 8.1
5/21/2022 3:30:00 AM 16.52 61.736 0.219 7.64 150.7 8.09
5/21/2022 3:45:00 AM 16.48 61.664 0.22 7.61 147.8 8.13
5/21/2022 4:00:00 AM 16.46 61.628 0.22 7.63 148.3 8.14
5/21/2022 4:15:00 AM 16.44 61.592 0.212 7.64 148.9 8.17
5/21/2022 4:30:00 AM 16.42 61.556 0.219 7.63 148.5 8.13
5/21/2022 4:45:00 AM 16.41 61.538 0.219 7.64 138.7 8.05
5/21/2022 5:00:00 AM 16.4 61.52 0.212 7.63 138.2 8.11
5/21/2022 5:15:00 AM 16.4 61.52 0.212 7.68 135.5 8.21
5/21/2022 5:30:00 AM 16.38 61.484 0.219 7.62 141.7 7.99
5/21/2022 5:45:00 AM 16.36 61.448 0.22 7.57 128.1 8.1
5/21/2022 6:00:00 AM 16.35 61.43 0.219 7.6 126.1 8.15
5/21/2022 6:15:00 AM 16.34 61.412 0.22 7.63 121.6 8.16
5/21/2022 6:30:00 AM 16.34 61.412 0.22 7.63 118.3 8.05
5/21/2022 6:45:00 AM 16.32 61.376 0.207 7.6 119.2 8.03
5/21/2022 7:00:00 AM 16.31 61.358 0.218 7.63 112.9 8.15
5/21/2022 7:15:00 AM 16.31 61.358 0.22 7.61 114 7.94
5/21/2022 7:30:00 AM 16.3 61.34 0.22 7.61 112 8.15
5/21/2022 7:45:00 AM 16.3 61.34 0.221 7.69 110.6 8.32
5/21/2022 8:00:00 AM 16.29 61.322 0.214 7.65 111.8 8.4
5/21/2022 8:15:00 AM 16.28 61.304 0.214 7.66 113.3 8.35
5/21/2022 8:30:00 AM 16.3 61.34 0.214 7.68 109.7 8.42
5/21/2022 8:45:00 AM 16.3 61.34 0.22 7.69 109.2 8.51
5/21/2022 9:00:00 AM 16.31 61.358 0.217 7.71 107.8 8.56
5/21/2022 9:15:00 AM 16.34 61.412 0.217 7.73 107.3 8.63
5/21/2022 9:30:00 AM 16.37 61.466 0.219 7.71 107.5 8.76
5/21/2022 9:45:00 AM 16.43 61.574 0.217 7.73 107.2 8.57
5/21/2022 10:00:00 AM 16.54 61.772 0.208 7.75 105.4 8.88
5/21/2022 10:15:00 AM 16.65 61.97 0.217 7.79 104.7 9.02
5/21/2022 10:30:00 AM 16.72 62.096 0.215 7.79 105.2 9.06
5/21/2022 10:45:00 AM 16.77 62.186 0.215 7.79 105.4 8.66
5/21/2022 11:00:00 AM 16.88 62.384 0.217 7.81 106.4 9.15
5/21/2022 11:15:00 AM 17 62.6 0.216 7.85 107.3 9.02
5/21/2022 11:30:00 AM 17.1 62.78 0.223 7.82 102.9 9.24
5/21/2022 11:45:00 AM 17.19 62.942 0.219 7.85 105.3 9.5
5/21/2022 12:00:00 PM 17.32 63.176 0.217 7.91 103 9.44
5/21/2022 12:15:00 PM 17.39 63.302 0.218 7.88 102.2 9.51
5/21/2022 12:30:00 PM 17.53 63.554 0.218 7.86 99.82 9.63
5/21/2022 12:45:00 PM 17.67 63.806 0.22 7.94 94.79 9.43
5/21/2022 1:00:00 PM 17.73 63.914 0.222 7.89 92.21 9.56
5/21/2022 1:15:00 PM 17.88 64.184 0.221 7.91 90.96 9.61
5/21/2022 1:30:00 PM 18 64.4 0.218 7.89 89.02 9.76
5/21/2022 1:45:00 PM 18.07 64.526 0.219 7.93 87.84 9.88
5/21/2022 2:00:00 PM 18.12 64.616 0.219 7.93 86.89 9.56
5/21/2022 2:15:00 PM 18.25 64.85 0.22 7.92 85.84 9.5
5/21/2022 2:30:00 PM 18.35 65.03 0.218 7.99 84.43 9.8
5/21/2022 2:45:00 PM 18.43 65.174 0.218 7.92 88.67 9.73
5/21/2022 3:00:00 PM 18.51 65.318 0.23 7.91 896.4 9.61
5/21/2022 3:15:00 PM 18.61 65.498 0.221 8.01 825.5 9.76
5/21/2022 3:30:00 PM 18.64 65.552 0.213 8.03 791 9.22
5/21/2022 3:45:00 PM 18.73 65.714 0.22 7.99 741.6 9.16
5/21/2022 4:00:00 PM 18.81 65.858 0.219 8.03 615.7 9.61
5/21/2022 4:15:00 PM 18.84 65.912 0.228 7.95 467.9 9.75
5/21/2022 4:30:00 PM 18.82 65.876 0.224 7.93 467.1 9.64
5/21/2022 4:45:00 PM 18.91 66.038 0.218 8.05 499.4 9.68
5/21/2022 5:00:00 PM 18.95 66.11 0.222 8.04 503.2 9.76
5/21/2022 5:15:00 PM 19.01 66.218 0.221 8.06 502.5 9.58
5/21/2022 5:30:00 PM 19.04 66.272 0.217 8.11 500.5 9.63
5/21/2022 5:45:00 PM 19.12 66.416 0.221 8.08 499 9.57
5/21/2022 6:00:00 PM 19.15 66.47 0.205 8.13 332.6 9.63
5/21/2022 6:15:00 PM 19.18 66.524 0.222 8.09 182 9.55
5/21/2022 6:30:00 PM 19.22 66.596 0.222 8.09 194.6 9.49
5/21/2022 6:45:00 PM 19.21 66.578 0.232 8 196.2 9.25
5/21/2022 7:00:00 PM 19.25 66.65 0.221 8.05 198.5 9.39
5/21/2022 7:15:00 PM 19.21 66.578 0.222 8.02 192.2 9.05
5/21/2022 7:30:00 PM 19.2 66.56 0.22 8.01 185.4 9.18
5/21/2022 7:45:00 PM 19.2 66.56 0.221 7.9 187.2 8.77
5/21/2022 8:00:00 PM 19.15 66.47 0.222 7.91 180.9 8.85
5/21/2022 8:15:00 PM 19.16 66.488 0.221 7.94 178.1 8.79
5/21/2022 8:30:00 PM 19.08 66.344 0.226 7.81 172.2 8.31
5/21/2022 8:45:00 PM 19.04 66.272 0.222 7.87 182.9 8.65
5/21/2022 9:00:00 PM 19.04 66.272 0.221 7.88 182.8 8.47
5/21/2022 9:15:00 PM 19.01 66.218 0.224 7.88 184.8 8.53
5/21/2022 9:30:00 PM 18.99 66.182 0.226 7.85 179.7 8.5
5/21/2022 9:45:00 PM 18.97 66.146 0.225 7.87 190.4 8.41
5/21/2022 10:00:00 PM 18.93 66.074 0.229 7.82 181.6 8.31
5/21/2022 10:15:00 PM 18.89 66.002 0.233 7.79 170.5 8.27
5/21/2022 10:30:00 PM 18.88 65.984 0.229 7.76 171.2 8.23
5/21/2022 10:45:00 PM 18.88 65.984 0.231 7.76 179.7 8.08
5/21/2022 11:00:00 PM 18.85 65.93 0.234 7.74 192 8.05
5/21/2022 11:15:00 PM 18.83 65.894 0.231 7.68 197.4 7.87
5/21/2022 11:30:00 PM 18.83 65.894 0.234 7.67 198 7.86
5/21/2022 11:45:00 PM 18.86 65.948 0.227 7.69 191.9 7.78
5/22/2022 12:00:00 AM 18.84 65.912 0.232 7.74 183.8 7.69
5/22/2022 12:15:00 AM 18.84 65.912 0.229 7.75 179.1 7.79
5/22/2022 12:30:00 AM 18.84 65.912 0.229 7.77 177.3 7.77
5/22/2022 12:45:00 AM 18.84 65.912 0.244 7.75 177.6 7.92
5/22/2022 1:00:00 AM 18.78 65.804 0.231 7.65 179.9 7.74
5/22/2022 1:15:00 AM 18.77 65.786 0.232 7.7 179.8 7.71
5/22/2022 1:30:00 AM 18.76 65.768 0.231 7.7 179.8 7.69
5/22/2022 1:45:00 AM 18.74 65.732 0.225 7.72 180.9 7.73
5/22/2022 2:00:00 AM 18.7 65.66 0.226 7.67 182.8 7.7
5/22/2022 2:15:00 AM 18.71 65.67799 0.232 7.68 179 7.4
5/22/2022 2:30:00 AM 18.64 65.552 0.233 7.67 176.5 7.26
5/22/2022 2:45:00 AM 18.62 65.516 0.227 7.69 171.5 7.25
5/22/2022 3:00:00 AM 18.61 65.498 0.228 7.62 163.6 7.05
5/22/2022 3:15:00 AM 18.56 65.408 0.238 7.61 158 7.53
5/22/2022 3:30:00 AM 18.54 65.372 0.23 7.64 154.4 7.44
5/22/2022 3:45:00 AM 18.5 65.3 0.238 7.67 146.4 7.65
5/22/2022 4:00:00 AM 18.46 65.228 0.241 7.66 137.1 7.5
5/22/2022 4:15:00 AM 18.41 65.138 0.229 7.58 124.1 6.83
5/22/2022 4:30:00 AM 18.36 65.048 0.243 7.59 109.4 7.28
5/22/2022 4:45:00 AM 18.32 64.976 0.24 7.58 97.59 6.39
5/22/2022 5:00:00 AM 18.3 64.94 0.23 7.63 91.54 7.24
5/22/2022 5:15:00 AM 18.28 64.904 0.227 7.62 85.65 7.51
5/22/2022 5:30:00 AM 18.25 64.85 0.231 7.66 80.51 7.33
5/22/2022 5:45:00 AM 18.23 64.814 0.224 7.65 77.03 7.71
5/22/2022 6:00:00 AM 18.2 64.76 0.226 7.59 65.58 7.36
5/22/2022 6:15:00 AM 18.2 64.76 0.227 7.64 57.57 7.48
5/22/2022 6:30:00 AM 18.16 64.688 0.241 7.66 45.83 7.41
5/22/2022 6:45:00 AM 18.13 64.634 0.242 7.57 39.75 7.5
5/22/2022 7:00:00 AM 18.13 64.634 0.234 7.65 35.85 7.68
5/22/2022 7:15:00 AM 18.09 64.562 0.24 7.55 32.35 7.38
5/22/2022 7:30:00 AM 18.09 64.562 0.228 7.65 29.69 7.78
5/22/2022 7:45:00 AM 18.1 64.58 0.231 7.65 28.35 7.77
5/22/2022 8:00:00 AM 18.09 64.562 0.226 7.67 25.1 7.92
5/22/2022 8:15:00 AM 18.12 64.616 0.231 7.65 24.17 7.91
5/22/2022 8:30:00 AM 18.11 64.598 0.227 7.54 22.18 7.88
5/22/2022 8:45:00 AM 18.14 64.652 0.232 7.55 20.74 7.78
5/22/2022 9:00:00 AM 18.19 64.742 0.221 7.67 20.04 7.52
5/22/2022 9:15:00 AM 18.23 64.814 0.245 7.61 18.14 7.98
5/22/2022 9:30:00 AM 18.28 64.904 0.232 7.71 17.54 8.34
5/22/2022 9:45:00 AM 18.34 65.012 0.236 7.69 17.15 8.35
5/22/2022 10:00:00 AM 18.42 65.156 0.239 7.65 16.13 8.43
5/22/2022 10:15:00 AM 18.51 65.318 0.23 7.8 15.31 8.55
5/22/2022 10:30:00 AM 18.56 65.408 0.217 7.76 14.69 8.7
5/22/2022 10:45:00 AM 18.67 65.606 0.234 7.75 14.18 8.69
5/22/2022 11:00:00 AM 18.74 65.732 0.233 7.73 13.81 8.51
5/22/2022 11:15:00 AM 18.85 65.93 0.229 7.85 13.06 9.04
5/22/2022 11:30:00 AM 18.95 66.11 0.232 7.77 12.52 9.13
5/22/2022 11:45:00 AM 19.02 66.236 0.237 7.84 12.21 9.22
5/22/2022 12:00:00 PM 19.12 66.416 0.228 7.8 11.75 9.25
5/22/2022 12:15:00 PM 19.21 66.578 0.234 7.9 10.83 9.38
5/22/2022 12:30:00 PM 19.31 66.758 0.235 7.76 10.57 9.39
5/22/2022 12:45:00 PM 19.43 66.974 0.239 7.88 10.38 9.47
5/22/2022 1:00:00 PM 19.52 67.136 0.23 7.92 10.12 9.59
5/22/2022 1:15:00 PM 19.65 67.37 0.229 7.94 9.87 9.62
5/22/2022 1:30:00 PM 19.81 67.658 0.228 8.02 9.03 9.67
5/22/2022 1:45:00 PM 19.75 67.55 0.229 7.91 8.65 9.58
5/22/2022 2:00:00 PM 19.77 67.586 0.234 7.85 7.96 9.06
5/22/2022 2:15:00 PM 19.86 67.748 0.229 7.86 7.78 9.77
5/22/2022 2:30:00 PM 19.89 67.802 0.23 7.88 7.73 9.61
5/22/2022 2:45:00 PM 19.95 67.91 0.231 7.93 7.18 8.8
5/22/2022 3:00:00 PM 20.07 68.126 0.243 7.91 6.86 9.35
5/22/2022 3:15:00 PM 20.13 68.234 0.239 7.91 6.65 9.54
5/22/2022 3:30:00 PM 20.09 68.162 0.24 7.94 6.3 8.97
5/22/2022 3:45:00 PM 20.08 68.144 0.23 7.87 6.07 9.27
5/22/2022 4:00:00 PM 20.1 68.18 0.235 7.84 5.86 8.96
5/22/2022 4:15:00 PM 20.1 68.18 0.228 7.75 5.74 8.88
5/22/2022 4:30:00 PM 20.11 68.198 0.229 7.8 5.62 8.82
5/22/2022 4:45:00 PM 20.11 68.198 0.232 7.88 5.16 8.78
5/22/2022 5:00:00 PM 20.14 68.252 0.231 7.92 5.14 8.63
5/22/2022 5:15:00 PM 20.17 68.306 0.228 7.87 4.78 8.9
5/22/2022 5:30:00 PM 20.23 68.414 0.24 7.84 4.72 8.66
5/22/2022 5:45:00 PM 20.23 68.414 0.236 7.82 4.58 8.74
5/22/2022 6:00:00 PM 20.33 68.594 0.244 7.86 4.14 8.63
5/22/2022 6:15:00 PM 20.36 68.648 0.233 8 4.05 8.03
5/22/2022 6:30:00 PM 20.38 68.684 0.245 7.72 3.76 8.56
5/22/2022 6:45:00 PM 20.33 68.594 0.236 7.79 3.66 8.64
5/22/2022 7:00:00 PM 20.35 68.63 0.233 7.96 3.37 8.66
5/22/2022 7:15:00 PM 20.35 68.63 0.244 7.87 3.28 8.64
5/22/2022 7:30:00 PM 20.33 68.594 0.233 7.89 3.27 8.52
5/22/2022 7:45:00 PM 20.34 68.612 0.244 7.86 3.01 8.5
5/22/2022 8:00:00 PM 20.35 68.63 0.248 7.92 2.96 8.16
5/22/2022 8:15:00 PM 20.33 68.594 0.255 7.86 3.03 8.27
5/22/2022 8:30:00 PM 20.28 68.504 0.231 7.89 2.74 8.25
5/22/2022 8:45:00 PM 20.28 68.504 0.235 7.84 2.71 8.15
5/22/2022 9:00:00 PM 20.26 68.468 0.243 7.75 2.61 8.14
5/22/2022 9:15:00 PM 20.21 68.378 0.234 7.81 2.62 8.1
5/22/2022 9:30:00 PM 20.2 68.36 0.234 7.8 2.6 8
5/22/2022 9:45:00 PM 20.18 68.324 0.241 7.79 2.5 7.9
5/22/2022 10:00:00 PM 20.22 68.396 0.235 7.82 2.39 7.83
5/22/2022 10:15:00 PM 20.18 68.324 0.234 7.81 2.34 7.78
5/22/2022 10:30:00 PM 20.13 68.234 0.251 7.84 2.32 7.78
5/22/2022 10:45:00 PM 20.09 68.162 0.239 7.8 2.07 7.75
5/22/2022 11:00:00 PM 20.03 68.054 0.245 7.73 2.14 7.73
5/22/2022 11:15:00 PM 19.98 67.964 0.239 7.72 2.02 7.64
5/22/2022 11:30:00 PM 19.92 67.856 0.236 7.75 1.9 7.7
5/22/2022 11:45:00 PM 19.84 67.712 0.233 7.73 1.83 7.67
5/23/2022 12:00:00 AM 19.8 67.64 0.233 7.78 1.78 7.69
5/23/2022 12:15:00 AM 19.82 67.676 0.233 7.79 1.77 7.61
5/23/2022 12:30:00 AM 19.78 67.604 0.235 7.79 1.75 7.65
5/23/2022 12:45:00 AM 19.73 67.514 0.237 7.8 1.71 7.67
5/23/2022 1:00:00 AM 19.69 67.442 0.239 7.77 1.62 7.41
5/23/2022 1:15:00 AM 19.63 67.334 0.245 7.76 1.59 7.38
5/23/2022 1:30:00 AM 19.59 67.262 0.24 7.71 1.61 7.49
5/23/2022 1:45:00 AM 19.54 67.172 0.236 7.68 1.58 7.47
5/23/2022 2:00:00 AM 19.51 67.118 0.238 7.74 1.53 7.54
5/23/2022 2:15:00 AM 19.45 67.01 0.235 7.75 1.48 7.53
5/23/2022 2:30:00 AM 19.38 66.884 0.235 7.76 1.45 7.54
5/23/2022 2:45:00 AM 19.33 66.794 0.235 7.76 1.46 7.54
5/23/2022 3:00:00 AM 19.26 66.668 0.247 7.68 1.46 7.56
5/23/2022 3:15:00 AM 19.21 66.578 0.238 7.73 1.42 7.46
5/23/2022 3:30:00 AM 19.12 66.416 0.242 7.72 1.42 7.33
5/23/2022 3:45:00 AM 19.06 66.308 0.241 7.72 1.36 7.37
5/23/2022 4:00:00 AM 18.99 66.182 0.239 7.72 1.36 7.48
5/23/2022 4:15:00 AM 18.93 66.074 0.224 7.69 1.31 7.29
5/23/2022 4:30:00 AM 18.86 65.948 0.24 7.72 1.31 7.53
5/23/2022 4:45:00 AM 18.8 65.84 0.235 7.73 1.37 7.45
5/23/2022 5:00:00 AM 18.72 65.696 0.24 7.7 1.36 7.39
5/23/2022 5:15:00 AM 18.66 65.588 0.236 7.7 1.28 7.31
5/23/2022 5:30:00 AM 18.6 65.48 0.234 7.68 1.24 7.3
5/23/2022 5:45:00 AM 18.53 65.354 0.235 7.73 1.32 7.3
5/23/2022 6:00:00 AM 18.46 65.228 0.233 7.7 1.09 6.54
5/23/2022 6:15:00 AM 18.39 65.102 0.233 7.73 1.14 6.99
5/23/2022 6:30:00 AM 18.33 64.994 0.246 7.71 1.19 6.96
5/23/2022 6:45:00 AM 18.28 64.904 0.246 7.72 1.12 7.29
5/23/2022 7:00:00 AM 18.23 64.814 0.241 7.74 1.09 7.36
5/23/2022 7:15:00 AM 18.18 64.724 0.235 7.73 1.11 7.17
5/23/2022 7:30:00 AM 18.12 64.616 0.243 7.73 1.14 7.04
5/23/2022 7:45:00 AM 18.09 64.562 0.235 7.77 1.13 7.66
5/23/2022 8:00:00 AM 18.05 64.49 0.233 7.77 1.12 6.91
5/23/2022 8:15:00 AM 18.02 64.436 0.236 7.71 1.08 5.65
5/23/2022 8:30:00 AM 17.99 64.382 0.242 7.69 1.08 5.85
5/23/2022 8:45:00 AM 17.96 64.328 0.235 7.76 1.04 5.79
5/23/2022 9:00:00 AM 17.95 64.31 0.236 7.79 1.05 6.82
5/23/2022 9:15:00 AM 17.96 64.328 0.236 7.71 0.98 6.05
5/23/2022 9:30:00 AM 17.95 64.31 0.239 7.82 1.03 6.34
5/23/2022 9:45:00 AM 17.96 64.328 0.235 7.78 0.96 6.57
5/23/2022 10:00:00 AM 17.98 64.364 0.237 7.77 0.94 6.86
5/23/2022 10:15:00 AM 17.98 64.364 0.244 7.75 0.89 3.82
5/23/2022 10:30:00 AM 17.99 64.382 0.242 7.74 0.85 5.05
5/23/2022 10:45:00 AM 18.03 64.454 0.237 7.73 0.89 5.72
5/23/2022 11:00:00 AM 18.08 64.544 0.237 7.78 0.83 7.4
5/23/2022 11:15:00 AM 18.1 64.58 0.237 7.76 0.87 7.17
5/23/2022 11:30:00 AM 18.13 64.634 0.236 7.81 0.85 7.02
5/23/2022 11:45:00 AM 18.17 64.706 0.233 7.91 0.76 5.09
5/23/2022 12:00:00 PM 18.2 64.76 0.242 7.9 0.82 3.48
5/23/2022 12:15:00 PM 18.27 64.886 0.233 7.98 0.76 6.44
5/23/2022 12:30:00 PM 18.31 64.958 0.236 7.96 0.73 7.15
5/23/2022 12:45:00 PM 18.36 65.048 0.237 7.98 0.76 6.47
5/23/2022 1:00:00 PM 18.39 65.102 0.235 7.99 0.65 6.99
5/23/2022 1:15:00 PM 18.44 65.192 0.235 8.07 0.68 8.16
5/23/2022 1:30:00 PM 18.47 65.246 0.239 8.04 0.6 4.62
5/23/2022 1:45:00 PM 18.53 65.354 0.234 8.14 0.59 9.2
5/23/2022 2:00:00 PM 18.53 65.354 0.233 8.14 0.59 9.86
5/23/2022 2:15:00 PM 18.56 65.408 0.236 8.09 0.46 9.94
5/23/2022 2:30:00 PM 18.58 65.444 0.233 8.17 0.42 9.9
5/23/2022 2:45:00 PM 18.6 65.48 0.234 8.04 0.32 9.8
5/23/2022 3:00:00 PM 18.63 65.534 0.236 8.11 0.17 10.01
5/23/2022 3:15:00 PM 18.62 65.516 0.236 8.12 0.09 9.98
5/23/2022 3:30:00 PM 18.65 65.57 0.233 8.15 0.01 9.81
5/23/2022 3:45:00 PM 18.65 65.57 0.234 8.15 -0.01 9.93
5/23/2022 4:00:00 PM 18.67 65.606 0.234 8.15 279.4 9.24
5/23/2022 4:15:00 PM 18.7 65.66 0.235 8.16 8.47 9.16
5/23/2022 4:30:00 PM 18.67 65.606 0.234 8.1 15.47 8.79
5/23/2022 4:45:00 PM 18.66 65.588 0.234 8.12 3.9 9.32
5/23/2022 5:00:00 PM 18.63 65.534 0.234 8.18 5192 9.35
5/23/2022 5:15:00 PM 18.61 65.498 0.234 8.23 5571 9.26
5/23/2022 5:30:00 PM 18.58 65.444 0.233 8.14 5571 9.64
5/23/2022 5:45:00 PM 18.55 65.39 0.232 8.09 5571 9.57
5/23/2022 6:00:00 PM 18.53 65.354 0.236 8.17 5571 9.49
5/23/2022 6:15:00 PM 18.5 65.3 0.237 8.01 5571 9.32
5/23/2022 6:30:00 PM 18.48 65.264 0.233 8.11 5571 9.37
5/23/2022 6:45:00 PM 18.45 65.21 0.24 8.06 5571 9.17
5/23/2022 7:00:00 PM 18.42 65.156 0.239 8.08 5511 8.96
5/23/2022 7:15:00 PM 18.38 65.084 0.238 8.07 5571 9.04
5/23/2022 7:30:00 PM 18.35 65.03 0.241 7.98 5571 8.56
5/23/2022 7:45:00 PM 18.31 64.958 0.24 8.03 5571 8.51
5/23/2022 8:00:00 PM 18.26 64.868 0.237 7.94 5571 8.72
5/23/2022 8:15:00 PM 18.21 64.778 0.235 7.9 5571 8.3
5/23/2022 8:30:00 PM 18.16 64.688 0.239 7.98 5571 8.55
5/23/2022 8:45:00 PM 18.12 64.616 0.234 7.97 5571 8.64
5/23/2022 9:00:00 PM 18.08 64.544 0.234 7.97 5572 8.64
5/23/2022 9:15:00 PM 18.03 64.454 0.234 7.96 5572 8.57
5/23/2022 9:30:00 PM 17.99 64.382 0.236 7.93 5572 8.08
5/23/2022 9:45:00 PM 17.93 64.274 0.226 7.8 5572 8.07
5/23/2022 10:00:00 PM 17.89 64.202 0.245 7.79 5571 8.31
5/23/2022 10:15:00 PM 17.85 64.13 0.24 7.83 5572 8.17
5/23/2022 10:30:00 PM 17.8 64.04 0.24 7.86 5572 8.15
5/23/2022 10:45:00 PM 17.75 63.95 0.24 7.84 5572 8.12
5/23/2022 11:00:00 PM 17.69 63.842 0.24 7.83 5572 8.11
5/23/2022 11:15:00 PM 17.65 63.77 0.238 7.81 5572 8.11
5/23/2022 11:30:00 PM 17.6 63.68 0.236 7.83 5572 8.17
5/23/2022 11:45:00 PM 17.55 63.59 0.236 7.83 5572 8.2
5/24/2022 12:00:00 AM 17.51 63.518 0.236 7.74 5572 8.03
5/24/2022 12:15:00 AM 17.46 63.428 0.238 7.77 5572 8.17
5/24/2022 12:30:00 AM 17.42 63.356 0.241 7.8 5572 8.1
5/24/2022 12:45:00 AM 17.37 63.266 0.24 7.8 5572 8.07
5/24/2022 1:00:00 AM 17.33 63.194 0.24 7.81 5572 8.16
5/24/2022 1:15:00 AM 17.28 63.104 0.24 7.75 5572 8.01
5/24/2022 1:30:00 AM 17.25 63.05 0.24 7.81 5572 8.08
5/24/2022 1:45:00 AM 17.21 62.978 0.24 7.79 5572 8.08
5/24/2022 2:00:00 AM 17.17 62.906 0.238 7.82 5572 8.07
5/24/2022 2:15:00 AM 17.13 62.834 0.238 7.81 5572 7.98
5/24/2022 2:30:00 AM 17.09 62.762 0.236 7.79 5572 8.01
5/24/2022 2:45:00 AM 17.05 62.69 0.234 7.82 3035 8.03
5/24/2022 3:00:00 AM 17.01 62.618 0.236 7.8 3177 8.06
5/24/2022 3:15:00 AM 16.98 62.564 0.235 7.78 4673 7.91
5/24/2022 3:30:00 AM 16.94 62.492 0.236 7.78 5572 8.02
5/24/2022 3:45:00 AM 16.91 62.438 0.239 7.78 5572 8.1
5/24/2022 4:00:00 AM 16.87 62.366 0.243 7.71 5572 8.03
5/24/2022 4:15:00 AM 16.84 62.312 0.241 7.73 5572 8.09
5/24/2022 4:30:00 AM 16.81 62.258 0.239 7.72 5572 8.04
5/24/2022 4:45:00 AM 16.78 62.204 0.24 7.77 5572 8.1
5/24/2022 5:00:00 AM 16.74 62.132 0.24 7.72 5572 8.05
5/24/2022 5:15:00 AM 16.71 62.078 0.237 7.75 5572 8.02
5/24/2022 5:30:00 AM 16.68 62.024 0.239 7.72 5572 8.08
5/24/2022 5:45:00 AM 16.64 61.952 0.235 7.7 5572 7.85
5/24/2022 6:00:00 AM 16.61 61.898 0.237 7.7 5572 7.76
5/24/2022 6:15:00 AM 16.58 61.844 0.235 7.72 5572 7.8
5/24/2022 6:30:00 AM 16.54 61.772 0.235 7.73 5572 7.74
5/24/2022 6:45:00 AM 16.52 61.736 0.236 7.73 5572 7.92
5/24/2022 7:00:00 AM 16.49 61.682 0.24 7.73 1706 8.05
5/24/2022 7:15:00 AM 16.47 61.646 0.241 7.76 2427 7.95
5/24/2022 7:30:00 AM 16.45 61.61 0.24 7.7 2932 8.02
5/24/2022 7:45:00 AM 16.43 61.574 0.239 7.75 1312 7.99
5/24/2022 8:00:00 AM 16.41 61.538 0.237 7.76 1521 8.06
5/24/2022 8:15:00 AM 16.4 61.52 0.24 7.74 1002 8.12
5/24/2022 8:30:00 AM 16.39 61.502 0.238 7.78 1060 8.24
5/24/2022 8:45:00 AM 16.38 61.484 0.236 7.78 1163 8.36
5/24/2022 9:00:00 AM 16.38 61.484 0.237 7.77 1236 8.33
5/24/2022 9:15:00 AM 16.37 61.466 0.237 7.78 858.1 8.09
5/24/2022 9:30:00 AM 16.38 61.484 0.237 7.77 895.6 8.28
5/24/2022 9:45:00 AM 16.38 61.484 0.245 7.78 941.4 8.47
5/24/2022 10:00:00 AM 16.39 61.502 0.24 7.8 974.6 8.76
5/24/2022 10:15:00 AM 16.41 61.538 0.242 7.83 903.6 8.69
5/24/2022 10:30:00 AM 16.45 61.61 0.242 7.88 965.2 9.05
5/24/2022 10:45:00 AM 16.48 61.664 0.241 7.86 993.2 9.28
5/24/2022 11:00:00 AM 16.51 61.718 0.241 7.9 1060 9.3
5/24/2022 11:15:00 AM 16.54 61.772 0.239 7.91 1079 9.48
5/24/2022 11:30:00 AM 16.55 61.79 0.237 7.96 1128 9.51
5/24/2022 11:45:00 AM 16.56 61.808 0.238 7.96 1202 9.52
5/24/2022 12:00:00 PM 16.56 61.808 0.237 7.98 1257 9.64
5/24/2022 12:15:00 PM 16.56 61.808 0.239 7.96 1254 9.39
5/24/2022 12:30:00 PM 16.55 61.79 0.244 7.97 1398 9.48
5/24/2022 12:45:00 PM 16.54 61.772 0.24 7.94 1470 9.26
5/24/2022 1:00:00 PM 16.52 61.736 0.242 7.98 1534 9.09
5/24/2022 1:15:00 PM 16.51 61.718 0.241 7.93 904.2 9.41
5/24/2022 1:30:00 PM 16.49 61.682 0.245 7.89 958.4 9.37
5/24/2022 1:45:00 PM 16.47 61.646 0.242 7.93 2844 9.19
5/24/2022 2:00:00 PM 16.44 61.592 0.252 7.92 3056 9.22
5/24/2022 2:15:00 PM 16.41 61.538 0.249 7.88 2452 9.06
5/24/2022 2:30:00 PM 16.39 61.502 0.239 7.96 2550 9.34
5/24/2022 2:45:00 PM 16.38 61.484 0.24 7.9 2499 9.33
5/24/2022 3:00:00 PM 16.37 61.466 0.254 7.95 2521 9.42
5/24/2022 3:15:00 PM 16.35 61.43 0.241 7.91 2596 9.37
5/24/2022 3:30:00 PM 16.33 61.394 0.24 7.9 2413 9.43
5/24/2022 3:45:00 PM 16.31 61.358 0.242 7.86 2436 9.18
5/24/2022 4:00:00 PM 16.29 61.322 0.253 7.84 2433 9.34
5/24/2022 4:15:00 PM 16.29 61.322 0.245 7.87 2308 9.25
5/24/2022 4:30:00 PM 16.27 61.286 0.246 7.82 2389 9.37
5/24/2022 4:45:00 PM 16.26 61.268 0.24 7.85 2513 9.29
5/24/2022 5:00:00 PM 16.25 61.25 0.243 7.95 2559 9.3
5/24/2022 5:15:00 PM 16.24 61.232 0.245 7.97 2609 9.26
5/24/2022 5:30:00 PM 16.23 61.214 0.244 7.93 2599 9.18
5/24/2022 5:45:00 PM 16.23 61.214 0.241 7.91 2647 8.99
5/24/2022 6:00:00 PM 16.22 61.196 0.244 7.87 2699 9.28
5/24/2022 6:15:00 PM 16.22 61.196 0.243 7.95 2854 9.37
5/24/2022 6:30:00 PM 16.23 61.214 0.254 7.91 3007 9.34
5/24/2022 6:45:00 PM 16.24 61.232 0.247 7.96 2947 9.42
5/24/2022 7:00:00 PM 16.23 61.214 0.249 7.92 3139 9.41
5/24/2022 7:15:00 PM 16.24 61.232 0.252 7.98 2881 9.4
5/24/2022 7:30:00 PM 16.23 61.214 0.25 7.98 3119 9.36
5/24/2022 7:45:00 PM 16.22 61.196 0.254 7.94 3124 9.24
5/24/2022 8:00:00 PM 16.23 61.214 0.251 7.94 3097 9.09
5/24/2022 8:15:00 PM 16.21 61.178 0.25 7.94 3178 9.29
5/24/2022 8:30:00 PM 16.2 61.16 0.247 7.95 3120 9.22
5/24/2022 8:45:00 PM 16.18 61.124 0.243 7.91 3090 9.22
5/24/2022 9:00:00 PM 16.17 61.106 0.242 7.92 3106 9.17
5/24/2022 9:15:00 PM 16.15 61.07 0.245 7.91 3192 9.11
5/24/2022 9:30:00 PM 16.13 61.034 0.244 7.91 3319 9.04
5/24/2022 9:45:00 PM 16.11 60.998 0.257 7.9 3330 9.05
5/24/2022 10:00:00 PM 16.09 60.962 0.246 7.86 3308 8.99
5/24/2022 10:15:00 PM 16.06 60.908 0.25 7.87 3393 8.93
5/24/2022 10:30:00 PM 16.04 60.872 0.262 7.88 3453 8.85
5/24/2022 10:45:00 PM 16.02 60.836 0.245 7.86 3539 8.79
5/24/2022 11:00:00 PM 15.99 60.782 0.249 7.83 3655 8.77
5/24/2022 11:15:00 PM 15.96 60.728 0.246 7.83 3662 8.75
5/24/2022 11:30:00 PM 15.93 60.674 0.252 7.82 3753 8.68
5/24/2022 11:45:00 PM 15.9 60.62 0.242 7.84 4192 8.76
5/25/2022 12:00:00 AM 15.88 60.584 0.245 7.82 4335 8.66
5/25/2022 12:15:00 AM 15.85 60.53 0.241 7.85 4309 8.6
5/25/2022 12:30:00 AM 15.83 60.494 0.244 7.82 4499 8.64
5/25/2022 12:45:00 AM 15.8 60.44 0.243 7.77 4630 8.43
5/25/2022 1:00:00 AM 15.78 60.404 0.251 7.76 4680 8.52
5/25/2022 1:15:00 AM 15.76 60.368 0.256 7.72 4787 8.53
5/25/2022 1:30:00 AM 15.74 60.332 0.244 7.77 5117 8.58
5/25/2022 1:45:00 AM 15.72 60.296 0.247 7.75 5101 8.42
5/25/2022 2:00:00 AM 15.7 60.26 0.243 7.74 5143 8.47
5/25/2022 2:15:00 AM 15.68 60.224 0.24 7.73 5351 8.49
5/25/2022 2:30:00 AM 15.65 60.17 0.244 7.74 5448 8.54
5/25/2022 2:45:00 AM 15.63 60.134 0.24 7.74 5179 8.48
5/25/2022 3:00:00 AM 15.6 60.08 0.24 7.7 5248 8.44
5/25/2022 3:15:00 AM 15.58 60.044 0.238 7.74 5434 8.55
5/25/2022 3:30:00 AM 15.55 59.99 0.245 7.75 5549 8.6
5/25/2022 3:45:00 AM 15.52 59.936 0.241 7.75 5367 8.61
5/25/2022 4:00:00 AM 15.49 59.882 0.251 7.74 5160 8.56
5/25/2022 4:15:00 AM 15.47 59.846 0.252 7.74 5572 8.56
5/25/2022 4:30:00 AM 15.44 59.792 0.242 7.74 5573 8.55
5/25/2022 4:45:00 AM 15.41 59.738 0.251 7.75 5573 8.48
5/25/2022 5:00:00 AM 15.39 59.702 0.252 7.72 5573 8.47
5/25/2022 5:15:00 AM 15.36 59.648 0.245 7.7 5573 8.53
5/25/2022 5:30:00 AM 15.33 59.594 0.245 7.69 5573 8.5
5/25/2022 5:45:00 AM 15.31 59.558 0.236 7.71 5573 8.53
5/25/2022 6:00:00 AM 15.28 59.504 0.245 7.73 5573 8.53
5/25/2022 6:15:00 AM 15.26 59.468 0.24 7.71 5573 8.52
5/25/2022 6:30:00 AM 15.24 59.432 0.245 7.72 5573 8.58
5/25/2022 6:45:00 AM 15.22 59.396 0.251 7.74 5509 8.56
5/25/2022 7:00:00 AM 15.2 59.36 0.245 7.74 5534 8.59
5/25/2022 7:15:00 AM 15.18 59.324 0.244 7.74 5573 8.61
5/25/2022 7:30:00 AM 15.16 59.288 0.245 7.7 5573 8.65
5/25/2022 7:45:00 AM 15.14 59.252 0.249 7.69 5573 8.62
5/25/2022 8:00:00 AM 15.13 59.234 0.243 7.77 5573 8.65
5/25/2022 8:15:00 AM 15.13 59.234 0.245 7.78 5562 8.38
5/25/2022 8:30:00 AM 15.13 59.234 0.25 7.79 5557 8.83
5/25/2022 8:45:00 AM 15.13 59.234 0.252 7.79 5573 8.98
5/25/2022 9:00:00 AM 15.15 59.27 0.242 7.77 5522 9.08
5/25/2022 9:15:00 AM 15.19 59.342 0.253 7.76 5408 9.14
5/25/2022 9:30:00 AM 15.23 59.414 0.247 7.78 5353 9.38
5/25/2022 9:45:00 AM 15.27 59.486 0.243 7.8 662.5 9.4
5/25/2022 10:00:00 AM 15.29 59.522 0.249 7.78 641.4 9.52
5/25/2022 10:15:00 AM 15.32 59.576 0.237 7.78 627 9.68
5/25/2022 10:30:00 AM 15.36 59.648 0.242 7.82 624.2 9.72
5/25/2022 10:45:00 AM 15.43 59.774 0.246 7.85 612.7 9.92
5/25/2022 11:00:00 AM 15.51 59.918 0.247 7.89 612.5 10.04
5/25/2022 11:15:00 AM 15.58 60.044 0.246 7.88 611.3 10.14
5/25/2022 11:30:00 AM 15.63 60.134 0.244 7.88 611.6 10.07
5/25/2022 11:45:00 AM 15.69 60.242 0.243 7.9 605.3 10.32
5/25/2022 12:00:00 PM 15.76 60.368 0.247 7.99 644.2 10.41
5/25/2022 12:15:00 PM 15.83 60.494 0.243 8.04 634.3 10.46
5/25/2022 12:30:00 PM 15.88 60.584 0.244 8.02 647.9 10.3
5/25/2022 12:45:00 PM 15.94 60.692 0.243 8.03 661.5 10.53
5/25/2022 1:00:00 PM 16.02 60.836 0.244 8.07 649.4 10.56
5/25/2022 1:15:00 PM 16.11 60.998 0.245 8.13 657.1 10.74
5/25/2022 1:30:00 PM 16.19 61.142 0.243 8.17 665.3 10.79
5/25/2022 1:45:00 PM 16.27 61.286 0.244 8.16 664.1 10.82
5/25/2022 2:00:00 PM 16.36 61.448 0.243 8.14 645.3 10.79
5/25/2022 2:15:00 PM 16.45 61.61 0.245 8.19 639.6 10.91
5/25/2022 2:30:00 PM 16.54 61.772 0.242 8.16 641.7 11
5/25/2022 2:45:00 PM 16.62 61.916 0.242 8.19 638.8 10.87
5/25/2022 3:00:00 PM 16.69 62.042 0.243 8.2 543.3 10.93
5/25/2022 3:15:00 PM 16.78 62.204 0.243 8.23 475.5 10.48
5/25/2022 3:30:00 PM 16.85 62.33 0.243 8.24 416 10.67
5/25/2022 3:45:00 PM 16.92 62.456 0.25 8.16 619 10.85
5/25/2022 4:00:00 PM 16.99 62.582 0.242 8.25 670.8 10.93
5/25/2022 4:15:00 PM 17.07 62.726 0.243 8.31 643.1 10.96
5/25/2022 4:30:00 PM 17.14 62.852 0.242 8.3 754.4 10.77
5/25/2022 4:45:00 PM 17.19 62.942 0.244 8.26 766.2 10.81
5/25/2022 5:00:00 PM 17.2 62.96 0.244 8.21 775.2 10.78
5/25/2022 5:15:00 PM 17.24 63.032 0.244 8.3 827.7 10.83
5/25/2022 5:30:00 PM 17.26 63.068 0.242 8.32 835.9 10.81
5/25/2022 5:45:00 PM 17.32 63.176 0.241 8.35 832.2 10.73
5/25/2022 6:00:00 PM 17.34 63.212 0.241 8.27 857.2 10.44
5/25/2022 6:15:00 PM 17.36 63.248 0.241 8.26 787.5 10.37
5/25/2022 6:30:00 PM 17.38 63.284 0.24 8.31 809.8 10.38
5/25/2022 6:45:00 PM 17.4 63.32 0.242 8.23 922.5 10.15
5/25/2022 7:00:00 PM 17.41 63.338 0.244 8.21 1043 10.21
5/25/2022 7:15:00 PM 17.42 63.356 0.243 8.19 1036 10.04
5/25/2022 7:30:00 PM 17.42 63.356 0.245 8.17 1011 9.91
5/25/2022 7:45:00 PM 17.4 63.32 0.245 8.15 858 9.82
5/25/2022 8:00:00 PM 17.39 63.302 0.244 8.15 942.2 9.62
5/25/2022 8:15:00 PM 17.39 63.302 0.248 8.17 962.4 9.58
5/25/2022 8:30:00 PM 17.38 63.284 0.242 8.16 1023 9.31
5/25/2022 8:45:00 PM 17.38 63.284 0.24 8.14 1005 9.41
5/25/2022 9:00:00 PM 17.36 63.248 0.24 8.11 1029 9.21
5/25/2022 9:15:00 PM 17.33 63.194 0.248 8 807.2 9.09
5/25/2022 9:30:00 PM 17.3 63.14 0.24 8.03 813 8.94
5/25/2022 9:45:00 PM 17.27 63.086 0.242 8.03 831.8 8.96
5/25/2022 10:00:00 PM 17.25 63.05 0.244 7.97 829.2 8.92
5/25/2022 10:15:00 PM 17.22 62.996 0.246 7.98 832.2 8.72
5/25/2022 10:30:00 PM 17.19 62.942 0.246 7.95 795.5 8.79
5/25/2022 10:45:00 PM 17.16 62.888 0.246 7.95 831.6 8.65
5/25/2022 11:00:00 PM 17.12 62.816 0.246 7.92 835.6 8.52
5/25/2022 11:15:00 PM 17.09 62.762 0.244 7.92 817.4 8.55
5/25/2022 11:30:00 PM 17.07 62.726 0.245 7.94 741.6 8.53
5/25/2022 11:45:00 PM 17.04 62.672 0.248 7.9 649.8 8.5
5/26/2022 12:00:00 AM 17 62.6 0.244 7.88 642.2 8.42
5/26/2022 12:15:00 AM 16.96 62.528 0.243 7.88 558.5 8.4
5/26/2022 12:30:00 AM 16.93 62.474 0.245 7.84 479.9 8.42
5/26/2022 12:45:00 AM 16.9 62.42 0.248 7.84 534.8 8.36
5/26/2022 1:00:00 AM 16.87 62.366 0.245 7.87 512.5 8.4
5/26/2022 1:15:00 AM 16.83 62.294 0.247 7.84 506.7 8.36
5/26/2022 1:30:00 AM 16.79 62.222 0.248 7.86 493.1 8.32
5/26/2022 1:45:00 AM 16.76 62.168 0.25 7.86 491.4 8.28
5/26/2022 2:00:00 AM 16.72 62.096 0.245 7.85 478.9 8.3
5/26/2022 2:15:00 AM 16.68 62.024 0.245 7.86 493.3 8.32
5/26/2022 2:30:00 AM 16.64 61.952 0.245 7.83 485.7 8.27
5/26/2022 2:45:00 AM 16.6 61.88 0.243 7.83 600.5 8.21
5/26/2022 3:00:00 AM 16.56 61.808 0.245 7.84 590.2 8.27
5/26/2022 3:15:00 AM 16.53 61.754 0.245 7.83 609.7 8.23
5/26/2022 3:30:00 AM 16.5 61.7 0.242 7.82 622.6 8.16
5/26/2022 3:45:00 AM 16.46 61.628 0.243 7.8 603.3 8.18
5/26/2022 4:00:00 AM 16.42 61.556 0.243 7.8 623.7 7.86
5/26/2022 4:15:00 AM 16.38 61.484 0.244 7.82 635.4 8.29
5/26/2022 4:30:00 AM 16.34 61.412 0.244 7.81 662.7 8.26
5/26/2022 4:45:00 AM 16.3 61.34 0.244 7.81 655.9 8.23
5/26/2022 5:00:00 AM 16.25 61.25 0.243 7.82 679.3 8.28
5/26/2022 5:15:00 AM 16.2 61.16 0.25 7.8 627.4 8.15
5/26/2022 5:30:00 AM 16.16 61.088 0.242 7.8 627.2 8.22
5/26/2022 5:45:00 AM 16.13 61.034 0.241 7.8 675.3 8.16
5/26/2022 6:00:00 AM 16.09 60.962 0.244 7.8 692.3 8.14
5/26/2022 6:15:00 AM 16.06 60.908 0.244 7.76 690.6 8.01
5/26/2022 6:30:00 AM 16.02 60.836 0.241 7.77 759.1 8.2
5/26/2022 6:45:00 AM 15.99 60.782 0.241 7.8 792.2 8.34
5/26/2022 7:00:00 AM 15.97 60.746 0.242 7.81 691.3 8.33
5/26/2022 7:15:00 AM 15.95 60.71 0.243 7.79 679.8 8.29
5/26/2022 7:30:00 AM 15.92 60.656 0.242 7.77 581.5 8.35
5/26/2022 7:45:00 AM 15.9 60.62 0.245 7.76 782.7 8.42
5/26/2022 8:00:00 AM 15.89 60.602 0.25 7.78 765.1 8.48
5/26/2022 8:15:00 AM 15.88 60.584 0.244 7.8 973.9 8.53
5/26/2022 8:30:00 AM 15.89 60.602 0.245 7.82 1052 8.62
5/26/2022 8:45:00 AM 15.89 60.602 0.241 7.84 1109 8.74
5/26/2022 9:00:00 AM 15.89 60.602 0.247 7.84 1038 8.8
5/26/2022 9:15:00 AM 15.91 60.638 0.247 7.8 1127 8.89
5/26/2022 9:30:00 AM 15.92 60.656 0.247 7.82 1184 8.95
5/26/2022 9:45:00 AM 15.94 60.692 0.242 7.9 1257 9.16
5/26/2022 10:00:00 AM 15.95 60.71 0.248 7.89 1249 8.98
5/26/2022 10:15:00 AM 15.96 60.728 0.244 7.91 1374 9.29
5/26/2022 10:30:00 AM 15.98 60.764 0.244 7.95 1284 9.46
5/26/2022 10:45:00 AM 16 60.8 0.247 7.94 1402 9.5
5/26/2022 11:00:00 AM 16.02 60.836 0.247 7.95 1364 9.53
5/26/2022 11:15:00 AM 16.05 60.89 0.252 7.97 2109 9.59
5/26/2022 11:30:00 AM 16.08 60.944 0.243 7.99 2629 9.71
5/26/2022 11:45:00 AM 16.11 60.998 0.248 7.99 2339 9.75
5/26/2022 12:00:00 PM 16.13 61.034 0.244 7.91 2485 9.82
5/26/2022 12:15:00 PM 16.15 61.07 0.244 8.06 2633 9.91
5/26/2022 12:30:00 PM 16.16 61.088 0.244 8.07 2940 9.98
5/26/2022 12:45:00 PM 16.19 61.142 0.245 8.06 2962 10.03
5/26/2022 1:00:00 PM 16.22 61.196 0.246 8.04 2904 10.02
5/26/2022 1:15:00 PM 16.24 61.232 0.246 8.08 2984 10.11
5/26/2022 1:30:00 PM 16.26 61.268 0.253 8.09 4148 10.1
5/26/2022 1:45:00 PM 16.29 61.322 0.247 8.09 5361 10.13
5/26/2022 2:00:00 PM 16.32 61.376 0.247 8.13 5572 10.22
5/26/2022 2:15:00 PM 16.35 61.43 0.245 8.15 5573 10.22
5/26/2022 2:30:00 PM 16.36 61.448 0.245 8.16 5572 10.12
5/26/2022 2:45:00 PM 16.41 61.538 0.247 8.19 5572 10.31
5/26/2022 3:00:00 PM 16.43 61.574 0.247 8.18 5572 10.23
5/26/2022 3:15:00 PM 16.47 61.646 0.247 8.17 5572 10.22
5/26/2022 3:30:00 PM 16.49 61.682 0.247 8.22 5572 10.33
5/26/2022 3:45:00 PM 16.5 61.7 0.246 8.2 5572 10.23
5/26/2022 4:00:00 PM 16.53 61.754 0.247 8.17 5572 10.18
5/26/2022 4:15:00 PM 16.55 61.79 0.249 8.2 5572 10.27
5/26/2022 4:30:00 PM 16.57 61.826 0.253 8.2 5572 10.25
5/26/2022 4:45:00 PM 16.58 61.844 0.251 8.14 5572 10.11
5/26/2022 5:00:00 PM 16.59 61.862 0.253 8.17 5572 10.09
5/26/2022 5:15:00 PM 16.62 61.916 0.25 8.19 5572 10.15
5/26/2022 5:30:00 PM 16.65 61.97 0.248 8.2 5572 10.15
5/26/2022 5:45:00 PM 16.68 62.024 0.247 8.17 5572 10.1
5/26/2022 6:00:00 PM 16.69 62.042 0.246 8.2 5572 10.01
5/26/2022 6:15:00 PM 16.7 62.06 0.247 8.24 5572 10.04
5/26/2022 6:30:00 PM 16.71 62.078 0.246 8.17 5572 9.7
5/26/2022 6:45:00 PM 16.72 62.096 0.247 8.21 5572 9.8
5/26/2022 7:00:00 PM 16.73 62.114 0.25 8.19 5572 9.57
5/26/2022 7:15:00 PM 16.73 62.114 0.251 8.14 5572 9.6
5/26/2022 7:30:00 PM 16.73 62.114 0.251 8.05 5572 9.5
5/26/2022 7:45:00 PM 16.72 62.096 0.252 8.09 5572 9.32
5/26/2022 8:00:00 PM 16.71 62.078 0.251 8.1 5572 9.19
5/26/2022 8:15:00 PM 16.7 62.06 0.25 8.07 5572 9.22
5/26/2022 8:30:00 PM 16.69 62.042 0.249 8.06 5572 9.1
5/26/2022 8:45:00 PM 16.68 62.024 0.248 8.04 5572 8.99
5/26/2022 9:00:00 PM 16.67 62.006 0.247 8.04 5572 8.94
5/26/2022 9:15:00 PM 16.67 62.006 0.246 8.02 5572 8.89
5/26/2022 9:30:00 PM 16.66 61.988 0.245 8.02 5572 8.85
5/26/2022 9:45:00 PM 16.65 61.97 0.247 8 5572 8.83
5/26/2022 10:00:00 PM 16.64 61.952 0.248 7.99 5572 8.73
5/26/2022 10:15:00 PM 16.64 61.952 0.249 7.97 5572 8.64
5/26/2022 10:30:00 PM 16.63 61.934 0.251 7.95 5572 8.61
5/26/2022 10:45:00 PM 16.62 61.916 0.252 7.93 5572 8.51
5/26/2022 11:00:00 PM 16.61 61.898 0.25 7.92 5210 8.22
5/26/2022 11:15:00 PM 16.6 61.88 0.25 7.91 5034 8.46
5/26/2022 11:30:00 PM 16.6 61.88 0.25 7.9 4996 8.33
5/26/2022 11:45:00 PM 16.59 61.862 0.248 7.91 4944 8.35
5/27/2022 12:00:00 AM 16.58 61.844 0.25 7.89 5573 8.35
5/27/2022 12:15:00 AM 16.58 61.844 0.252 7.89 5466 8.38
5/27/2022 12:30:00 AM 16.56 61.808 0.248 7.91 5572 8.3
5/27/2022 12:45:00 AM 16.55 61.79 0.25 7.88 5334 8.24
5/27/2022 1:00:00 AM 16.54 61.772 0.25 7.91 2199 8.2
5/27/2022 1:15:00 AM 16.53 61.754 0.252 7.86 2394 8.27
5/27/2022 1:30:00 AM 16.51 61.718 0.254 7.87 2385 8.11
5/27/2022 1:45:00 AM 16.5 61.7 0.255 7.83 2954 8.17
5/27/2022 2:00:00 AM 16.5 61.7 0.253 7.86 5572 8.17
5/27/2022 2:15:00 AM 16.5 61.7 0.251 7.88 5572 8.01
5/27/2022 2:30:00 AM 16.49 61.682 0.251 7.82 5572 8.03
5/27/2022 2:45:00 AM 16.49 61.682 0.251 7.88 5572 8.1
5/27/2022 3:00:00 AM 16.47 61.646 0.249 7.86 5572 8.11
5/27/2022 3:15:00 AM 16.46 61.628 0.247 7.88 5572 8.17
5/27/2022 3:30:00 AM 16.45 61.61 0.249 7.86 5572 8.09
5/27/2022 3:45:00 AM 16.43 61.574 0.255 7.85 5572 8.11
5/27/2022 4:00:00 AM 16.42 61.556 0.249 7.84 5572 8.02
5/27/2022 4:15:00 AM 16.41 61.538 0.252 7.86 5572 8.07
5/27/2022 4:30:00 AM 16.4 61.52 0.248 7.83 5572 8
5/27/2022 4:45:00 AM 16.38 61.484 0.257 7.8 5572 8
5/27/2022 5:00:00 AM 16.37 61.466 0.248 7.84 5573 8.01
5/27/2022 5:15:00 AM 16.36 61.448 0.249 7.84 5573 8.09
5/27/2022 5:30:00 AM 16.34 61.412 0.246 7.83 5573 7.94
5/27/2022 5:45:00 AM 16.33 61.394 0.245 7.84 5572 8.09
5/27/2022 6:00:00 AM 16.32 61.376 0.244 7.81 5573 8.13
5/27/2022 6:15:00 AM 16.31 61.358 0.243 7.85 5573 8.17
5/27/2022 6:30:00 AM 16.3 61.34 0.243 7.83 5573 8.07
5/27/2022 6:45:00 AM 16.29 61.322 0.245 7.82 5572 8.15
5/27/2022 7:00:00 AM 16.28 61.304 0.245 7.8 5572 8.23
5/27/2022 7:15:00 AM 16.28 61.304 0.246 7.84 5573 8.21
5/27/2022 7:30:00 AM 16.28 61.304 0.252 7.8 5572 8.15
5/27/2022 7:45:00 AM 16.27 61.286 0.248 7.82 5573 8.23
5/27/2022 8:00:00 AM 16.28 61.304 0.246 7.83 5573 8.26
5/27/2022 8:15:00 AM 16.29 61.322 0.245 7.84 5573 8.3
5/27/2022 8:30:00 AM 16.29 61.322 0.246 7.83 5573 8.41
5/27/2022 8:45:00 AM 16.31 61.358 0.244 7.86 5572 8.54
5/27/2022 9:00:00 AM 16.34 61.412 0.243 7.86 5572 8.62
5/27/2022 9:15:00 AM 16.37 61.466 0.243 7.89 5573 8.75
5/27/2022 9:30:00 AM 16.41 61.538 0.243 7.91 5572 8.94
5/27/2022 9:45:00 AM 16.44 61.592 0.242 7.93 5572 9.01
5/27/2022 10:00:00 AM 16.48 61.664 0.245 7.9 645.5 8.97
5/27/2022 10:15:00 AM 16.51 61.718 0.245 7.93 704.3 9.06
5/27/2022 10:30:00 AM 16.55 61.79 0.246 7.94 727.4 9.13
5/27/2022 10:45:00 AM 16.58 61.844 0.247 7.99 811.6 9.18
5/27/2022 11:00:00 AM 16.61 61.898 0.247 7.97 828.6 9.18
5/27/2022 11:15:00 AM 16.63 61.934 0.246 8 921.5 9.24
5/27/2022 11:30:00 AM 16.65 61.97 0.247 8.01 1020 9.28
5/27/2022 11:45:00 AM 16.64 61.952 0.247 8.02 1067 9.32
5/27/2022 12:00:00 PM 16.67 62.006 0.245 8.03 1187 9.34
5/27/2022 12:15:00 PM 16.72 62.096 0.247 7.99 1370 9.4
5/27/2022 12:30:00 PM 16.77 62.186 0.246 8.03 1651 9.44
5/27/2022 12:45:00 PM 16.8 62.24 0.246 8.07 2218 9.46
5/27/2022 1:00:00 PM 16.84 62.312 0.249 8.06 2706 9.46
5/27/2022 1:15:00 PM 16.87 62.366 0.245 8.09 4273 9.56
5/27/2022 1:30:00 PM 16.9 62.42 0.245 8.09 4929 9.48
5/27/2022 1:45:00 PM 16.91 62.438 0.246 8.08 5572 9.31
5/27/2022 2:00:00 PM 16.92 62.456 0.246 8.06 5572 9.35
5/27/2022 2:15:00 PM 16.92 62.456 0.241 8.05 5572 9.37
5/27/2022 2:30:00 PM 16.94 62.492 0.249 8 5572 9.29
5/27/2022 2:45:00 PM 16.96 62.528 0.247 8.01 5572 9.39
5/27/2022 3:00:00 PM 17 62.6 0.244 8.08 5572 9.45
5/27/2022 3:15:00 PM 17.05 62.69 0.244 8.14 5572 9.75
5/27/2022 3:30:00 PM 17.08 62.744 0.236 8.13 5572 9.7
5/27/2022 3:45:00 PM 17.14 62.852 0.245 8.15 5572 9.74
5/27/2022 4:00:00 PM 17.18 62.924 0.244 8.16 5572 9.71
5/27/2022 4:15:00 PM 17.21 62.978 0.251 8.17 5572 9.7
5/27/2022 4:30:00 PM 17.25 63.05 0.247 8.16 5572 9.89
5/27/2022 4:45:00 PM 17.28 63.104 0.248 8.17 5572 9.88
5/27/2022 5:00:00 PM 17.32 63.176 0.246 8.2 5572 9.64
5/27/2022 5:15:00 PM 17.35 63.23 0.24 8.22 5572 10.01
5/27/2022 5:30:00 PM 17.4 63.32 0.245 8.25 5572 9.98
5/27/2022 5:45:00 PM 17.43 63.374 0.245 8.23 5572 9.83
5/27/2022 6:00:00 PM 17.48 63.464 0.244 8.22 5572 9.65
5/27/2022 6:15:00 PM 17.48 63.464 0.245 8.15 5478 9.7
5/27/2022 6:30:00 PM 17.54 63.572 0.246 8.23 5291 9.48
5/27/2022 6:45:00 PM 17.56 63.608 0.216 8.21 5572 9.53
5/27/2022 7:00:00 PM 17.6 63.68 0.253 8.19 5571 9.61
5/27/2022 7:15:00 PM 17.63 63.734 0.25 8.23 5572 9.41
5/27/2022 7:30:00 PM 17.66 63.788 0.248 8.21 5572 9.51
5/27/2022 7:45:00 PM 17.67 63.806 0.247 8.2 5572 9.4
5/27/2022 8:00:00 PM 17.69 63.842 0.247 8.18 5572 9.35
5/27/2022 8:15:00 PM 17.69 63.842 0.245 8.16 5572 8.85
5/27/2022 8:30:00 PM 17.67 63.806 0.244 8.1 5266 8.98
5/27/2022 8:45:00 PM 17.65 63.77 0.243 8.1 4539 9
5/27/2022 9:00:00 PM 17.64 63.752 0.244 8.07 4116 8.9
5/27/2022 9:15:00 PM 17.62 63.716 0.244 8.07 3543 8.89
5/27/2022 9:30:00 PM 17.6 63.68 0.246 8.05 2688 8.81
5/27/2022 9:45:00 PM 17.58 63.644 0.246 8.02 2338 8.67
5/27/2022 10:00:00 PM 17.56 63.608 0.249 7.97 2344 8.57
5/27/2022 10:15:00 PM 17.54 63.572 0.248 7.99 2456 8.55
5/27/2022 10:30:00 PM 17.52 63.536 0.245 7.95 2366 8.42
5/27/2022 10:45:00 PM 17.5 63.5 0.248 7.93 2158 8.37
5/27/2022 11:00:00 PM 17.48 63.464 0.245 7.94 2115 8.34
5/27/2022 11:15:00 PM 17.47 63.446 0.247 7.93 2067 8.29
5/27/2022 11:30:00 PM 17.45 63.41 0.248 7.92 2008 8.24
5/27/2022 11:45:00 PM 17.44 63.392 0.247 7.88 1994 8.12
5/28/2022 12:00:00 AM 17.44 63.392 0.247 7.89 1990 8.15
5/28/2022 12:15:00 AM 17.43 63.374 0.248 7.87 1894 8.06
5/28/2022 12:30:00 AM 17.42 63.356 0.248 7.88 1895 8.1
5/28/2022 12:45:00 AM 17.42 63.356 0.249 7.86 1761 7.92
5/28/2022 1:00:00 AM 17.41 63.338 0.251 7.85 1497 8.02
5/28/2022 1:15:00 AM 17.4 63.32 0.25 7.85 1305 8.02
5/28/2022 1:30:00 AM 17.38 63.284 0.25 7.85 1172 8.04
5/28/2022 1:45:00 AM 17.35 63.23 0.248 7.85 1111 8
5/28/2022 2:00:00 AM 17.34 63.212 0.248 7.82 1062 7.97
5/28/2022 2:15:00 AM 17.32 63.176 0.245 7.83 1026 7.98
5/28/2022 2:30:00 AM 17.29 63.122 0.245 7.81 815.2 7.98
5/28/2022 2:45:00 AM 17.26 63.068 0.245 7.78 661.7 7.81
5/28/2022 3:00:00 AM 17.24 63.032 0.242 7.79 612.3 7.86
5/28/2022 3:15:00 AM 17.22 62.996 0.236 7.8 616.6 7.88
5/28/2022 3:30:00 AM 17.19 62.942 0.243 7.79 787.7 7.88
5/28/2022 3:45:00 AM 17.17 62.906 0.244 7.79 1291 7.89
5/28/2022 4:00:00 AM 17.15 62.87 0.245 7.78 1257 7.79
5/28/2022 4:15:00 AM 17.13 62.834 0.245 7.77 1217 7.75
5/28/2022 4:30:00 AM 17.11 62.798 0.242 7.77 1034 7.62
5/28/2022 4:45:00 AM 17.09 62.762 0.242 7.76 846.6 7.66
5/28/2022 5:00:00 AM 17.07 62.726 0.24 7.76 813.5 7.58
5/28/2022 5:15:00 AM 17.06 62.708 0.238 7.77 793.8 7.7
5/28/2022 5:30:00 AM 17.04 62.672 0.239 7.76 897.8 7.75
5/28/2022 5:45:00 AM 17.01 62.618 0.238 7.75 739.4 7.68
5/28/2022 6:00:00 AM 16.99 62.582 0.243 7.77 520.1 7.74
5/28/2022 6:15:00 AM 16.96 62.528 0.243 7.71 407.9 7.66
5/28/2022 6:30:00 AM 16.95 62.51 0.248 7.75 325.4 7.78
5/28/2022 6:45:00 AM 16.93 62.474 0.242 7.75 332.5 7.78
5/28/2022 7:00:00 AM 16.91 62.438 0.243 7.75 283.2 7.81
5/28/2022 7:15:00 AM 16.89 62.402 0.239 7.77 253.4 7.84
5/28/2022 7:30:00 AM 16.88 62.384 0.24 7.78 224.3 7.96
5/28/2022 7:45:00 AM 16.87 62.366 0.236 7.77 104.3 7.92
5/28/2022 8:00:00 AM 16.87 62.366 0.238 7.78 218.8 7.92
5/28/2022 8:15:00 AM 16.86 62.348 0.235 7.7 231.4 7.95
5/28/2022 8:30:00 AM 16.87 62.366 0.232 7.81 316.1 8.17
5/28/2022 8:45:00 AM 16.86 62.348 0.233 7.81 3425 8.15
5/28/2022 9:00:00 AM 16.91 62.438 0.233 7.83 3477 8.06
5/28/2022 9:15:00 AM 16.93 62.474 0.231 7.85 3057 8.43
5/28/2022 9:30:00 AM 16.97 62.546 0.233 7.84 2409 8.39
5/28/2022 9:45:00 AM 17.02 62.636 0.234 7.84 2324 8.56
5/28/2022 10:00:00 AM 17.09 62.762 0.233 7.87 1601 8.6
5/28/2022 10:15:00 AM 17.09 62.762 0.232 7.88 1423 8.71
5/28/2022 10:30:00 AM 17.1 62.78 0.235 7.92 1248 8.68
5/28/2022 10:45:00 AM 17.15 62.87 0.231 7.94 1007 8.89
5/28/2022 11:00:00 AM 17.2 62.96 0.234 7.92 1040 9.05
5/28/2022 11:15:00 AM 17.25 63.05 0.229 8 1176 9.23
5/28/2022 11:30:00 AM 17.29 63.122 0.23 8.02 740.2 9.3
5/28/2022 11:45:00 AM 17.34 63.212 0.23 8.01 778.2 9.46
5/28/2022 12:00:00 PM 17.45 63.41 0.23 8.04 952 9.55
5/28/2022 12:15:00 PM 17.52 63.536 0.229 8.08 976.6 9.63
5/28/2022 12:30:00 PM 17.56 63.608 0.231 8.05 2496 9.67
5/28/2022 12:45:00 PM 17.64 63.752 0.231 8.03 908 9.51
5/28/2022 1:00:00 PM 17.72 63.896 0.232 8.08 1056 9.93
5/28/2022 1:15:00 PM 17.82 64.076 0.234 8.13 928.4 9.91
5/28/2022 1:30:00 PM 17.88 64.184 0.232 8.13 2616 9.98
5/28/2022 1:45:00 PM 17.97 64.346 0.232 8.12 2082 9.9
5/28/2022 2:00:00 PM 17.97 64.346 0.235 8.14 2737 10.04
5/28/2022 2:15:00 PM 18.08 64.544 0.231 8.16 1382 10.1
5/28/2022 2:30:00 PM 18.19 64.742 0.234 8.15 230.8 10.08
5/28/2022 2:45:00 PM 18.29 64.922 0.23 8.16 264.2 10.17
5/28/2022 3:00:00 PM 18.38 65.084 0.233 8.16 200.8 10.15
5/28/2022 3:15:00 PM 18.5 65.3 0.23 8.22 577.6 9.93
5/28/2022 3:30:00 PM 18.53 65.354 0.232 8.22 558.5 10.02
5/28/2022 3:45:00 PM 18.6 65.48 0.232 8.23 536.6 10.1
5/28/2022 4:00:00 PM 18.65 65.57 0.234 8.25 459.8 10.01
5/28/2022 4:15:00 PM 18.64 65.552 0.234 8.14 439.9 9.97
5/28/2022 4:30:00 PM 18.67 65.606 0.234 8.23 394.9 9.66
5/28/2022 4:45:00 PM 18.66 65.588 0.233 8.25 228.9 9.26
5/28/2022 5:00:00 PM 18.68 65.624 0.232 8.24 215.3 8.33
5/28/2022 5:15:00 PM 18.66 65.588 0.233 8.28 232.6 8.4
5/28/2022 5:30:00 PM 18.68 65.624 0.231 8.3 162.4 9.61
5/28/2022 5:45:00 PM 18.71 65.67799 0.233 8.25 160.6 9.68
5/28/2022 6:00:00 PM 18.69 65.642 0.233 8.2 160 9.35
5/28/2022 6:15:00 PM 18.7 65.66 0.232 8.22 159 9.63
5/28/2022 6:30:00 PM 18.75 65.75 0.237 8.27 157 9.63
5/28/2022 6:45:00 PM 18.81 65.858 0.235 8.23 157.4 9.52
5/28/2022 7:00:00 PM 18.83 65.894 0.237 8.22 154.8 9.42
5/28/2022 7:15:00 PM 18.78 65.804 0.235 8.2 154.3 9.42
5/28/2022 7:30:00 PM 18.83 65.894 0.235 8.24 156.1 9.26
5/28/2022 7:45:00 PM 18.79 65.82201 0.236 8.22 155.1 9.12
5/28/2022 8:00:00 PM 18.74 65.732 0.235 8.17 154.5 9.19
5/28/2022 8:15:00 PM 18.72 65.696 0.235 8.14 156 9.1
5/28/2022 8:30:00 PM 18.68 65.624 0.237 8.1 154 8.92
5/28/2022 8:45:00 PM 18.68 65.624 0.235 8.11 155.2 8.66
5/28/2022 9:00:00 PM 18.65 65.57 0.234 8.05 152.7 8.58
5/28/2022 9:15:00 PM 18.65 65.57 0.233 8.08 152.5 8.6
5/28/2022 9:30:00 PM 18.59 65.462 0.242 8 154.3 8.47
5/28/2022 9:45:00 PM 18.58 65.444 0.235 8.01 151.2 8.44
5/28/2022 10:00:00 PM 18.54 65.372 0.235 8 152.7 8.29
5/28/2022 10:15:00 PM 18.51 65.318 0.238 7.95 152 7.92
5/28/2022 10:30:00 PM 18.49 65.282 0.238 7.96 155.5 8.12
5/28/2022 10:45:00 PM 18.42 65.156 0.241 7.93 155.4 8.27
5/28/2022 11:00:00 PM 18.39 65.102 0.241 7.92 158.3 8.17
5/28/2022 11:15:00 PM 18.39 65.102 0.238 7.9 159.8 8
5/28/2022 11:30:00 PM 18.38 65.084 0.237 7.87 160.1 8.05
5/28/2022 11:45:00 PM 18.34 65.012 0.232 7.89 159.4 7.98
5/29/2022 12:00:00 AM 18.31 64.958 0.235 7.88 161.3 7.94
5/29/2022 12:15:00 AM 18.29 64.922 0.235 7.85 163.9 7.77
5/29/2022 12:30:00 AM 18.24 64.832 0.235 7.9 168.2 7.85
5/29/2022 12:45:00 AM 18.21 64.778 0.237 7.86 172 7.89
5/29/2022 1:00:00 AM 18.14 64.652 0.238 7.83 176.1 7.97
5/29/2022 1:15:00 AM 18.1 64.58 0.239 7.85 181.5 7.89
5/29/2022 1:30:00 AM 18.04 64.472 0.241 7.85 192.1 7.7
5/29/2022 1:45:00 AM 17.97 64.346 0.24 7.83 200.9 7.86
5/29/2022 2:00:00 AM 17.92 64.256 0.243 7.82 205.6 7.84
5/29/2022 2:15:00 AM 17.84 64.112 0.239 7.83 211.3 7.84
5/29/2022 2:30:00 AM 17.78 64.004 0.237 7.82 221.5 7.86
5/29/2022 2:45:00 AM 17.73 63.914 0.236 7.83 228.2 7.86
5/29/2022 3:00:00 AM 17.65 63.77 0.241 7.81 244.2 7.89
5/29/2022 3:15:00 AM 17.6 63.68 0.236 7.81 273.7 7.9
5/29/2022 3:30:00 AM 17.53 63.554 0.238 7.79 305.3 7.86
5/29/2022 3:45:00 AM 17.47 63.446 0.238 7.8 336.8 7.87
5/29/2022 4:00:00 AM 17.42 63.356 0.238 7.78 355.7 7.86
5/29/2022 4:15:00 AM 17.36 63.248 0.239 7.77 378.1 7.75
5/29/2022 4:30:00 AM 17.3 63.14 0.241 7.79 403 7.78
5/29/2022 4:45:00 AM 17.24 63.032 0.239 7.78 435.4 7.62
5/29/2022 5:00:00 AM 17.19 62.942 0.238 7.76 420.6 7.74
5/29/2022 5:15:00 AM 17.13 62.834 0.238 7.78 438.5 7.69
5/29/2022 5:30:00 AM 17.06 62.708 0.237 7.75 453.2 7.6
5/29/2022 5:45:00 AM 17.03 62.654 0.236 7.77 482.7 7.65
5/29/2022 6:00:00 AM 16.97 62.546 0.236 7.76 514.9 6.94
5/29/2022 6:15:00 AM 16.92 62.456 0.237 7.78 540.2 7.77
5/29/2022 6:30:00 AM 16.89 62.402 0.236 7.77 576.9 7.82
5/29/2022 6:45:00 AM 16.84 62.312 0.237 7.76 600.3 7.86
5/29/2022 7:00:00 AM 16.8 62.24 0.237 7.76 588.4 7.82
5/29/2022 7:15:00 AM 16.76 62.168 0.242 7.75 567.2 7.9
5/29/2022 7:30:00 AM 16.73 62.114 0.24 7.77 553.3 7.96
5/29/2022 7:45:00 AM 16.71 62.078 0.243 7.79 543.3 8.03
5/29/2022 8:00:00 AM 16.69 62.042 0.24 7.77 503.4 8.07
5/29/2022 8:15:00 AM 16.69 62.042 0.235 7.77 466.7 8.12
5/29/2022 8:30:00 AM 16.69 62.042 0.239 7.8 479.7 8.25
5/29/2022 8:45:00 AM 16.7 62.06 0.24 7.81 517.6 8.35
5/29/2022 9:00:00 AM 16.72 62.096 0.238 7.83 516.4 8.46
5/29/2022 9:15:00 AM 16.79 62.222 0.238 7.84 549.1 8.59
5/29/2022 9:30:00 AM 16.86 62.348 0.238 7.86 601.9 8.75
5/29/2022 9:45:00 AM 16.94 62.492 0.239 7.89 646.7 8.79
5/29/2022 10:00:00 AM 17.02 62.636 0.24 7.94 572 9.12
5/29/2022 10:15:00 AM 17.1 62.78 0.241 7.92 353.1 9.21
5/29/2022 10:30:00 AM 17.2 62.96 0.242 7.98 145.8 9.4
5/29/2022 10:45:00 AM 17.32 63.176 0.242 8.02 25.88 9.54
5/29/2022 11:00:00 AM 17.4 63.32 0.242 7.99 6.99 9.66
5/29/2022 11:15:00 AM 17.49 63.482 0.241 8.06 2.83 9.79
5/29/2022 11:30:00 AM 17.63 63.734 0.241 8.01 1.27 9.8
5/29/2022 11:45:00 AM 17.76 63.968 0.241 7.94 0.33 9.9
5/29/2022 12:00:00 PM 17.88 64.184 0.24 8.1 -0.08 9.97
5/29/2022 12:15:00 PM 17.97 64.346 0.241 8.11 -0.06 10.07
5/29/2022 12:30:00 PM 18.03 64.454 0.24 8.12 -0.06 10.2
5/29/2022 12:45:00 PM 18.13 64.634 0.241 8.09 -0.11 9.93
5/29/2022 1:00:00 PM 18.14 64.652 0.242 8.11 -0.04 10.07
5/29/2022 1:15:00 PM 18.19 64.742 0.244 8.11 -0.04 9.92
5/29/2022 1:30:00 PM 18.27 64.886 0.242 8.13 -0.03 10.1
5/29/2022 1:45:00 PM 18.36 65.048 0.243 8.14 -0.02 10.2
5/29/2022 2:00:00 PM 18.45 65.21 0.243 8.16 9.81 9.86
5/29/2022 2:15:00 PM 18.48 65.264 0.242 8.23 1.47 10.18
5/29/2022 2:30:00 PM 18.49 65.282 0.243 8.27 1.51 10.35
5/29/2022 2:45:00 PM 18.49 65.282 0.243 8.25 1.85 10.24
5/29/2022 3:00:00 PM 18.59 65.462 0.243 8.28 5.11 10.21
5/29/2022 3:15:00 PM 18.69 65.642 0.243 8.31 2.1 10.45
5/29/2022 3:30:00 PM 18.84 65.912 0.242 8.31 1.86 10.35
5/29/2022 3:45:00 PM 18.93 66.074 0.243 8.33 2.59 10.3
5/29/2022 4:00:00 PM 18.95 66.11 0.243 8.34 1.96 10.42
5/29/2022 4:15:00 PM 19.06 66.308 0.243 8.34 2.43 10.36
5/29/2022 4:30:00 PM 19.16 66.488 0.244 8.32 2.19 10.29
5/29/2022 4:45:00 PM 19.18 66.524 0.239 8.33 3.2 10.18
5/29/2022 5:00:00 PM 19.34 66.812 0.245 8.29 11.69 10.22
5/29/2022 5:15:00 PM 19.42 66.956 0.251 8.32 10.6 10.03
5/29/2022 5:30:00 PM 19.48 67.064 0.244 8.35 7.61 10.16
5/29/2022 5:45:00 PM 19.57 67.226 0.244 8.32 10.68 9.81
5/29/2022 6:00:00 PM 19.66 67.388 0.243 8.38 4.15 9.84
5/29/2022 6:15:00 PM 19.77 67.586 0.242 8.41 1.99 9.87
5/29/2022 6:30:00 PM 19.78 67.604 0.242 8.38 2.52 9.73
5/29/2022 6:45:00 PM 19.8 67.64 0.242 8.32 4.45 9.54
5/29/2022 7:00:00 PM 19.78 67.604 0.243 8.37 4.73 9.49
5/29/2022 7:15:00 PM 19.78 67.604 0.245 8.33 3.68 9.27
5/29/2022 7:30:00 PM 19.74 67.532 0.245 8.33 4.12 9.28
5/29/2022 7:45:00 PM 19.7 67.46 0.246 8.3 2.06 9.12
5/29/2022 8:00:00 PM 19.67 67.406 0.247 8.3 6.73 9.12
5/29/2022 8:15:00 PM 19.62 67.316 0.246 8.26 10.23 8.7
5/29/2022 8:30:00 PM 19.55 67.19 0.246 8.21 8.88 8.71
5/29/2022 8:45:00 PM 19.52 67.136 0.244 8.22 1.93 8.72
5/29/2022 9:00:00 PM 19.5 67.1 0.232 8.22 2.82 8.3
5/29/2022 9:15:00 PM 19.46 67.028 0.245 8.18 4.14 8.06
5/29/2022 9:30:00 PM 19.44 66.992 0.243 8.16 4.56 8.18
5/29/2022 9:45:00 PM 19.41 66.938 0.244 8.13 4.25 7.91
5/29/2022 10:00:00 PM 19.38 66.884 0.245 8.1 3.82 7.88
5/29/2022 10:15:00 PM 19.35 66.83 0.247 8.07 4.09 7.85
5/29/2022 10:30:00 PM 19.28 66.704 0.248 8.03 3.91 7.83
5/29/2022 10:45:00 PM 19.24 66.632 0.249 8.01 4.81 7.64
5/29/2022 11:00:00 PM 19.2 66.56 0.249 7.99 21.5 7.62
5/29/2022 11:15:00 PM 19.12 66.416 0.248 7.96 4 7.43
5/29/2022 11:30:00 PM 19.07 66.326 0.247 7.96 4.67 7.51
5/29/2022 11:45:00 PM 19.01 66.218 0.246 7.96 3.48 7.72
5/30/2022 12:00:00 AM 18.96 66.128 0.246 7.95 2.77 7.57
5/30/2022 12:15:00 AM 18.9 66.02 0.218 7.93 3.23 7.53
5/30/2022 12:30:00 AM 18.84 65.912 0.196 7.91 1.67 7.58
5/30/2022 12:45:00 AM 18.79 65.82201 0.196 7.9 3.31 7.4
5/30/2022 1:00:00 AM 18.73 65.714 0.222 7.91 3.16 7.73
5/30/2022 1:15:00 AM 18.66 65.588 0.227 7.88 2.79 7.47
5/30/2022 1:30:00 AM 18.6 65.48 0.203 7.88 2.94 7.56
5/30/2022 1:45:00 AM 18.55 65.39 0.252 7.87 4.97 7.55
5/30/2022 2:00:00 AM 18.5 65.3 0.218 7.85 3.04 7.46
5/30/2022 2:15:00 AM 18.46 65.228 0.241 7.85 3.68 7.26
5/30/2022 2:30:00 AM 18.4 65.12 0.209 7.84 4.6 7.35
5/30/2022 2:45:00 AM 18.35 65.03 0.208 7.83 3.4 7.37
5/30/2022 3:00:00 AM 18.31 64.958 0.21 7.83 3.88 7.49
5/30/2022 3:15:00 AM 18.26 64.868 0.224 7.81 3.75 6.99
5/30/2022 3:30:00 AM 18.2 64.76 0.249 7.82 4.79 7.36
5/30/2022 3:45:00 AM 18.16 64.688 0.248 7.81 4.31 7.34
5/30/2022 4:00:00 AM 18.1 64.58 0.208 7.81 4.57 7.26
5/30/2022 4:15:00 AM 18.05 64.49 0.25 7.81 4.45 7.4
5/30/2022 4:30:00 AM 18 64.4 0.251 7.8 5.18 7.26
5/30/2022 4:45:00 AM 17.94 64.292 0.252 7.82 5.17 7.57
5/30/2022 5:00:00 AM 17.88 64.184 0.252 7.81 5.37 7.55
5/30/2022 5:15:00 AM 17.84 64.112 0.251 7.79 7.25 7.46
5/30/2022 5:30:00 AM 17.78 64.004 0.251 7.8 6.52 7.54
5/30/2022 5:45:00 AM 17.73 63.914 0.25 7.8 7.29 7.45
5/30/2022 6:00:00 AM 17.68 63.824 0.249 7.82 74.21 7.59
5/30/2022 6:15:00 AM 17.64 63.752 0.249 7.82 8.69 7.58
5/30/2022 6:30:00 AM 17.59 63.662 0.249 7.81 200.8 7.67
5/30/2022 6:45:00 AM 17.55 63.59 0.248 7.82 4.98 7.7
5/30/2022 7:00:00 AM 17.51 63.518 0.249 7.81 5.14 7.42
5/30/2022 7:15:00 AM 17.48 63.464 0.25 7.83 5.18 7.62
5/30/2022 7:30:00 AM 17.44 63.392 0.251 7.82 6.13 7.57
5/30/2022 7:45:00 AM 17.43 63.374 0.252 7.82 7.54 7.74
5/30/2022 8:00:00 AM 17.42 63.356 0.252 7.82 4.4 7.81
5/30/2022 8:15:00 AM 17.43 63.374 0.251 7.84 4.11 7.95
5/30/2022 8:30:00 AM 17.43 63.374 0.251 7.84 5.94 8.1
5/30/2022 8:45:00 AM 17.44 63.392 0.25 7.86 6.56 8.25
5/30/2022 9:00:00 AM 17.48 63.464 0.249 7.86 4.22 8.3
5/30/2022 9:15:00 AM 17.55 63.59 0.249 7.88 6.99 8.42
5/30/2022 9:30:00 AM 17.63 63.734 0.249 7.9 6.56 8.58
5/30/2022 9:45:00 AM 17.75 63.95 0.249 7.96 5.6 8.83
5/30/2022 10:00:00 AM 17.86 64.148 0.249 7.98 4.93 8.9
5/30/2022 10:15:00 AM 17.95 64.31 0.25 8.01 4.17 9.09
5/30/2022 10:30:00 AM 18.05 64.49 0.251 8.03 5.67 9.26
5/30/2022 10:45:00 AM 18.14 64.652 0.253 8.04 2.76 9.29
5/30/2022 11:00:00 AM 18.27 64.886 0.252 8.1 9.64 9.64
5/30/2022 11:15:00 AM 18.38 65.084 0.252 8.12 6.69 9.65
5/30/2022 11:30:00 AM 18.48 65.264 0.252 8.16 4.67 9.82
5/30/2022 11:45:00 AM 18.6 65.48 0.251 8.19 2.76 9.91
5/30/2022 12:00:00 PM 18.69 65.642 0.251 8.22 6.37 10.05
5/30/2022 12:15:00 PM 18.83 65.894 0.25 8.26 3.06 10.14
5/30/2022 12:30:00 PM 18.96 66.128 0.25 8.29 1.69 10.22
5/30/2022 12:45:00 PM 19.05 66.29 0.25 8.29 2.21 10.33
5/30/2022 1:00:00 PM 19.16 66.488 0.251 8.29 5.87 10.43
5/30/2022 1:15:00 PM 19.23 66.614 0.252 8.32 2.62 10.42
5/30/2022 1:30:00 PM 19.36 66.848 0.252 8.37 3.23 10.51
5/30/2022 1:45:00 PM 19.42 66.956 0.253 8.39 4.6 10.59
5/30/2022 2:00:00 PM 19.48 67.064 0.253 8.41 7.18 10.56
5/30/2022 2:15:00 PM 19.61 67.298 0.254 8.44 6.21 10.63
5/30/2022 2:30:00 PM 19.72 67.496 0.253 8.47 5.57 10.59
5/30/2022 2:45:00 PM 19.89 67.802 0.252 8.49 5.02 10.61
5/30/2022 3:00:00 PM 20.13 68.234 0.252 8.46 10.09 10.31
5/30/2022 3:15:00 PM 20.11 68.198 0.253 8.48 7.73 10.35
5/30/2022 3:30:00 PM 20.3 68.54 0.251 8.45 6.74 10.38
5/30/2022 3:45:00 PM 20.28 68.504 0.252 8.55 6.62 10.75
5/30/2022 4:00:00 PM 20.42 68.756 0.252 8.51 6.62 10.64
5/30/2022 4:15:00 PM 20.57 69.026 0.254 8.51 8.68 10.45
5/30/2022 4:30:00 PM 20.64 69.152 0.253 8.55 9.55 10.58
5/30/2022 4:45:00 PM 20.7 69.26 0.254 8.55 17.01 10.5
5/30/2022 5:00:00 PM 20.75 69.35 0.255 8.54 7.8 10.27
5/30/2022 5:15:00 PM 20.82 69.476 0.256 8.54 5.18 10.32
5/30/2022 5:30:00 PM 20.87 69.566 0.254 8.56 6.89 10.31
5/30/2022 5:45:00 PM 20.9 69.62 0.253 8.56 6.16 10.28
5/30/2022 6:00:00 PM 20.95 69.71 0.253 8.54 3.4 10.07
5/30/2022 6:15:00 PM 20.98 69.764 0.243 8.53 7.03 9.94
5/30/2022 6:30:00 PM 21.05 69.89 0.252 8.56 3 9.93
5/30/2022 6:45:00 PM 21 69.8 0.253 8.51 2.87 9.82
5/30/2022 7:00:00 PM 21.02 69.836 0.253 8.51 3.11 9.75
5/30/2022 7:15:00 PM 21 69.8 0.254 8.49 3.47 9.55
5/30/2022 7:30:00 PM 21.04 69.872 0.256 8.46 4.51 9.43
5/30/2022 7:45:00 PM 21.08 69.944 0.259 8.42 4.52 9.29
5/30/2022 8:00:00 PM 20.98 69.764 0.258 8.39 3.89 9.11
5/30/2022 8:15:00 PM 20.93 69.674 0.258 8.35 5.93 8.95
5/30/2022 8:30:00 PM 20.92 69.656 0.258 8.31 3.45 8.75
5/30/2022 8:45:00 PM 20.85 69.53 0.258 8.28 3.27 8.61
5/30/2022 9:00:00 PM 20.81 69.458 0.256 8.26 2.91 8.55
5/30/2022 9:15:00 PM 20.8 69.44 0.258 8.22 3.14 8.31
5/30/2022 9:30:00 PM 20.76 69.368 0.257 8.18 3.17 7.84
5/30/2022 9:45:00 PM 20.65 69.17 0.256 8.15 3.02 8.11
5/30/2022 10:00:00 PM 20.69 69.242 0.256 8.13 3.2 8.07
5/30/2022 10:15:00 PM 20.65 69.17 0.258 8.1 3.63 7.92
5/30/2022 10:30:00 PM 20.63 69.134 0.259 8.07 4.07 7.89
5/30/2022 10:45:00 PM 20.56 69.008 0.261 8.04 3.73 7.76
5/30/2022 11:00:00 PM 20.54 68.972 0.261 8.03 3.62 7.74
5/30/2022 11:15:00 PM 20.5 68.9 0.262 7.96 5.24 7.5
5/30/2022 11:30:00 PM 20.48 68.864 0.261 7.98 4.06 7.49
5/30/2022 11:45:00 PM 20.47 68.846 0.259 7.98 3.87 7.56
5/31/2022 12:00:00 AM 20.42 68.756 0.259 7.95 7.24 7.24
5/31/2022 12:15:00 AM 20.43 68.774 0.257 7.96 5.53 7.26
5/31/2022 12:30:00 AM 20.39 68.702 0.259 7.91 405.9 6.93
5/31/2022 12:45:00 AM 20.36 68.648 0.255 7.92 41.1 7.02
5/31/2022 1:00:00 AM 20.31 68.558 0.256 7.89 18.11 6.93
5/31/2022 1:15:00 AM 20.27 68.486 0.257 7.91 23.83 7
5/31/2022 1:30:00 AM 20.21 68.378 0.257 7.84 4.26 6.75
5/31/2022 1:45:00 AM 20.15 68.27 0.26 7.87 20.1 6.92
5/31/2022 2:00:00 AM 20.09 68.162 0.261 7.85 6.25 6.68
5/31/2022 2:15:00 AM 20.05 68.09 0.26 7.85 8.69 6.64
5/31/2022 2:30:00 AM 20.01 68.018 0.259 7.85 6.28 6.98
5/31/2022 2:45:00 AM 19.94 67.892 0.258 7.84 9.64 6.88
5/31/2022 3:00:00 AM 19.86 67.748 0.258 7.83 34.64 6.65
5/31/2022 3:15:00 AM 19.83 67.694 0.257 7.83 18.44 6.87
5/31/2022 3:30:00 AM 19.79 67.622 0.256 7.81 14.55 6.92
5/31/2022 3:45:00 AM 19.75 67.55 0.255 7.82 21.64 6.73
5/31/2022 4:00:00 AM 19.68 67.424 0.256 7.81 10.64 6.82
5/31/2022 4:15:00 AM 19.6 67.28 0.257 7.81 16.24 6.82
5/31/2022 4:30:00 AM 19.55 67.19 0.257 7.8 8.48 6.98
5/31/2022 4:45:00 AM 19.47 67.046 0.259 7.78 36.9 6.63
5/31/2022 5:00:00 AM 19.42 66.956 0.26 7.76 6.24 7.13
5/31/2022 5:15:00 AM 19.35 66.83 0.26 7.78 29.87 6.76
5/31/2022 5:30:00 AM 19.3 66.74 0.258 7.78 22.66 6.97
5/31/2022 5:45:00 AM 19.22 66.596 0.258 7.76 143.2 6.67
5/31/2022 6:00:00 AM 19.18 66.524 0.257 7.77 84.21 6.68
5/31/2022 6:15:00 AM 19.11 66.398 0.257 7.76 16.6 6.92
5/31/2022 6:30:00 AM 19.06 66.308 0.256 7.77 38.03 6.95
5/31/2022 6:45:00 AM 19.02 66.236 0.239 7.77 8.37 7.01
5/31/2022 7:00:00 AM 19 66.2 0.254 7.79 183.5 7.21
5/31/2022 7:15:00 AM 18.94 66.092 0.255 7.8 35.25 7.35
5/31/2022 7:30:00 AM 18.9 66.02 0.256 7.79 17.38 7.07
5/31/2022 7:45:00 AM 18.9 66.02 0.257 7.79 53.59 7.18
5/31/2022 8:00:00 AM 18.88 65.984 0.259 7.79 4105 7.29
5/31/2022 8:15:00 AM 18.92 66.056 0.258 7.81 4771 7.72
5/31/2022 8:30:00 AM 18.92 66.056 0.23 7.82 5571 7.61
5/31/2022 8:45:00 AM 18.94 66.092 0.257 7.84 5571 7.86
5/31/2022 9:00:00 AM 18.98 66.164 0.256 7.84 5571 7.92
5/31/2022 9:15:00 AM 19.11 66.398 0.253 7.89 5571 8.15
5/31/2022 9:30:00 AM 19.25 66.65 0.254 7.9 5571 8.24
5/31/2022 9:45:00 AM 19.37 66.866 0.253 7.93 3.52 8.33
5/31/2022 10:00:00 AM 19.48 67.064 0.253 7.95 11.98 8.61
5/31/2022 10:15:00 AM 19.57 67.226 0.254 7.99 16.21 8.66
5/31/2022 10:30:00 AM 19.67 67.406 0.254 8 86.55 8.63
5/31/2022 10:45:00 AM 19.83 67.694 0.254 8.04 50.19 8.84
5/31/2022 11:00:00 AM 19.89 67.802 0.256 8.05 34.08 9.03
5/31/2022 11:15:00 AM 20.06 68.108 0.256 8.11 344 9.17
5/31/2022 11:30:00 AM 20.24 68.432 0.255 8.15 15.72 9.44
5/31/2022 11:45:00 AM 20.3 68.54 0.233 8.17 11.85 9.55
5/31/2022 12:00:00 PM 20.47 68.846 0.254 8.22 9.22 9.64
5/31/2022 12:15:00 PM 20.59 69.062 0.253 8.27 8.94 9.77
5/31/2022 12:30:00 PM 20.68 69.224 0.242 8.29 6.7 9.97
5/31/2022 12:45:00 PM 20.8 69.44 0.251 8.32 7.4 9.82
5/31/2022 1:00:00 PM 20.83 69.494 0.244 8.36 6.7 9.94
5/31/2022 1:15:00 PM 20.94 69.692 0.252 8.39 20.39 9.88
5/31/2022 1:30:00 PM 21.08 69.944 0.25 8.41 9.03 10.15
5/31/2022 1:45:00 PM 21.21 70.17799 0.253 8.42 4.39 9.88
5/31/2022 2:00:00 PM 21.32 70.376 0.253 8.43 3.1 10.16
5/31/2022 2:15:00 PM 21.41 70.538 0.256 8.47 25.25 10.1
5/31/2022 2:30:00 PM 21.56 70.808 0.253 8.51 125.2 10.44
5/31/2022 2:45:00 PM 21.72 71.096 0.253 8.5 18.33 10.55
5/31/2022 3:00:00 PM 21.76 71.168 0.253 8.55 12.6 10.4
5/31/2022 3:15:00 PM 21.96 71.528 0.252 8.59 5.52 10.54
5/31/2022 3:30:00 PM 21.97 71.546 0.228 8.58 5.25 10.46
5/31/2022 3:45:00 PM 22.16 71.888 0.252 8.6 23.73 10.32
5/31/2022 4:00:00 PM 22.19 71.942 0.252 8.6 6.63 10.14
5/31/2022 4:15:00 PM 22.26 72.068 0.253 8.6 7.42 10.34
5/31/2022 4:30:00 PM 22.3 72.14 0.254 8.58 6.66 10.05
5/31/2022 4:45:00 PM 22.27 72.086 0.228 8.61 16.11 10.34
5/31/2022 5:00:00 PM 22.37 72.266 0.255 8.62 11.56 10.32
5/31/2022 5:15:00 PM 22.33 72.194 0.257 8.62 10.75 9.92
5/31/2022 5:30:00 PM 22.41 72.338 0.256 8.63 12.51 10.17
5/31/2022 5:45:00 PM 22.48 72.464 0.255 8.6 19.48 9.79
5/31/2022 6:00:00 PM 22.49 72.482 0.256 8.62 10.49 9.82
5/31/2022 6:15:00 PM 22.47 72.446 0.255 8.6 30.58 9.79
5/31/2022 6:30:00 PM 22.51 72.518 0.243 8.57 9.86 9.65
5/31/2022 6:45:00 PM 22.5 72.5 0.255 8.57 10.19 9.45
5/31/2022 7:00:00 PM 22.47 72.446 0.256 8.57 12.72 9.37
5/31/2022 7:15:00 PM 22.41 72.338 0.257 8.54 12.19 9.1
5/31/2022 7:30:00 PM 22.45 72.41 0.257 8.51 4.62 9.25
5/31/2022 7:45:00 PM 22.37 72.266 0.259 8.5 8.62 9.03
5/31/2022 8:00:00 PM 22.31 72.158 0.262 8.44 5.26 8.66
5/31/2022 8:15:00 PM 22.36 72.248 0.261 8.4 16.36 8.58
5/31/2022 8:30:00 PM 22.25 72.05 0.263 8.35 7.82 8.17
5/31/2022 8:45:00 PM 22.27 72.086 0.262 8.34 3.23 8.38
5/31/2022 9:00:00 PM 22.17 71.906 0.261 8.3 18.82 8.2
5/31/2022 9:15:00 PM 22.18 71.924 0.26 8.26 4.99 8
5/31/2022 9:30:00 PM 22.07 71.726 0.26 8.22 11.75 7.66
5/31/2022 9:45:00 PM 22.01 71.618 0.259 8.21 21.08 7.61
5/31/2022 10:00:00 PM 22 71.6 0.259 8.18 7.18 7.59
5/31/2022 10:15:00 PM 21.96 71.528 0.26 8.14 7.08 7.6
5/31/2022 10:30:00 PM 21.91 71.438 0.239 8.13 20.53 7.47
5/31/2022 10:45:00 PM 21.87 71.366 0.263 8.1 14.11 7.38
5/31/2022 11:00:00 PM 21.78 71.204 0.265 8.06 9.48 7.37
5/31/2022 11:15:00 PM 21.69 71.042 0.266 8.03 7.46 7.2
5/31/2022 11:30:00 PM 21.67 71.006 0.263 8.04 6.4 7.2
5/31/2022 11:45:00 PM 21.59 70.862 0.258 8.01 7.48 7.02
6/1/2022 12:00:00 AM 21.52 70.736 0.265 7.99 6.06 7.05
6/1/2022 12:15:00 AM 21.44 70.592 0.266 7.98 6.57 7.06
6/1/2022 12:30:00 AM 21.41 70.538 0.264 7.95 15.22 6.9
6/1/2022 12:45:00 AM 21.32 70.376 0.262 7.95 19.62 6.97
6/1/2022 1:00:00 AM 21.29 70.32201 0.263 7.92 7.53 6.86
6/1/2022 1:15:00 AM 21.21 70.17799 0.263 7.94 57.15 6.88
6/1/2022 1:30:00 AM 21.18 70.124 0.258 7.93 9.69 7.03
6/1/2022 1:45:00 AM 21.11 69.998 0.264 7.91 4.15 6.95
6/1/2022 2:00:00 AM 21.04 69.872 0.265 7.91 7.8 6.85
6/1/2022 2:15:00 AM 20.98 69.764 0.266 7.88 6.54 6.85
6/1/2022 2:30:00 AM 20.91 69.638 0.266 7.87 7.5 6.76
6/1/2022 2:45:00 AM 20.84 69.512 0.266 7.87 24.31 6.69
6/1/2022 3:00:00 AM 20.74 69.332 0.265 7.86 16.83 6.8
6/1/2022 3:15:00 AM 20.7 69.26 0.263 7.88 12.05 6.73
6/1/2022 3:30:00 AM 20.66 69.188 0.243 7.85 6.55 6.85
6/1/2022 3:45:00 AM 20.56 69.008 0.262 7.84 9.55 6.69
6/1/2022 4:00:00 AM 20.52 68.936 0.262 7.85 7.27 6.63
6/1/2022 4:15:00 AM 20.45 68.81 0.257 7.83 72.68 6.54
6/1/2022 4:30:00 AM 20.39 68.702 0.263 7.83 49.57 6.35
6/1/2022 4:45:00 AM 20.31 68.558 0.264 7.83 40.32 6.58
6/1/2022 5:00:00 AM 20.27 68.486 0.265 7.79 16.61 6.51
6/1/2022 5:15:00 AM 20.17 68.306 0.265 7.82 66.13 6.63
6/1/2022 5:30:00 AM 20.1 68.18 0.265 7.81 65.41 6.47
6/1/2022 5:45:00 AM 20.07 68.126 0.264 7.81 122.9 6.73
6/1/2022 6:00:00 AM 20 68 0.263 7.79 17.15 6.71
6/1/2022 6:15:00 AM 19.95 67.91 0.262 7.82 14.55 6.62
6/1/2022 6:30:00 AM 19.91 67.838 0.26 7.83 13.56 7
6/1/2022 6:45:00 AM 19.86 67.748 0.262 7.81 11.93 6.91
6/1/2022 7:00:00 AM 19.77 67.586 0.26 7.83 8.49 7.01
6/1/2022 7:15:00 AM 19.75 67.55 0.262 7.82 7.17 6.93
6/1/2022 7:30:00 AM 19.72 67.496 0.261 7.83 404.3 7.19
6/1/2022 7:45:00 AM 19.69 67.442 0.262 7.81 2.44 6.91
6/1/2022 8:00:00 AM 19.69 67.442 0.263 7.83 12.31 7.24
6/1/2022 8:15:00 AM 19.69 67.442 0.264 7.84 4.22 7.36
6/1/2022 8:30:00 AM 19.69 67.442 0.263 7.84 6.42 7.33
6/1/2022 8:45:00 AM 19.69 67.442 0.263 7.87 4.67 7.19
6/1/2022 9:00:00 AM 19.77 67.586 0.262 7.85 8.49 7.44
6/1/2022 9:15:00 AM 19.87 67.766 0.261 7.87 8.96 7.73
6/1/2022 9:30:00 AM 20 68 0.259 7.89 25.35 8.09
6/1/2022 9:45:00 AM 20.06 68.108 0.259 7.91 15.65 7.93
6/1/2022 10:00:00 AM 20.19 68.342 0.259 7.92 7.43 8.34
6/1/2022 10:15:00 AM 20.29 68.522 0.258 7.98 6.12 8.61
6/1/2022 10:30:00 AM 20.41 68.738 0.258 8 8.58 8.83
6/1/2022 10:45:00 AM 20.52 68.936 0.259 8.02 4.08 8.9
6/1/2022 11:00:00 AM 20.53 68.954 0.259 8.06 5.77 9.04
6/1/2022 11:15:00 AM 20.73 69.314 0.26 8.12 5.94 8.19
6/1/2022 11:30:00 AM 20.8 69.44 0.26 8.18 6.21 9.29
6/1/2022 11:45:00 AM 20.97 69.746 0.251 8.2 3.77 9.66
6/1/2022 12:00:00 PM 21.03 69.854 0.259 8.27 4.66 9.15
6/1/2022 12:15:00 PM 21.22 70.196 0.257 8.31 25.06 9.63
6/1/2022 12:30:00 PM 21.28 70.304 0.258 8.36 5.15 10.15
6/1/2022 12:45:00 PM 21.34 70.412 0.257 8.39 10.54 10.04
6/1/2022 1:00:00 PM 21.55 70.79 0.256 8.42 10.8 10.32
6/1/2022 1:15:00 PM 21.62 70.916 0.257 8.43 4.88 10.27
6/1/2022 1:30:00 PM 21.78 71.204 0.256 8.48 5.42 10.49
6/1/2022 1:45:00 PM 21.84 71.312 0.257 8.53 3.24 10.4
6/1/2022 2:00:00 PM 21.96 71.528 0.258 8.56 8.12 10.67
6/1/2022 2:15:00 PM 21.94 71.492 0.259 8.54 13.23 10.6
6/1/2022 2:30:00 PM 22.08 71.744 0.259 8.58 4.55 10.87
6/1/2022 2:45:00 PM 22.18 71.924 0.259 8.59 4.86 10.58
6/1/2022 3:00:00 PM 22.22 71.996 0.258 8.57 7.62 10.33
6/1/2022 3:15:00 PM 22.28 72.104 0.258 8.58 5.63 10.54
6/1/2022 3:30:00 PM 22.3 72.14 0.258 8.6 4.17 10.36
6/1/2022 3:45:00 PM 22.36 72.248 0.258 8.62 9.83 10.24
6/1/2022 4:00:00 PM 22.39 72.302 0.258 8.62 5.02 10.37
6/1/2022 4:15:00 PM 22.39 72.302 0.258 8.66 4.3 10.27
6/1/2022 4:30:00 PM 22.47 72.446 0.257 8.63 8.46 10.42
6/1/2022 4:45:00 PM 22.52 72.536 0.257 8.63 4.37 10.24
6/1/2022 5:00:00 PM 22.54 72.57201 0.258 8.66 3.28 10.38
6/1/2022 5:15:00 PM 22.51 72.518 0.258 8.68 7.94 10
6/1/2022 5:30:00 PM 22.63 72.734 0.258 8.65 9.93 10.15
6/1/2022 5:45:00 PM 22.62 72.716 0.259 8.66 4.93 9.62
6/1/2022 6:00:00 PM 22.63 72.734 0.26 8.65 9.46 9.9
6/1/2022 6:15:00 PM 22.72 72.896 0.258 8.66 5.46 10
6/1/2022 6:30:00 PM 22.75 72.95 0.258 8.66 18.54 9.92
6/1/2022 6:45:00 PM 22.77 72.986 0.252 8.65 8.49 9.8
6/1/2022 7:00:00 PM 22.75 72.95 0.248 8.63 5.78 9.68
6/1/2022 7:15:00 PM 22.76 72.968 0.26 8.6 17.65 9.31
6/1/2022 7:30:00 PM 22.74 72.932 0.262 8.56 34.06 9.25
6/1/2022 7:45:00 PM 22.75 72.95 0.263 8.58 123 9.15
6/1/2022 8:00:00 PM 22.74 72.932 0.254 8.55 15.4 8.93
6/1/2022 8:15:00 PM 22.62 72.716 0.269 8.45 25.72 8.78
6/1/2022 8:30:00 PM 22.65 72.77 0.269 8.47 20.3 8.59
6/1/2022 8:45:00 PM 22.57 72.626 0.27 8.4 4.12 8.42
6/1/2022 9:00:00 PM 22.6 72.68 0.268 8.38 9.39 8.19
6/1/2022 9:15:00 PM 22.53 72.554 0.263 8.35 4.7 8.09
6/1/2022 9:30:00 PM 22.43 72.374 0.266 8.3 13.63 7.65
6/1/2022 9:45:00 PM 22.43 72.374 0.266 8.29 3.87 7.76
6/1/2022 10:00:00 PM 22.39 72.302 0.266 8.23 11.71 7.68
6/1/2022 10:15:00 PM 22.29 72.122 0.264 8.2 12.44 7.55
6/1/2022 10:30:00 PM 22.27 72.086 0.269 8.17 7.98 7.43
6/1/2022 10:45:00 PM 22.24 72.032 0.268 8.13 7.1 7.36
6/1/2022 11:00:00 PM 22.18 71.924 0.269 8.09 11.63 7.15
6/1/2022 11:15:00 PM 22.12 71.816 0.261 8.07 13.99 7.16
6/1/2022 11:30:00 PM 22.09 71.762 0.271 8.06 5.14 7.19
6/1/2022 11:45:00 PM 22.05 71.69 0.27 8.04 20.42 7.08
6/2/2022 12:00:00 AM 22 71.6 0.269 8.02 11.52 6.93
6/2/2022 12:15:00 AM 21.83 71.294 0.271 8.01 7.04 6.94
6/2/2022 12:30:00 AM 21.86 71.348 0.265 8 6.76 6.94
6/2/2022 12:45:00 AM 21.86 71.348 0.264 7.98 8.13 6.87
6/2/2022 1:00:00 AM 21.76 71.168 0.266 7.96 4.87 6.73
6/2/2022 1:15:00 AM 21.77 71.186 0.265 7.96 6.19 6.88
6/2/2022 1:30:00 AM 21.58 70.844 0.268 7.93 15.61 6.62
6/2/2022 1:45:00 AM 21.63 70.934 0.267 7.93 13.3 6.74
6/2/2022 2:00:00 AM 21.57 70.826 0.268 7.94 5.69 6.8
6/2/2022 2:15:00 AM 21.41 70.538 0.269 7.9 10.41 6.55
6/2/2022 2:30:00 AM 21.45 70.61 0.269 7.9 8.66 6.81
6/2/2022 2:45:00 AM 21.35 70.43 0.269 7.91 6.21 6.73
6/2/2022 3:00:00 AM 21.28 70.304 0.268 7.91 4.32 6.78
6/2/2022 3:15:00 AM 21.27 70.286 0.266 7.89 8.48 6.71
6/2/2022 3:30:00 AM 21.21 70.17799 0.266 7.88 10.28 6.86
6/2/2022 3:45:00 AM 21.13 70.034 0.257 7.88 15.64 6.64
6/2/2022 4:00:00 AM 21.04 69.872 0.265 7.89 5.58 6.72
6/2/2022 4:15:00 AM 21.01 69.818 0.264 7.88 11.13 6.6
6/2/2022 4:30:00 AM 20.94 69.692 0.264 7.87 93.63 6.76
6/2/2022 4:45:00 AM 20.86 69.548 0.266 7.86 10.16 6.73
6/2/2022 5:00:00 AM 20.81 69.458 0.266 7.85 41.82 6.79
6/2/2022 5:15:00 AM 20.77 69.386 0.257 7.86 5 6.79
6/2/2022 5:30:00 AM 20.7 69.26 0.268 7.84 6.85 6.65
6/2/2022 5:45:00 AM 20.65 69.17 0.266 7.82 23.73 6.32
6/2/2022 6:00:00 AM 20.59 69.062 0.266 7.84 15.46 6.82
6/2/2022 6:15:00 AM 20.57 69.026 0.266 7.84 4.84 6.85
6/2/2022 6:30:00 AM 20.47 68.846 0.265 7.85 12.48 6.83
6/2/2022 6:45:00 AM 20.49 68.882 0.263 7.86 9.35 6.86
6/2/2022 7:00:00 AM 20.37 68.666 0.265 7.84 8.68 6.73
6/2/2022 7:15:00 AM 20.4 68.72 0.262 7.83 7.54 6.79
6/2/2022 7:30:00 AM 20.33 68.594 0.263 7.85 11.23 6.85
6/2/2022 7:45:00 AM 20.33 68.594 0.262 7.87 4.19 7.1
6/2/2022 8:00:00 AM 20.26 68.468 0.266 7.87 14.09 7.08
6/2/2022 8:15:00 AM 20.28 68.504 0.265 7.87 7.26 7.11
6/2/2022 8:30:00 AM 20.3 68.54 0.264 7.9 3.26 7.35
6/2/2022 8:45:00 AM 20.3 68.54 0.262 7.91 9.65 7.47
6/2/2022 9:00:00 AM 20.28 68.504 0.265 7.89 7.89 7.5
6/2/2022 9:15:00 AM 20.29 68.522 0.256 7.9 4.4 7.62
6/2/2022 9:30:00 AM 20.34 68.612 0.262 7.95 5.97 7.7
6/2/2022 9:45:00 AM 20.37 68.666 0.257 7.99 15.1 7.98
6/2/2022 10:00:00 AM 20.48 68.864 0.26 8.01 7.57 8.13
6/2/2022 10:15:00 AM 20.59 69.062 0.259 8.05 1.96 8.63
6/2/2022 10:30:00 AM 20.66 69.188 0.259 8.07 3.79 8.82
6/2/2022 10:45:00 AM 20.73 69.314 0.26 8.1 3.17 9.07
6/2/2022 11:00:00 AM 20.85 69.53 0.26 8.17 3.74 9.29
6/2/2022 11:15:00 AM 20.89 69.602 0.261 8.19 7.36 9.28
6/2/2022 11:30:00 AM 20.8 69.44 0.262 8.16 9.3 9.27
6/2/2022 11:45:00 AM 20.93 69.674 0.261 8.29 3.55 9.67
6/2/2022 12:00:00 PM 21.02 69.836 0.255 8.3 13.12 9.75
6/2/2022 12:15:00 PM 21.03 69.854 0.259 8.36 7.35 9.82
6/2/2022 12:30:00 PM 21.06 69.908 0.259 8.37 8.61 9.87
6/2/2022 12:45:00 PM 21.1 69.98 0.258 8.4 14.99 9.79
6/2/2022 1:00:00 PM 21.1 69.98 0.258 8.45 14.93 9.77
6/2/2022 1:15:00 PM 21.21 70.17799 0.257 8.46 5.74 9.88
6/2/2022 1:30:00 PM 21.25 70.25 0.256 8.49 5.69 10.09
6/2/2022 1:45:00 PM 21.32 70.376 0.259 8.49 15.05 10.06
6/2/2022 2:00:00 PM 21.34 70.412 0.258 8.51 6.94 10.15
6/2/2022 2:15:00 PM 21.4 70.52 0.258 8.5 21.64 10.04
6/2/2022 2:30:00 PM 21.47 70.646 0.258 8.57 21.3 9.99
6/2/2022 2:45:00 PM 21.53 70.754 0.258 8.59 25.59 10.41
6/2/2022 3:00:00 PM 21.59 70.862 0.258 8.59 15.07 10.42
6/2/2022 3:15:00 PM 21.56 70.808 0.258 8.59 5.9 10.52
6/2/2022 3:30:00 PM 21.67 71.006 0.257 8.65 5.82 10.55
6/2/2022 3:45:00 PM 21.6 70.88 0.261 8.62 17.2 10.47
6/2/2022 4:00:00 PM 21.62 70.916 0.258 8.64 11.98 10.44
6/2/2022 4:15:00 PM 21.56 70.808 0.258 8.57 10.65 9.78
6/2/2022 4:30:00 PM 21.5 70.7 0.257 8.6 15.65 10.18
6/2/2022 4:45:00 PM 21.47 70.646 0.258 8.6 26.56 10
6/2/2022 5:00:00 PM 21.36 70.448 0.258 8.56 14.52 9.7
6/2/2022 5:15:00 PM 21.37 70.466 0.26 8.57 12.07 9.81
6/2/2022 5:30:00 PM 21.35 70.43 0.26 8.52 7.48 9.59
6/2/2022 5:45:00 PM 21.31 70.358 0.261 8.49 29.23 9.4
6/2/2022 6:00:00 PM 21.25 70.25 0.261 8.5 6.29 9.33
6/2/2022 6:15:00 PM 21.21 70.17799 0.261 8.47 12.88 9.07
6/2/2022 6:30:00 PM 21.16 70.088 0.262 8.43 10.28 8.93
6/2/2022 6:45:00 PM 21.12 70.016 0.264 8.42 17.26 8.83
6/2/2022 7:00:00 PM 21.1 69.98 0.261 8.4 11.94 8.78
6/2/2022 7:15:00 PM 21.01 69.818 0.263 8.35 5.74 8.63
6/2/2022 7:30:00 PM 21.01 69.818 0.263 8.36 5.16 8.61
6/2/2022 7:45:00 PM 20.95 69.71 0.266 8.3 10.78 8.4
6/2/2022 8:00:00 PM 20.85 69.53 0.269 8.31 5.08 8.16
6/2/2022 8:15:00 PM 20.83 69.494 0.27 8.24 11.67 8.15
6/2/2022 8:30:00 PM 20.83 69.494 0.269 8.29 5.69 8.29
6/2/2022 8:45:00 PM 20.79 69.422 0.27 8.24 13.35 8.13
6/2/2022 9:00:00 PM 20.78 69.404 0.269 8.21 24.94 7.93
6/2/2022 9:15:00 PM 20.73 69.314 0.258 8.21 6.94 7.94
6/2/2022 9:30:00 PM 20.69 69.242 0.268 8.19 7.51 7.9
6/2/2022 9:45:00 PM 20.64 69.152 0.269 8.15 7.98 7.7
6/2/2022 10:00:00 PM 20.59 69.062 0.267 8.17 14.18 7.72
6/2/2022 10:15:00 PM 20.58 69.044 0.267 8.13 28.36 7.51
6/2/2022 10:30:00 PM 20.52 68.936 0.267 8.13 10.6 7.58
6/2/2022 10:45:00 PM 20.48 68.864 0.271 8.09 17.96 7.27
6/2/2022 11:00:00 PM 20.42 68.756 0.271 8.07 12.88 7.2
6/2/2022 11:15:00 PM 20.4 68.72 0.275 8.04 15.7 7.17
6/2/2022 11:30:00 PM 20.39 68.702 0.272 8.02 9.66 7.26
6/2/2022 11:45:00 PM 20.29 68.522 0.273 8.01 29.53 7.22
6/3/2022 12:00:00 AM 20.29 68.522 0.272 8.01 12.15 7.18
6/3/2022 12:15:00 AM 20.22 68.396 0.272 8.01 10.19 7.23
6/3/2022 12:30:00 AM 20.21 68.378 0.27 7.99 20.38 7.18
6/3/2022 12:45:00 AM 20.2 68.36 0.27 7.99 13.84 7.12
6/3/2022 1:00:00 AM 20.15 68.27 0.27 7.99 5.7 7.14
6/3/2022 1:15:00 AM 20.13 68.234 0.269 7.97 22.73 7.11
6/3/2022 1:30:00 AM 20.08 68.144 0.271 7.96 31.14 7.09
6/3/2022 1:45:00 AM 20.05 68.09 0.272 7.95 7.15 7.15
6/3/2022 2:00:00 AM 19.97 67.946 0.272 7.95 7.8 7.05
6/3/2022 2:15:00 AM 19.94 67.892 0.274 7.96 11.7 7.05
6/3/2022 2:30:00 AM 19.88 67.784 0.275 7.95 10.28 6.88
6/3/2022 2:45:00 AM 19.89 67.802 0.26 7.94 17.75 6.95
6/3/2022 3:00:00 AM 19.83 67.694 0.273 7.93 8.58 6.92
6/3/2022 3:15:00 AM 19.82 67.676 0.271 7.93 9.66 7.11
6/3/2022 3:30:00 AM 19.76 67.568 0.272 7.91 25.88 7.01
6/3/2022 3:45:00 AM 19.73 67.514 0.271 7.92 6.87 7.05
6/3/2022 4:00:00 AM 19.71 67.478 0.269 7.93 12.48 7.14
6/3/2022 4:15:00 AM 19.65 67.37 0.271 7.92 9.16 7.11
6/3/2022 4:30:00 AM 19.64 67.352 0.27 7.92 13.33 7.11
6/3/2022 4:45:00 AM 19.59 67.262 0.271 7.91 9.37 7.15
6/3/2022 5:00:00 AM 19.54 67.172 0.272 7.9 9.83 7.07
6/3/2022 5:15:00 AM 19.48 67.064 0.266 7.91 11.86 6.97
6/3/2022 5:30:00 AM 19.45 67.01 0.273 7.91 67.2 7.15
6/3/2022 5:45:00 AM 19.37 66.866 0.275 7.88 0.38 6.99
6/3/2022 6:00:00 AM 19.35 66.83 0.261 7.9 168.4 6.61
6/3/2022 6:15:00 AM 19.28 66.704 0.272 7.86 13.87 6.95
6/3/2022 6:30:00 AM 19.24 66.632 0.271 7.87 21.98 6.76
6/3/2022 6:45:00 AM 19.18 66.524 0.27 7.86 22.08 6.86
6/3/2022 7:00:00 AM 19.15 66.47 0.268 7.88 25 7.28
6/3/2022 7:15:00 AM 19.09 66.362 0.268 7.91 17.12 7.24
6/3/2022 7:30:00 AM 19.06 66.308 0.268 7.92 37.6 7.22
6/3/2022 7:45:00 AM 19 66.2 0.269 7.9 14.58 7.3
6/3/2022 8:00:00 AM 18.97 66.146 0.254 7.89 20.74 7.32
6/3/2022 8:15:00 AM 18.95 66.11 0.271 7.9 192.9 7.42
6/3/2022 8:30:00 AM 18.91 66.038 0.274 7.9 6.51 7.34
6/3/2022 8:45:00 AM 18.88 65.984 0.272 7.94 10.99 7.61
6/3/2022 9:00:00 AM 18.92 66.056 0.27 7.94 4.89 7.82
6/3/2022 9:15:00 AM 19.01 66.218 0.269 7.98 3.9 7.99
6/3/2022 9:30:00 AM 19.13 66.434 0.268 8.01 9.59 8.21
6/3/2022 9:45:00 AM 19.21 66.578 0.277 8.01 2.63 8.43
6/3/2022 10:00:00 AM 19.26 66.668 0.267 8.07 9.68 8.67
6/3/2022 10:15:00 AM 19.29 66.722 0.266 8.14 7.11 8.77
6/3/2022 10:30:00 AM 19.41 66.938 0.266 8.14 3.45 9
6/3/2022 10:45:00 AM 19.46 67.028 0.266 8.18 4.93 9.24
6/3/2022 11:00:00 AM 19.59 67.262 0.249 8.24 7.56 9.51
6/3/2022 11:15:00 AM 19.68 67.424 0.268 8.28 9.42 9.58
6/3/2022 11:30:00 AM 19.75 67.55 0.267 8.33 12.31 9.81
6/3/2022 11:45:00 AM 19.85 67.73 0.267 8.37 5.31 10.06
6/3/2022 12:00:00 PM 19.88 67.784 0.267 8.42 3.7 10.2
6/3/2022 12:15:00 PM 19.98 67.964 0.268 8.47 5.84 10.32
6/3/2022 12:30:00 PM 20.04 68.07201 0.265 8.49 7.49 10.48
6/3/2022 12:45:00 PM 20.16 68.288 0.264 8.54 4.64 10.68
6/3/2022 1:00:00 PM 20.25 68.45 0.264 8.57 6.32 10.59
6/3/2022 1:15:00 PM 20.34 68.612 0.263 8.64 3.79 10.85
6/3/2022 1:30:00 PM 20.48 68.864 0.263 8.64 4.97 10.88
6/3/2022 1:45:00 PM 20.46 68.828 0.263 8.66 9.72 10.99
6/3/2022 2:00:00 PM 20.59 69.062 0.264 8.71 19.62 11.09
6/3/2022 2:15:00 PM 20.62 69.116 0.264 8.74 7.86 11.08
6/3/2022 2:30:00 PM 20.71 69.278 0.264 8.75 6.7 11.11
6/3/2022 2:45:00 PM 20.75 69.35 0.264 8.77 10.48 11.21
6/3/2022 3:00:00 PM 20.86 69.548 0.266 8.75 7.78 11.13
6/3/2022 3:15:00 PM 20.91 69.638 0.262 8.78 6.76 11.29
6/3/2022 3:30:00 PM 20.85 69.53 0.263 8.79 6.42 11.16
6/3/2022 3:45:00 PM 21.03 69.854 0.262 8.81 6.17 11.15
6/3/2022 4:00:00 PM 21.11 69.998 0.261 8.83 7.33 11.49
6/3/2022 4:15:00 PM 21.15 70.07 0.26 8.86 6.23 11.46
6/3/2022 4:30:00 PM 21.16 70.088 0.261 8.83 9.2 11.32
6/3/2022 4:45:00 PM 21.23 70.214 0.261 8.85 4.04 11.31
6/3/2022 5:00:00 PM 21.18 70.124 0.262 8.85 3.16 11.12
6/3/2022 5:15:00 PM 21.16 70.088 0.263 8.83 9.74 10.99
6/3/2022 5:30:00 PM 21.28 70.304 0.263 8.8 11.89 11.09
6/3/2022 5:45:00 PM 21.29 70.32201 0.262 8.85 8.7 11.02
6/3/2022 6:00:00 PM 21.26 70.268 0.263 8.82 3.38 10.89
6/3/2022 6:15:00 PM 21.29 70.32201 0.261 8.82 8.86 10.69
6/3/2022 6:30:00 PM 21.25 70.25 0.264 8.8 5.83 10.61
6/3/2022 6:45:00 PM 21.23 70.214 0.263 8.79 3.43 10.46
6/3/2022 7:00:00 PM 21.19 70.142 0.262 8.79 2.49 10.31
6/3/2022 7:15:00 PM 21.2 70.16 0.262 8.76 9.74 10.17
6/3/2022 7:30:00 PM 21.16 70.088 0.263 8.73 5 10.03
6/3/2022 7:45:00 PM 21.12 70.016 0.256 8.72 4.77 9.73
6/3/2022 8:00:00 PM 21.03 69.854 0.266 8.65 13.19 9.5
6/3/2022 8:15:00 PM 20.97 69.746 0.268 8.62 8.52 9.2
6/3/2022 8:30:00 PM 20.96 69.728 0.269 8.59 5.9 9.14
6/3/2022 8:45:00 PM 20.88 69.584 0.269 8.55 2.55 8.89
6/3/2022 9:00:00 PM 20.8 69.44 0.269 8.49 10.14 8.7
6/3/2022 9:15:00 PM 20.71 69.278 0.268 8.45 3.44 8.44
6/3/2022 9:30:00 PM 20.67 69.206 0.268 8.42 16.81 8.3
6/3/2022 9:45:00 PM 20.58 69.044 0.268 8.39 5.2 8.12
6/3/2022 10:00:00 PM 20.47 68.846 0.266 8.34 26.13 7.69
6/3/2022 10:15:00 PM 20.4 68.72 0.265 8.3 9.37 7.85
6/3/2022 10:30:00 PM 20.34 68.612 0.265 8.28 3.99 7.59
6/3/2022 10:45:00 PM 20.25 68.45 0.268 8.22 19.28 7.49
6/3/2022 11:00:00 PM 20.16 68.288 0.267 8.21 4.97 7.45
6/3/2022 11:15:00 PM 20.07 68.126 0.269 8.14 6.99 7.43
6/3/2022 11:30:00 PM 20.04 68.07201 0.27 8.14 6.71 7.28
6/3/2022 11:45:00 PM 19.97 67.946 0.27 8.13 8.63 7.38
6/4/2022 12:00:00 AM 19.93 67.874 0.27 8.07 7.39 7.33
6/4/2022 12:15:00 AM 19.85 67.73 0.271 8.08 7.91 7.07
6/4/2022 12:30:00 AM 19.78 67.604 0.269 8.03 5.69 7.16
6/4/2022 12:45:00 AM 19.72 67.496 0.269 8.06 8.9 7
6/4/2022 1:00:00 AM 19.69 67.442 0.268 8.05 6.25 7.05
6/4/2022 1:15:00 AM 19.55 67.19 0.266 8.05 8.74 7.18
6/4/2022 1:30:00 AM 19.53 67.154 0.267 8.02 9.95 6.96
6/4/2022 1:45:00 AM 19.47 67.046 0.266 8.01 4.76 7.09
6/4/2022 2:00:00 AM 19.38 66.884 0.269 7.99 5.84 7.19
6/4/2022 2:15:00 AM 19.31 66.758 0.269 8 4.67 7.27
6/4/2022 2:30:00 AM 19.21 66.578 0.27 8.02 6 7.09
6/4/2022 2:45:00 AM 19.13 66.434 0.271 7.99 5.04 7.14
6/4/2022 3:00:00 AM 19.04 66.272 0.268 7.98 14.24 7.08
6/4/2022 3:15:00 AM 18.98 66.164 0.269 7.95 12.36 6.94
6/4/2022 3:30:00 AM 18.9 66.02 0.268 7.96 7.19 7.16
6/4/2022 3:45:00 AM 18.82 65.876 0.267 7.94 1790 7.07
6/4/2022 4:00:00 AM 18.73 65.714 0.268 7.94 5571 7.42
6/4/2022 4:15:00 AM 18.65 65.57 0.267 7.94 5571 7.36
6/4/2022 4:30:00 AM 18.57 65.426 0.269 7.92 923.1 7.4
6/4/2022 4:45:00 AM 18.5 65.3 0.267 7.92 707.7 7.44
6/4/2022 5:00:00 AM 18.41 65.138 0.27 7.92 653.2 7.37
6/4/2022 5:15:00 AM 18.35 65.03 0.271 7.92 104.2 7.42
6/4/2022 5:30:00 AM 18.26 64.868 0.271 7.92 12.21 7.07
6/4/2022 5:45:00 AM 18.18 64.724 0.264 7.91 3.32 7.37
6/4/2022 6:00:00 AM 18.11 64.598 0.27 7.93 1.84 7.5
6/4/2022 6:15:00 AM 18.04 64.472 0.268 7.92 1.55 7.5
6/4/2022 6:30:00 AM 17.96 64.328 0.269 7.88 1.34 3.69
6/4/2022 6:45:00 AM 17.9 64.22 0.264 7.91 1.27 0.05
6/4/2022 7:00:00 AM 17.85 64.13 0.268 7.92 1.22 0.07
6/4/2022 7:15:00 AM 17.78 64.004 0.268 7.9 1.2 0.29
6/4/2022 7:30:00 AM 17.74 63.932 0.266 7.92 1.13 0.06
6/4/2022 7:45:00 AM 17.71 63.878 0.267 7.91 1.15 0.15
6/4/2022 8:00:00 AM 17.68 63.824 0.268 7.94 1.13 0.02
6/4/2022 8:15:00 AM 17.69 63.842 0.268 7.95 1.01 0.01
6/4/2022 8:30:00 AM 17.68 63.824 0.27 7.94 1.04 0.01
6/4/2022 8:45:00 AM 17.67 63.806 0.264 7.95 1.01 0.37
6/4/2022 9:00:00 AM 17.71 63.878 0.269 7.97 0.99 0.01
6/4/2022 9:15:00 AM 17.87 64.166 0.257 8 0.96 0.06
6/4/2022 9:30:00 AM 17.98 64.364 0.267 8.04 0.94 0.07
6/4/2022 9:45:00 AM 18.09 64.562 0.267 8.07 0.87 0.05
6/4/2022 10:00:00 AM 18.18 64.724 0.265 8.13 0.86 0.02
6/4/2022 10:15:00 AM 18.29 64.922 0.265 8.16 0.86 0.01
6/4/2022 10:30:00 AM 18.35 65.03 0.264 8.21 0.81 0.03
6/4/2022 10:45:00 AM 18.5 65.3 0.264 8.25 0.86 0.01
6/4/2022 11:00:00 AM 18.59 65.462 0.264 8.3 0.78 0.01
6/4/2022 11:15:00 AM 18.75 65.75 0.264 8.35 0.76 0.01
6/4/2022 11:30:00 AM 18.91 66.038 0.265 8.4 0.78 0.01
6/4/2022 11:45:00 AM 19.03 66.254 0.265 8.45 0.8 2.38
6/4/2022 12:00:00 PM 19.1 66.38 0.266 8.51 0.73 8.31
6/4/2022 12:15:00 PM 19.19 66.542 0.265 8.56 0.77 8.05
6/4/2022 12:30:00 PM 19.25 66.65 0.264 8.6 0.7 8.24
6/4/2022 12:45:00 PM 19.39 66.902 0.262 8.64 0.73 7.29
6/4/2022 1:00:00 PM 19.42 66.956 0.265 8.67 0.74 8.1
6/8/2022 1:00:00 PM 19.09 66.362 0.274 8.11 2.82 11.82
6/8/2022 1:15:00 PM 19.13 66.434 0.274 8.26 3.84 11.94
6/8/2022 1:30:00 PM 19.23 66.614 0.273 8.37 2.93 12.03
6/8/2022 1:45:00 PM 19.37 66.866 0.272 8.42 2.21 12.11
6/8/2022 2:00:00 PM 19.5 67.1 0.272 8.5 3.94 12.15
6/8/2022 2:15:00 PM 19.62 67.316 0.272 8.53 3.03 12.24
6/8/2022 2:30:00 PM 19.75 67.55 0.272 8.54 2.57 12.26
6/8/2022 2:45:00 PM 19.85 67.73 0.272 8.59 3.03 12.29
6/8/2022 3:00:00 PM 19.93 67.874 0.272 8.65 2.86 12.31
6/8/2022 3:15:00 PM 20.04 68.07201 0.271 8.68 4.06 12.29
6/8/2022 3:30:00 PM 20.18 68.324 0.27 8.69 3.3 12.27
6/8/2022 3:45:00 PM 20.2 68.36 0.271 8.69 2.21 12.24
6/8/2022 4:00:00 PM 20.36 68.648 0.269 8.74 2.23 12.21
6/8/2022 4:15:00 PM 20.41 68.738 0.269 8.75 1.94 12.16
6/8/2022 4:30:00 PM 20.47 68.846 0.269 8.75 3.3 12.09
6/8/2022 4:45:00 PM 20.56 69.008 0.269 8.75 2.09 12.02
6/8/2022 5:00:00 PM 20.62 69.116 0.27 8.76 2.99 11.85
6/8/2022 5:15:00 PM 20.68 69.224 0.27 8.75 3 11.81
6/8/2022 5:30:00 PM 20.72 69.296 0.271 8.76 2.21 11.66
6/8/2022 5:45:00 PM 20.73 69.314 0.271 8.75 2.04 11.58
6/8/2022 6:00:00 PM 20.79 69.422 0.271 8.76 2.53 11.48
6/8/2022 6:15:00 PM 20.81 69.458 0.269 8.78 2.19 11.34
6/8/2022 6:30:00 PM 20.82 69.476 0.27 8.74 1.89 11.14
6/8/2022 6:45:00 PM 20.83 69.494 0.27 8.73 2.72 11.05
6/8/2022 7:00:00 PM 20.79 69.422 0.27 8.72 2.42 10.86
6/8/2022 7:15:00 PM 20.8 69.44 0.269 8.68 2.26 10.66
6/8/2022 7:30:00 PM 20.77 69.386 0.27 8.66 2.08 10.46
6/8/2022 7:45:00 PM 20.76 69.368 0.27 8.66 4.61 10.24
6/8/2022 8:00:00 PM 20.69 69.242 0.272 8.64 2.16 10.05
6/8/2022 8:15:00 PM 20.68 69.224 0.274 8.59 2.53 9.76
6/8/2022 8:30:00 PM 20.66 69.188 0.274 8.55 2.06 9.59
6/8/2022 8:45:00 PM 20.62 69.116 0.275 8.48 2.84 9.38
6/8/2022 9:00:00 PM 20.57 69.026 0.278 8.44 3.26 9.12
6/8/2022 9:15:00 PM 20.54 68.972 0.276 8.39 2.51 8.92
6/8/2022 9:30:00 PM 20.51 68.918 0.275 8.34 2.25 8.71
6/8/2022 9:45:00 PM 20.48 68.864 0.273 8.3 2.8 8.55
6/8/2022 10:00:00 PM 20.44 68.792 0.261 8.24 4.01 8.36
6/8/2022 10:15:00 PM 20.4 68.72 0.269 8.19 3.04 8.18
6/8/2022 10:30:00 PM 20.37 68.666 0.273 8.16 2.32 8.03
6/8/2022 10:45:00 PM 20.32 68.576 0.259 8.12 1.49 7.9
6/8/2022 11:00:00 PM 20.3 68.54 0.273 8.08 2 7.79
6/8/2022 11:15:00 PM 20.26 68.468 0.274 8.05 2.84 7.71
6/8/2022 11:30:00 PM 20.25 68.45 0.275 8.02 3.69 7.6
6/8/2022 11:45:00 PM 20.21 68.378 0.276 7.98 2.64 7.51
6/9/2022 12:00:00 AM 20.2 68.36 0.275 7.95 3.75 7.47
6/9/2022 12:15:00 AM 20.2 68.36 0.274 7.96 2.44 7.43
6/9/2022 12:30:00 AM 20.16 68.288 0.267 7.94 2.97 7.37
6/9/2022 12:45:00 AM 20.14 68.252 0.273 7.93 3.44 7.27
6/9/2022 1:00:00 AM 20.13 68.234 0.266 7.93 2.12 7.27
6/9/2022 1:15:00 AM 20.12 68.216 0.267 7.9 4.07 7.21
6/9/2022 1:30:00 AM 20.09 68.162 0.272 7.87 2.12 7.24
6/9/2022 1:45:00 AM 20.05 68.09 0.271 7.87 2.9 7.13
6/9/2022 2:00:00 AM 20.04 68.07201 0.271 7.85 3.22 7.18
6/9/2022 2:15:00 AM 20.01 68.018 0.258 7.82 3.6 7.08
6/9/2022 2:30:00 AM 19.98 67.964 0.273 7.82 3.91 7.08
6/9/2022 2:45:00 AM 19.95 67.91 0.274 7.79 2.22 7.06
6/9/2022 3:00:00 AM 19.91 67.838 0.273 7.8 3.3 7.05
6/9/2022 3:15:00 AM 19.88 67.784 0.292 7.77 3.03 7.04
6/9/2022 3:30:00 AM 19.86 67.748 0.284 7.75 4.27 6.96
6/9/2022 3:45:00 AM 19.83 67.694 0.266 7.75 2.67 6.96
6/9/2022 4:00:00 AM 19.79 67.622 0.275 7.76 2.41 6.97
6/9/2022 4:15:00 AM 19.75 67.55 0.269 7.73 3.03 7
6/9/2022 4:30:00 AM 19.72 67.496 0.268 7.73 3.23 6.98
6/9/2022 4:45:00 AM 19.68 67.424 0.272 7.71 7 6.98
6/9/2022 5:00:00 AM 19.64 67.352 0.264 7.7 3.76 6.93
6/9/2022 5:15:00 AM 19.6 67.28 0.274 7.68 7.91 6.91
6/9/2022 5:30:00 AM 19.58 67.244 0.272 7.67 2.33 6.94
6/9/2022 5:45:00 AM 19.53 67.154 0.296 7.67 3.13 6.94
6/9/2022 6:00:00 AM 19.49 67.082 0.274 7.66 2.75 6.95
6/9/2022 6:15:00 AM 19.45 67.01 0.275 7.69 7.3 7
6/9/2022 6:30:00 AM 19.41 66.938 0.281 7.66 5.23 7.01
6/9/2022 6:45:00 AM 19.36 66.848 0.274 7.7 28.87 7.05
6/9/2022 7:00:00 AM 19.33 66.794 0.273 7.68 26.45 7.05
6/9/2022 7:15:00 AM 19.3 66.74 0.273 7.67 1.83 7.07
6/9/2022 7:30:00 AM 19.26 66.668 0.273 7.67 2.8 7.1
6/9/2022 7:45:00 AM 19.24 66.632 0.274 7.67 3.56 7.12
6/9/2022 8:00:00 AM 19.22 66.596 0.274 7.67 12.29 7.14
6/9/2022 8:15:00 AM 19.22 66.596 0.249 7.71 3.88 7.24
6/9/2022 8:30:00 AM 19.22 66.596 0.276 7.7 5.75 7.36
6/9/2022 8:45:00 AM 19.24 66.632 0.269 7.7 3.19 7.45
6/9/2022 9:00:00 AM 19.26 66.668 0.294 7.7 27.13 7.62
6/9/2022 9:15:00 AM 19.32 66.776 0.269 7.74 3.98 7.81
6/9/2022 9:30:00 AM 19.34 66.812 0.269 7.78 7.52 7.99
6/9/2022 9:45:00 AM 19.4 66.92 0.275 7.78 4.85 8.12
6/9/2022 10:00:00 AM 19.45 67.01 0.266 7.83 2.69 8.28
6/9/2022 10:15:00 AM 19.54 67.172 0.273 7.86 382.9 8.51
6/9/2022 10:30:00 AM 19.63 67.334 0.272 7.87 11.71 8.72
6/9/2022 10:45:00 AM 19.69 67.442 0.271 7.92 5.19 8.87
6/9/2022 11:00:00 AM 19.68 67.424 0.272 7.96 2.57 9
6/9/2022 11:15:00 AM 19.72 67.496 0.272 7.99 7.78 9.25
6/9/2022 11:30:00 AM 19.76 67.568 0.273 8.03 2.27 9.38
6/9/2022 11:45:00 AM 19.79 67.622 0.273 8.08 6.11 9.59
6/9/2022 12:00:00 PM 19.85 67.73 0.274 8.1 3.68 9.66
6/9/2022 12:15:00 PM 19.92 67.856 0.274 8.16 8.38 9.87
6/9/2022 12:30:00 PM 19.97 67.946 0.273 8.18 2.57 9.96
6/9/2022 12:45:00 PM 20.02 68.036 0.272 8.19 4.25 10.06
6/9/2022 1:00:00 PM 20.07 68.126 0.272 8.25 5.95 10.13
6/9/2022 1:15:00 PM 20.15 68.27 0.271 8.28 3.88 10.29
6/9/2022 1:30:00 PM 20.18 68.324 0.27 8.32 2.92 10.45
6/9/2022 1:45:00 PM 20.19 68.342 0.27 8.35 4.8 10.49
6/9/2022 2:00:00 PM 20.23 68.414 0.271 8.37 2.45 10.51
6/9/2022 2:15:00 PM 20.28 68.504 0.271 8.39 3.14 10.55
6/9/2022 2:30:00 PM 20.36 68.648 0.272 8.4 6.01 10.66
6/9/2022 2:45:00 PM 20.4 68.72 0.272 8.44 5.69 10.71
6/9/2022 3:00:00 PM 20.49 68.882 0.273 8.47 2.51 10.83
6/9/2022 3:15:00 PM 20.64 69.152 0.272 8.5 6.13 10.98
6/9/2022 3:30:00 PM 20.72 69.296 0.271 8.52 4.64 11.03
6/9/2022 3:45:00 PM 20.73 69.314 0.271 8.55 6.78 10.98
6/9/2022 4:00:00 PM 20.75 69.35 0.271 8.54 3.17 10.94
6/9/2022 4:15:00 PM 20.79 69.422 0.27 8.58 3.67 11.08
6/9/2022 4:30:00 PM 20.74 69.332 0.271 8.58 2.04 10.99
6/9/2022 4:45:00 PM 20.75 69.35 0.271 8.59 4.36 10.98
6/9/2022 5:00:00 PM 20.73 69.314 0.271 8.59 20.75 10.76
6/9/2022 5:15:00 PM 20.71 69.278 0.272 8.58 4.23 10.78
6/9/2022 5:30:00 PM 20.65 69.17 0.273 8.59 2.41 10.75
6/9/2022 5:45:00 PM 20.59 69.062 0.273 8.56 3.38 10.62
6/9/2022 6:00:00 PM 20.51 68.918 0.274 8.55 2.11 10.45
6/9/2022 6:15:00 PM 20.45 68.81 0.274 8.53 2.8 10.34
6/9/2022 6:30:00 PM 20.38 68.684 0.274 8.51 2.01 10.18
6/9/2022 6:45:00 PM 20.33 68.594 0.273 8.49 1.9 10.04
6/9/2022 7:00:00 PM 20.26 68.468 0.273 8.47 3.57 9.94
6/9/2022 7:15:00 PM 20.15 68.27 0.274 8.44 4.45 9.71
6/9/2022 7:30:00 PM 20.11 68.198 0.273 8.42 2.06 9.57
6/9/2022 7:45:00 PM 20.03 68.054 0.274 8.38 2.32 9.44
6/9/2022 8:00:00 PM 19.95 67.91 0.275 8.34 1.49 9.27
6/9/2022 8:15:00 PM 19.89 67.802 0.277 8.3 1.93 9.15
6/9/2022 8:30:00 PM 19.83 67.694 0.278 8.28 2.13 9.03
6/9/2022 8:45:00 PM 19.78 67.604 0.279 8.24 1.93 8.83
6/9/2022 9:00:00 PM 19.72 67.496 0.279 8.22 2.47 8.77
6/9/2022 9:15:00 PM 19.73 67.514 0.279 8.2 2.63 8.67
6/9/2022 9:30:00 PM 19.69 67.442 0.279 8.18 2.65 8.56
6/9/2022 9:45:00 PM 19.7 67.46 0.278 8.16 1.67 8.48
6/9/2022 10:00:00 PM 19.69 67.442 0.278 8.16 2.2 8.39
6/9/2022 10:15:00 PM 19.7 67.46 0.277 8.14 3.18 8.27
6/9/2022 10:30:00 PM 19.65 67.37 0.277 8.12 2.78 8.17
6/9/2022 10:45:00 PM 19.63 67.334 0.278 8.1 1.96 8.06
6/9/2022 11:00:00 PM 19.61 67.298 0.279 8.05 1.83 7.96
6/9/2022 11:15:00 PM 19.57 67.226 0.28 8.02 2.22 7.85
6/9/2022 11:30:00 PM 19.56 67.208 0.281 8.01 2.57 7.76
6/9/2022 11:45:00 PM 19.52 67.136 0.282 7.98 3.6 7.72
6/10/2022 12:00:00 AM 19.48 67.064 0.282 7.99 2.08 7.67
6/10/2022 12:15:00 AM 19.45 67.01 0.282 7.95 3.03 7.62
6/10/2022 12:30:00 AM 19.42 66.956 0.281 7.94 3.2 7.55
6/10/2022 12:45:00 AM 19.38 66.884 0.281 7.94 2.72 7.53
6/10/2022 1:00:00 AM 19.3 66.74 0.281 7.9 2.13 7.48
6/10/2022 1:15:00 AM 19.28 66.704 0.28 7.9 1.77 7.46
6/10/2022 1:30:00 AM 19.22 66.596 0.28 7.89 3.87 7.44
6/10/2022 1:45:00 AM 19.18 66.524 0.28 7.87 2.51 7.42
6/10/2022 2:00:00 AM 19.12 66.416 0.28 7.85 2.68 7.42
6/10/2022 2:15:00 AM 19.03 66.254 0.282 7.85 4.67 7.37
6/10/2022 2:30:00 AM 18.96 66.128 0.282 7.82 2.45 7.4
6/10/2022 2:45:00 AM 18.86 65.948 0.283 7.82 2.92 7.41
6/10/2022 3:00:00 AM 18.84 65.912 0.283 7.8 2.81 7.4
6/10/2022 3:15:00 AM 18.77 65.786 0.282 7.8 2.34 7.41
6/10/2022 3:30:00 AM 18.67 65.606 0.281 7.79 4.7 7.39
6/10/2022 3:45:00 AM 18.61 65.498 0.28 7.79 4.89 7.4
6/10/2022 4:00:00 AM 18.52 65.336 0.279 7.78 3.77 7.41
6/10/2022 4:15:00 AM 18.45 65.21 0.279 7.77 3.71 7.4
6/10/2022 4:30:00 AM 18.37 65.066 0.278 7.75 2.85 7.41
6/10/2022 4:45:00 AM 18.29 64.922 0.278 7.75 3.56 7.43
6/10/2022 5:00:00 AM 18.21 64.778 0.279 7.75 2.69 7.43
6/10/2022 5:15:00 AM 18.13 64.634 0.279 7.74 2.65 7.47
6/10/2022 5:30:00 AM 18.04 64.472 0.279 7.75 2.45 7.46
6/10/2022 5:45:00 AM 17.96 64.328 0.28 7.72 2.52 7.47
6/10/2022 6:00:00 AM 17.86 64.148 0.279 7.72 3.6 7.48
6/10/2022 6:15:00 AM 17.79 64.022 0.28 7.71 3.06 7.5
6/10/2022 6:30:00 AM 17.73 63.914 0.278 7.72 3.5 7.55
6/10/2022 6:45:00 AM 17.64 63.752 0.277 7.72 2.27 7.56
6/10/2022 7:00:00 AM 17.57 63.626 0.276 7.71 4.28 7.6
6/10/2022 7:15:00 AM 17.54 63.572 0.275 7.7 3.28 7.65
6/10/2022 7:30:00 AM 17.48 63.464 0.275 7.71 2.31 7.64
6/10/2022 7:45:00 AM 17.45 63.41 0.274 7.71 2.31 7.73
6/10/2022 8:00:00 AM 17.44 63.392 0.273 7.68 3.13 7.82
6/10/2022 8:15:00 AM 17.44 63.392 0.274 7.69 3.01 7.83
6/10/2022 8:30:00 AM 17.43 63.374 0.275 7.72 1.63 7.88
6/10/2022 8:45:00 AM 17.43 63.374 0.275 7.71 7.62 7.95
6/10/2022 9:00:00 AM 17.47 63.446 0.275 7.7 2.77 8.09
6/10/2022 9:15:00 AM 17.55 63.59 0.275 7.72 2.56 8.2
6/10/2022 9:30:00 AM 17.71 63.878 0.274 7.73 2.28 8.45
6/10/2022 9:45:00 AM 17.79 64.022 0.274 7.78 3.44 8.64
6/10/2022 10:00:00 AM 17.81 64.058 0.273 7.8 2.86 8.79
6/10/2022 10:15:00 AM 17.86 64.148 0.271 7.81 3.91 8.96
6/10/2022 10:30:00 AM 17.95 64.31 0.271 7.86 4.97 9.15
6/10/2022 10:45:00 AM 18.11 64.598 0.27 7.9 2.1 9.37
6/10/2022 11:00:00 AM 18.21 64.778 0.269 7.93 3.58 9.48
6/10/2022 11:15:00 AM 18.34 65.012 0.27 7.97 2.12 9.59
6/10/2022 11:30:00 AM 18.46 65.228 0.27 8.02 2.68 9.88
6/10/2022 11:45:00 AM 18.61 65.498 0.271 8.07 3.19 10.03
6/10/2022 12:00:00 PM 18.69 65.642 0.271 8.13 3.13 10.12
6/10/2022 12:15:00 PM 18.84 65.912 0.27 8.15 2.12 10.3
6/10/2022 12:30:00 PM 18.94 66.092 0.271 8.19 2.16 10.47
6/10/2022 12:45:00 PM 19.1 66.38 0.268 8.23 2.14 10.6
6/10/2022 1:00:00 PM 19.21 66.578 0.269 8.28 1.89 10.78
6/10/2022 1:15:00 PM 19.26 66.668 0.249 8.32 3.34 10.78
6/10/2022 1:30:00 PM 19.35 66.83 0.257 8.37 8.35 10.8
6/10/2022 1:45:00 PM 19.4 66.92 0.264 8.4 2.47 10.85
6/10/2022 2:00:00 PM 19.36 66.848 0.268 8.41 2.59 10.74
6/10/2022 2:15:00 PM 19.4 66.92 0.231 8.43 2 10.87
6/10/2022 2:30:00 PM 19.47 67.046 0.266 8.45 1.76 10.85
6/10/2022 2:45:00 PM 19.52 67.136 0.268 8.46 1.75 10.9
6/10/2022 3:00:00 PM 19.62 67.316 0.268 8.47 2.76 10.97
6/10/2022 3:15:00 PM 19.65 67.37 0.269 8.48 2.47 10.93
6/10/2022 3:30:00 PM 19.8 67.64 0.268 8.51 2.27 11.05
6/10/2022 3:45:00 PM 19.88 67.784 0.269 8.51 3.18 11.06
6/10/2022 4:00:00 PM 19.96 67.92799 0.268 8.54 2.2 11.04
6/10/2022 4:15:00 PM 20.02 68.036 0.261 8.56 1.73 11.08
6/10/2022 4:30:00 PM 20.07 68.126 0.266 8.57 2.38 11.1
6/10/2022 4:45:00 PM 20.1 68.18 0.253 8.58 2.3 11.05
6/10/2022 5:00:00 PM 20.13 68.234 0.267 8.59 1.1 11.14
6/10/2022 5:15:00 PM 20.14 68.252 0.269 8.6 1.47 11.05
6/10/2022 5:30:00 PM 20.13 68.234 0.267 8.6 2.63 11
6/10/2022 5:45:00 PM 20.11 68.198 0.272 8.6 1.51 10.91
6/10/2022 6:00:00 PM 20.17 68.306 0.237 8.61 3.57 10.85
6/10/2022 6:15:00 PM 20.15 68.27 0.25 8.61 2.12 10.75
6/10/2022 6:30:00 PM 20.15 68.27 0.271 8.6 2.21 10.68
6/10/2022 6:45:00 PM 20.12 68.216 0.266 8.59 1.68 10.46
6/10/2022 7:00:00 PM 20.1 68.18 0.272 8.58 5.78 10.26
6/10/2022 7:15:00 PM 20.09 68.162 0.272 8.55 2.56 10.1
6/10/2022 7:30:00 PM 20.06 68.108 0.272 8.56 2.16 10.02
6/10/2022 7:45:00 PM 20.05 68.09 0.272 8.53 2.12 9.83
6/10/2022 8:00:00 PM 20.01 68.018 0.246 8.5 1.71 9.68
6/10/2022 8:15:00 PM 19.98 67.964 0.275 8.48 1.94 9.45
6/10/2022 8:30:00 PM 19.91 67.838 0.276 8.45 1.54 9.34
6/10/2022 8:45:00 PM 19.92 67.856 0.276 8.41 1.76 9.15
6/10/2022 9:00:00 PM 19.83 67.694 0.277 8.37 2.67 8.96
6/10/2022 9:15:00 PM 19.82 67.676 0.28 8.33 1.41 8.82
6/10/2022 9:30:00 PM 19.76 67.568 0.281 8.28 105.7 8.64
6/10/2022 9:45:00 PM 19.73 67.514 0.28 8.24 111.3 8.5
6/10/2022 10:00:00 PM 19.68 67.424 0.279 8.21 116.6 8.4
6/10/2022 10:15:00 PM 19.61 67.298 0.238 8.18 123.1 8.3
6/10/2022 10:30:00 PM 19.53 67.154 0.279 8.15 128.2 8.18
6/10/2022 10:45:00 PM 19.47 67.046 0.279 8.13 129.3 8.06
6/10/2022 11:00:00 PM 19.44 66.992 0.271 8.11 134.5 8.01
6/10/2022 11:15:00 PM 19.36 66.848 0.246 8.1 148.4 7.95
6/10/2022 11:30:00 PM 19.32 66.776 0.279 8.07 112 7.87
6/10/2022 11:45:00 PM 19.25 66.65 0.28 8.03 81.16 7.83
6/11/2022 12:00:00 AM 19.19 66.542 0.279 8.01 82.95 7.77
6/11/2022 12:15:00 AM 19.14 66.452 0.282 8 86.38 7.7
6/11/2022 12:30:00 AM 19.09 66.362 0.282 7.98 89.89 7.73
6/11/2022 12:45:00 AM 19.04 66.272 0.28 7.95 90.38 7.66
6/11/2022 1:00:00 AM 18.97 66.146 0.281 7.93 92.24 7.65
6/11/2022 1:15:00 AM 18.93 66.074 0.279 7.91 93.72 7.64
6/11/2022 1:30:00 AM 18.86 65.948 0.279 7.9 100.8 7.61
6/11/2022 1:45:00 AM 18.8 65.84 0.279 7.89 102.1 7.58
6/11/2022 2:00:00 AM 18.74 65.732 0.274 7.87 103.3 7.58
6/11/2022 2:15:00 AM 18.66 65.588 0.28 7.87 105.7 7.52
6/11/2022 2:30:00 AM 18.62 65.516 0.28 7.86 107.2 7.54
6/11/2022 2:45:00 AM 18.55 65.39 0.281 7.83 107.2 7.55
6/11/2022 3:00:00 AM 18.52 65.336 0.283 7.84 49.04 7.54
6/11/2022 3:15:00 AM 18.45 65.21 0.283 7.81 54.29 7.55
6/11/2022 3:30:00 AM 18.4 65.12 0.283 7.84 51.14 7.5
6/11/2022 3:45:00 AM 18.33 64.994 0.283 7.81 54.34 7.49
6/11/2022 4:00:00 AM 18.27 64.886 0.282 7.78 53.48 7.49
6/11/2022 4:15:00 AM 18.22 64.796 0.282 7.78 55.5 7.53
6/11/2022 4:30:00 AM 18.16 64.688 0.281 7.78 62.94 7.48
6/11/2022 4:45:00 AM 18.11 64.598 0.28 7.76 61.37 7.52
6/11/2022 5:00:00 AM 18.04 64.472 0.28 7.77 62.46 7.55
6/11/2022 5:15:00 AM 17.99 64.382 0.281 7.77 46.3 7.54
6/11/2022 5:30:00 AM 17.92 64.256 0.282 7.75 45.39 7.55
6/11/2022 5:45:00 AM 17.87 64.166 0.283 7.76 50.1 7.5
6/11/2022 6:00:00 AM 17.82 64.076 0.282 7.76 59.56 7.53
6/11/2022 6:15:00 AM 17.77 63.986 0.284 7.8 54.77 7.54
6/11/2022 6:30:00 AM 17.71 63.878 0.285 7.76 54.94 7.53
6/11/2022 6:45:00 AM 17.67 63.806 0.284 7.78 55.09 7.55
6/11/2022 7:00:00 AM 17.64 63.752 0.268 7.78 57.03 7.58
6/11/2022 7:15:00 AM 17.62 63.716 0.282 7.76 60.34 7.67
6/11/2022 7:30:00 AM 17.58 63.644 0.283 7.76 60.34 7.74
6/11/2022 7:45:00 AM 17.55 63.59 0.279 7.77 84.78 7.76
6/11/2022 8:00:00 AM 17.53 63.554 0.271 7.8 67.1 7.8
6/11/2022 8:15:00 AM 17.5 63.5 0.282 7.78 66.48 7.83
6/11/2022 8:30:00 AM 17.47 63.446 0.283 7.8 67.63 7.89
6/11/2022 8:45:00 AM 17.45 63.41 0.284 7.81 97.23 7.94
6/11/2022 9:00:00 AM 17.44 63.392 0.284 7.77 60.72 7.97
6/11/2022 9:15:00 AM 17.41 63.338 0.283 7.77 62.04 7.97
6/11/2022 9:30:00 AM 17.39 63.302 0.274 7.79 36.5 8.01
6/11/2022 9:45:00 AM 17.41 63.338 0.284 7.82 35.99 8.17
6/11/2022 10:00:00 AM 17.4 63.32 0.284 7.83 39.08 8.3
6/11/2022 10:15:00 AM 17.43 63.374 0.283 7.83 39.28 8.34
6/11/2022 10:30:00 AM 17.43 63.374 0.282 7.83 19.1 8.45
6/11/2022 10:45:00 AM 17.42 63.356 0.281 7.82 23.02 8.54
6/11/2022 11:00:00 AM 17.45 63.41 0.28 7.88 28.92 8.58
6/11/2022 11:15:00 AM 17.46 63.428 0.28 7.89 39.49 8.63
6/11/2022 11:30:00 AM 17.5 63.5 0.266 7.9 29.48 8.79
6/11/2022 11:45:00 AM 17.51 63.518 0.281 7.88 43.15 8.91
6/11/2022 12:00:00 PM 17.52 63.536 0.282 7.88 31.36 8.94
6/11/2022 12:15:00 PM 17.52 63.536 0.282 7.94 33.48 8.94
6/11/2022 12:30:00 PM 17.53 63.554 0.282 7.97 32.97 9.02
6/11/2022 12:45:00 PM 17.54 63.572 0.282 7.97 35.23 9.17
6/11/2022 1:00:00 PM 17.57 63.626 0.28 7.99 33.46 9.32
6/11/2022 1:15:00 PM 17.57 63.626 0.28 7.99 46.05 9.39
6/11/2022 1:30:00 PM 17.6 63.68 0.279 8.03 34.72 9.45
6/11/2022 1:45:00 PM 17.6 63.68 0.279 8.05 47.21 9.58
6/11/2022 2:00:00 PM 17.65 63.77 0.278 8.08 37.37 9.69
6/11/2022 2:15:00 PM 17.69 63.842 0.271 8.12 38.75 9.72
6/11/2022 2:30:00 PM 17.72 63.896 0.263 8.12 40.25 9.85
6/11/2022 2:45:00 PM 17.74 63.932 0.27 8.15 39.12 9.86
6/11/2022 3:00:00 PM 17.77 63.986 0.271 8.14 40.44 9.98
6/11/2022 3:15:00 PM 17.79 64.022 0.269 8.18 41.65 10.12
6/11/2022 3:30:00 PM 17.81 64.058 0.269 8.21 43.63 10.03
6/11/2022 3:45:00 PM 17.85 64.13 0.279 8.23 42.98 10.2
6/11/2022 4:00:00 PM 17.9 64.22 0.279 8.22 44.2 10.18
6/11/2022 4:15:00 PM 17.9 64.22 0.278 8.26 44.36 10.25
6/11/2022 4:30:00 PM 17.96 64.328 0.279 8.27 23.07 10.29
6/11/2022 4:45:00 PM 18.02 64.436 0.277 8.31 23.42 10.5
6/11/2022 5:00:00 PM 18.11 64.598 0.263 8.31 23.86 10.5
6/11/2022 5:15:00 PM 18.16 64.688 0.277 8.36 25.25 10.55
6/11/2022 5:30:00 PM 18.19 64.742 0.277 8.39 24.59 10.54
6/11/2022 5:45:00 PM 18.25 64.85 0.278 8.4 24.54 10.56
6/11/2022 6:00:00 PM 18.3 64.94 0.277 8.44 25.46 10.52
6/11/2022 6:15:00 PM 18.3 64.94 0.278 8.43 34.37 10.52
6/11/2022 6:30:00 PM 18.33 64.994 0.278 8.44 37.63 10.54
6/11/2022 6:45:00 PM 18.32 64.976 0.278 8.46 38.31 10.47
6/11/2022 7:00:00 PM 18.32 64.976 0.266 8.46 38.95 10.32
6/11/2022 7:15:00 PM 18.32 64.976 0.276 8.46 40.47 10.31
6/11/2022 7:30:00 PM 18.29 64.922 0.277 8.47 40.23 10.21
6/11/2022 7:45:00 PM 18.28 64.904 0.276 8.49 37.81 10.15
6/11/2022 8:00:00 PM 18.25 64.85 0.276 8.45 37.65 9.92
6/11/2022 8:15:00 PM 18.21 64.778 0.278 8.43 37.68 9.86
6/11/2022 8:30:00 PM 18.17 64.706 0.279 8.41 37.75 9.79
6/11/2022 8:45:00 PM 18.12 64.616 0.28 8.39 40.37 9.67
6/11/2022 9:00:00 PM 18.05 64.49 0.281 8.35 41.07 9.54
6/11/2022 9:15:00 PM 17.99 64.382 0.282 8.32 41.5 9.4
6/11/2022 9:30:00 PM 17.93 64.274 0.282 8.3 43.89 9.31
6/11/2022 9:45:00 PM 17.86 64.148 0.282 8.26 47.86 9.14
6/11/2022 10:00:00 PM 17.79 64.022 0.281 8.25 49.25 9.04
6/11/2022 10:15:00 PM 17.73 63.914 0.281 8.2 51.46 8.91
6/11/2022 10:30:00 PM 17.65 63.77 0.28 8.16 54.32 8.79
6/11/2022 10:45:00 PM 17.59 63.662 0.28 8.13 53.78 8.73
6/11/2022 11:00:00 PM 17.52 63.536 0.281 8.11 57.54 8.57
6/11/2022 11:15:00 PM 17.46 63.428 0.282 8.08 65.01 8.56
6/11/2022 11:30:00 PM 17.4 63.32 0.283 8.07 89.23 8.45
6/11/2022 11:45:00 PM 17.36 63.248 0.285 8.03 41.68 8.43
6/12/2022 12:00:00 AM 17.3 63.14 0.286 8 30.83 8.34
6/12/2022 12:15:00 AM 17.24 63.032 0.287 7.98 32.06 8.32
6/12/2022 12:30:00 AM 17.21 62.978 0.287 7.97 46.05 8.24
6/12/2022 12:45:00 AM 17.17 62.906 0.287 7.96 54.79 8.27
6/12/2022 1:00:00 AM 17.14 62.852 0.286 7.94 42.98 8.18
6/12/2022 1:15:00 AM 17.11 62.798 0.286 7.95 43.09 8.2
6/12/2022 1:30:00 AM 17.08 62.744 0.285 7.95 44.74 8.2
6/12/2022 1:45:00 AM 17.04 62.672 0.285 7.94 46.3 8.16
6/12/2022 2:00:00 AM 17.01 62.618 0.285 7.93 67.08 8.12
6/12/2022 2:15:00 AM 16.98 62.564 0.287 7.93 70.05 8.09
6/12/2022 2:30:00 AM 16.97 62.546 0.288 7.92 31.8 8.12
6/12/2022 2:45:00 AM 16.94 62.492 0.289 7.91 53.18 8.07
6/12/2022 3:00:00 AM 16.91 62.438 0.29 7.9 60.63 8.06
6/12/2022 3:15:00 AM 16.88 62.384 0.291 7.89 64.98 8.06
6/12/2022 3:30:00 AM 16.86 62.348 0.291 7.88 66.22 8.06
6/12/2022 3:45:00 AM 16.83 62.294 0.291 7.9 71.59 8.03
6/12/2022 4:00:00 AM 16.8 62.24 0.289 7.89 69.8 8.08
6/12/2022 4:15:00 AM 16.78 62.204 0.289 7.89 74.13 8.06
6/12/2022 4:30:00 AM 16.73 62.114 0.287 7.88 75.78 8.1
6/12/2022 4:45:00 AM 16.71 62.078 0.287 7.87 74.78 8.01
6/12/2022 5:00:00 AM 16.7 62.06 0.288 7.85 74.87 8
6/12/2022 5:15:00 AM 16.67 62.006 0.288 7.86 87.76 7.84
6/12/2022 5:30:00 AM 16.65 61.97 0.289 7.84 88.63 7.99
6/12/2022 5:45:00 AM 16.62 61.916 0.29 7.83 95.07 8
6/12/2022 6:00:00 AM 16.59 61.862 0.291 7.83 99.11 7.92
6/12/2022 6:15:00 AM 16.58 61.844 0.284 7.82 98.71 8
6/12/2022 6:30:00 AM 16.56 61.808 0.292 7.82 160.6 7.98
6/12/2022 6:45:00 AM 16.53 61.754 0.291 7.82 162.6 8.01
6/12/2022 7:00:00 AM 16.51 61.718 0.287 7.81 163.6 8.01
6/12/2022 7:15:00 AM 16.49 61.682 0.289 7.8 167.7 8.04
6/12/2022 7:30:00 AM 16.46 61.628 0.278 7.8 86.12 8.09
6/12/2022 7:45:00 AM 16.45 61.61 0.289 7.8 87.89 8.01
6/12/2022 8:00:00 AM 16.44 61.592 0.278 7.79 88.55 8.12
6/12/2022 8:15:00 AM 16.45 61.61 0.278 7.79 41.92 8.15
6/12/2022 8:30:00 AM 16.43 61.574 0.276 7.8 38.8 8.18
6/12/2022 8:45:00 AM 16.43 61.574 0.275 7.81 42.6 8.27
6/12/2022 9:00:00 AM 16.42 61.556 0.292 7.78 48.05 8.23
6/12/2022 9:15:00 AM 16.43 61.574 0.291 7.78 54.12 8.33
6/12/2022 9:30:00 AM 16.43 61.574 0.291 7.8 65.28 8.39
6/12/2022 9:45:00 AM 16.44 61.592 0.279 7.83 70.81 8.49
6/12/2022 10:00:00 AM 16.47 61.646 0.289 7.8 70.94 8.56
6/12/2022 10:15:00 AM 16.52 61.736 0.272 7.82 72.61 8.58
6/12/2022 10:30:00 AM 16.53 61.754 0.276 7.84 74.45 8.71
6/12/2022 10:45:00 AM 16.52 61.736 0.284 7.83 75.44 8.79
6/12/2022 11:00:00 AM 16.53 61.754 0.287 7.85 75.91 8.84
6/12/2022 11:15:00 AM 16.54 61.772 0.287 7.87 76.94 8.9
6/12/2022 11:30:00 AM 16.55 61.79 0.287 7.87 76.99 8.93
6/12/2022 11:45:00 AM 16.57 61.826 0.285 7.88 79.93 9.01
6/12/2022 12:00:00 PM 16.6 61.88 0.286 7.87 78.3 9.07
6/12/2022 12:15:00 PM 16.71 62.078 0.286 7.86 82.38 9.14
6/12/2022 12:30:00 PM 16.78 62.204 0.287 7.9 84.4 9.28
6/12/2022 12:45:00 PM 16.89 62.402 0.267 7.91 153.6 9.43
6/12/2022 1:00:00 PM 16.97 62.546 0.285 7.93 154.7 9.57
6/12/2022 1:15:00 PM 17.09 62.762 0.285 7.96 158.8 9.67
6/12/2022 1:30:00 PM 17.19 62.942 0.284 7.99 161.5 9.79
6/12/2022 1:45:00 PM 17.25 63.05 0.283 8.03 165.5 9.91
6/12/2022 2:00:00 PM 17.33 63.194 0.283 8.04 164.4 9.89
6/12/2022 2:15:00 PM 17.43 63.374 0.278 8.07 163 10.06
6/12/2022 2:30:00 PM 17.51 63.518 0.284 8.11 163.1 10.16
6/12/2022 2:45:00 PM 17.65 63.77 0.284 8.15 166.2 10.25
6/12/2022 3:00:00 PM 17.74 63.932 0.284 8.15 172.2 10.3
6/12/2022 3:15:00 PM 17.89 64.202 0.284 8.17 172.4 10.42
6/12/2022 3:30:00 PM 18 64.4 0.283 8.23 235.9 10.53
6/12/2022 3:45:00 PM 18.14 64.652 0.282 8.26 176.9 10.57
6/12/2022 4:00:00 PM 18.23 64.814 0.282 8.28 174.9 10.63
6/12/2022 4:15:00 PM 18.29 64.922 0.276 8.31 183.7 10.68
6/12/2022 4:30:00 PM 18.35 65.03 0.28 8.32 214.2 10.53
6/12/2022 4:45:00 PM 18.35 65.03 0.28 8.34 315.7 10.43
6/12/2022 5:00:00 PM 18.32 64.976 0.28 8.34 292.2 10.36
6/12/2022 5:15:00 PM 18.31 64.958 0.28 8.31 247.8 10.27
6/12/2022 5:30:00 PM 18.31 64.958 0.281 8.31 247 10.18
6/12/2022 5:45:00 PM 18.32 64.976 0.281 8.29 349.4 10.11
6/12/2022 6:00:00 PM 18.35 65.03 0.265 8.29 201.6 10.06
6/12/2022 6:15:00 PM 18.28 64.904 0.282 8.28 319.9 10.02
6/12/2022 6:30:00 PM 18.36 65.048 0.281 8.3 354.3 9.99
6/12/2022 6:45:00 PM 18.35 65.03 0.273 8.29 253.8 9.86
6/12/2022 7:00:00 PM 18.35 65.03 0.28 8.29 324.8 9.76
6/12/2022 7:15:00 PM 18.33 64.994 0.281 8.28 364.3 9.61
6/12/2022 7:30:00 PM 18.32 64.976 0.281 8.25 212.7 9.59
6/12/2022 7:45:00 PM 18.29 64.922 0.281 8.22 219.6 9.18
6/12/2022 8:00:00 PM 18.28 64.904 0.282 8.21 248.1 9.39
6/12/2022 8:15:00 PM 18.25 64.85 0.283 8.2 342.2 9.14
6/12/2022 8:30:00 PM 18.24 64.832 0.284 8.19 230.7 9.27
6/12/2022 8:45:00 PM 18.24 64.832 0.285 8.17 332.3 9.26
6/12/2022 9:00:00 PM 18.24 64.832 0.285 8.17 354.1 9.16
6/12/2022 9:15:00 PM 18.23 64.814 0.285 8.17 452.6 9.1
6/12/2022 9:30:00 PM 18.25 64.85 0.276 8.15 326.4 9.04
6/12/2022 9:45:00 PM 18.26 64.868 0.284 8.12 116.1 8.95
6/12/2022 10:00:00 PM 18.26 64.868 0.283 8.12 140.5 8.86
6/12/2022 10:15:00 PM 18.26 64.868 0.283 8.1 112.8 8.72
6/12/2022 10:30:00 PM 18.28 64.904 0.282 8.06 159.7 8.62
6/12/2022 10:45:00 PM 18.28 64.904 0.283 8.03 156.1 8.48
6/12/2022 11:00:00 PM 18.28 64.904 0.284 8.01 178 8.37
6/12/2022 11:15:00 PM 18.28 64.904 0.285 7.99 130.8 8.36
6/12/2022 11:30:00 PM 18.28 64.904 0.287 7.96 125 8.22
6/12/2022 11:45:00 PM 18.27 64.886 0.287 7.93 114.2 8.18
6/13/2022 12:00:00 AM 18.28 64.904 0.286 7.92 141.5 8.12
6/13/2022 12:15:00 AM 18.27 64.886 0.286 7.92 134.9 8.07
6/13/2022 12:30:00 AM 18.27 64.886 0.284 7.9 124.7 7.93
6/13/2022 12:45:00 AM 18.26 64.868 0.275 7.9 113.7 7.99
6/13/2022 1:00:00 AM 18.23 64.814 0.273 7.87 137.4 7.96
6/13/2022 1:15:00 AM 18.23 64.814 0.282 7.88 123.1 7.91
6/13/2022 1:30:00 AM 18.21 64.778 0.281 7.84 138 7.86
6/13/2022 1:45:00 AM 18.19 64.742 0.281 7.84 101 7.84
6/13/2022 2:00:00 AM 18.17 64.706 0.282 7.82 145 7.82
6/13/2022 2:15:00 AM 18.15 64.67 0.283 7.81 109 7.8
6/13/2022 2:30:00 AM 18.12 64.616 0.284 7.8 111 7.79
6/13/2022 2:45:00 AM 18.1 64.58 0.285 7.78 89 7.78
6/13/2022 3:00:00 AM 18.07 64.526 0.285 7.78 156 7.77
6/13/2022 3:15:00 AM 18.05 64.49 0.284 7.77 140 7.73
6/13/2022 3:30:00 AM 18.02 64.436 0.283 7.77 179.4 7.75
6/13/2022 3:45:00 AM 17.99 64.382 0.282 7.78 63.71 7.75
6/13/2022 4:00:00 AM 17.96 64.328 0.281 7.78 129.2 7.75
6/13/2022 4:15:00 AM 17.92 64.256 0.281 7.74 29.42 7.72
6/13/2022 4:30:00 AM 17.9 64.22 0.28 7.72 39.88 7.71
6/13/2022 4:45:00 AM 17.88 64.184 0.279 7.74 16.92 7.71
6/13/2022 5:00:00 AM 17.85 64.13 0.28 7.75 122.6 7.72
6/13/2022 5:15:00 AM 17.82 64.076 0.282 7.68 48.14 7.73
6/13/2022 5:30:00 AM 17.8 64.04 0.28 7.7 45.73 7.76
6/13/2022 5:45:00 AM 17.78 64.004 0.279 7.71 45.56 7.7
6/13/2022 6:00:00 AM 17.77 63.986 0.283 7.74 37.82 7.76
6/13/2022 6:15:00 AM 17.75 63.95 0.282 7.72 199 7.74
6/13/2022 6:30:00 AM 17.74 63.932 0.282 7.72 257.4 7.74
6/13/2022 6:45:00 AM 17.72 63.896 0.266 7.7 479.4 7.74
6/13/2022 7:00:00 AM 17.72 63.896 0.273 7.72 100.5 7.78
6/13/2022 7:15:00 AM 17.7 63.86 0.273 7.73 561.2 7.82
6/13/2022 7:30:00 AM 17.69 63.842 0.278 7.7 258.1 7.84
6/13/2022 7:45:00 AM 17.68 63.824 0.274 7.71 1057 7.89
6/13/2022 8:00:00 AM 17.67 63.806 0.279 7.71 19.75 7.9
6/13/2022 8:15:00 AM 17.67 63.806 0.279 7.74 791.4 7.94
6/13/2022 8:30:00 AM 17.68 63.824 0.281 7.72 94.81 8.04
6/13/2022 8:45:00 AM 17.7 63.86 0.269 7.76 1625 8.09
6/13/2022 9:00:00 AM 17.73 63.914 0.27 7.73 17.8 8.12
6/13/2022 9:15:00 AM 17.83 64.094 0.273 7.75 22.84 8.22
6/13/2022 9:30:00 AM 17.92 64.256 0.272 7.74 18.1 8.29
6/13/2022 9:45:00 AM 18.03 64.454 0.28 7.8 19.34 8.45
6/13/2022 10:00:00 AM 18.13 64.634 0.262 7.81 17.87 8.57
6/13/2022 10:15:00 AM 18.22 64.796 0.271 7.82 21.91 8.6
6/13/2022 10:30:00 AM 18.35 65.03 0.266 7.85 20.1 8.81
6/13/2022 10:45:00 AM 18.51 65.318 0.268 7.85 22.62 8.93
6/13/2022 11:00:00 AM 18.62 65.516 0.277 7.85 22.73 9
6/13/2022 11:15:00 AM 18.78 65.804 0.265 7.89 23.44 9.05
6/13/2022 11:30:00 AM 18.93 66.074 0.276 7.94 24.82 9.13
6/13/2022 11:45:00 AM 19.01 66.218 0.278 7.98 22.91 9.43
6/13/2022 12:00:00 PM 19.13 66.434 0.279 8.01 24.1 9.54
6/13/2022 12:15:00 PM 19.24 66.632 0.273 8.04 25.4 9.63
6/13/2022 12:30:00 PM 19.37 66.866 0.279 8.06 24.87 9.69
6/13/2022 12:45:00 PM 19.52 67.136 0.275 8.08 27.61 9.75
6/13/2022 1:00:00 PM 19.61 67.298 0.276 8.13 26.62 9.9
6/13/2022 1:15:00 PM 19.64 67.352 0.258 8.17 27.21 9.92
6/13/2022 1:30:00 PM 19.71 67.478 0.269 8.18 28.22 9.94
6/13/2022 1:45:00 PM 19.76 67.568 0.276 8.19 28.76 9.91
6/13/2022 2:00:00 PM 19.86 67.748 0.275 8.2 31.62 9.95
6/13/2022 2:15:00 PM 19.9 67.82 0.276 8.22 34.7 9.92
6/13/2022 2:30:00 PM 19.99 67.982 0.255 8.24 36.38 9.97
6/13/2022 2:45:00 PM 20.07 68.126 0.276 8.27 37.45 10.01
6/13/2022 3:00:00 PM 20.15 68.27 0.266 8.28 37.79 9.97
6/13/2022 3:15:00 PM 20.25 68.45 0.276 8.31 39.67 10.06
6/13/2022 3:30:00 PM 20.33 68.594 0.276 8.3 69.25 10.02
6/13/2022 3:45:00 PM 20.46 68.828 0.275 8.32 46.82 10.05
6/13/2022 4:00:00 PM 20.55 68.99 0.275 8.34 53.49 10.02
6/13/2022 4:15:00 PM 20.67 69.206 0.274 8.36 56.03 10.07
6/13/2022 4:30:00 PM 20.72 69.296 0.266 8.37 57.97 10
6/13/2022 4:45:00 PM 20.76 69.368 0.273 8.39 58.44 10.03
6/13/2022 5:00:00 PM 20.84 69.512 0.275 8.41 61.4 9.99
6/13/2022 5:15:00 PM 20.89 69.602 0.274 8.41 67.32 9.96
6/13/2022 5:30:00 PM 20.92 69.656 0.275 8.4 75.05 9.95
6/13/2022 5:45:00 PM 20.96 69.728 0.275 8.42 75.43 9.89
6/13/2022 6:00:00 PM 20.98 69.764 0.274 8.44 75.01 9.87
6/13/2022 6:15:00 PM 20.99 69.782 0.276 8.43 77.08 9.8
6/13/2022 6:30:00 PM 20.99 69.782 0.276 8.43 77.48 9.74
6/13/2022 6:45:00 PM 20.99 69.782 0.26 8.4 82.32 9.61
6/13/2022 7:00:00 PM 21 69.8 0.268 8.42 83.04 9.59
6/13/2022 7:15:00 PM 20.95 69.71 0.276 8.42 84.67 9.36
6/13/2022 7:30:00 PM 20.95 69.71 0.274 8.4 90.72 9.39
6/13/2022 7:45:00 PM 20.94 69.692 0.26 8.39 93.01 9.28
6/13/2022 8:00:00 PM 20.89 69.602 0.272 8.37 101.2 9.16
6/13/2022 8:15:00 PM 20.88 69.584 0.26 8.36 105.9 9.09
6/13/2022 8:30:00 PM 20.85 69.53 0.278 8.34 105.2 8.95
6/13/2022 8:45:00 PM 20.81 69.458 0.28 8.33 113.8 8.87
6/13/2022 9:00:00 PM 20.8 69.44 0.28 8.28 116.8 8.7
6/13/2022 9:15:00 PM 20.76 69.368 0.28 8.26 116.3 8.61
6/13/2022 9:30:00 PM 20.73 69.314 0.28 8.23 72.99 8.46
6/13/2022 9:45:00 PM 20.68 69.224 0.277 8.22 81.94 8.34
6/13/2022 10:00:00 PM 20.65 69.17 0.275 8.19 106.7 8.25
6/13/2022 10:15:00 PM 20.62 69.116 0.278 8.15 111.4 8.09
6/13/2022 10:30:00 PM 20.58 69.044 0.277 8.14 131.6 8
6/13/2022 10:45:00 PM 20.56 69.008 0.277 8.1 88.42 7.92
6/13/2022 11:00:00 PM 20.52 68.936 0.267 8.06 192.6 7.81
6/13/2022 11:15:00 PM 20.46 68.828 0.274 8.06 98.26 7.74
6/13/2022 11:30:00 PM 20.42 68.756 0.277 8.03 93.65 7.65
6/13/2022 11:45:00 PM 20.41 68.738 0.282 8.02 96.56 7.64
6/14/2022 12:00:00 AM 20.37 68.666 0.282 8 17.06 7.58
6/14/2022 12:15:00 AM 20.33 68.594 0.282 7.98 17.97 7.52
6/14/2022 12:30:00 AM 20.31 68.558 0.281 7.95 22.63 7.46
6/14/2022 12:45:00 AM 20.28 68.504 0.281 7.94 23.7 7.43
6/14/2022 1:00:00 AM 20.25 68.45 0.28 7.94 23.28 7.42
6/14/2022 1:15:00 AM 20.22 68.396 0.279 7.93 25.21 7.39
6/14/2022 1:30:00 AM 20.2 68.36 0.278 7.9 23.18 7.36
6/14/2022 1:45:00 AM 20.19 68.342 0.278 7.9 24.87 7.38
6/14/2022 2:00:00 AM 20.15 68.27 0.279 7.89 38.68 7.33
6/14/2022 2:15:00 AM 20.13 68.234 0.28 7.89 51.54 7.34
6/14/2022 2:30:00 AM 20.1 68.18 0.281 7.86 30.14 7.27
6/14/2022 2:45:00 AM 20.07 68.126 0.282 7.85 24.44 7.31
6/14/2022 3:00:00 AM 20.05 68.09 0.282 7.84 23.75 7.27
6/14/2022 3:15:00 AM 20.03 68.054 0.281 7.84 25.17 7.29
6/14/2022 3:30:00 AM 20 68 0.281 7.83 25.16 7.22
6/14/2022 3:45:00 AM 20 68 0.28 7.82 24.47 7.22
6/14/2022 4:00:00 AM 19.95 67.91 0.28 7.83 31.59 7.2
6/14/2022 4:15:00 AM 19.95 67.91 0.278 7.82 28.26 7.24
6/14/2022 4:30:00 AM 19.93 67.874 0.277 7.82 29.73 7.19
6/14/2022 4:45:00 AM 19.92 67.856 0.277 7.82 76.93 7.17
6/14/2022 5:00:00 AM 19.9 67.82 0.277 7.8 43.61 7.19
6/14/2022 5:15:00 AM 19.85 67.73 0.279 7.8 43.93 7.11
6/14/2022 5:30:00 AM 19.85 67.73 0.279 7.8 47.49 7.16
6/14/2022 5:45:00 AM 19.82 67.676 0.279 7.79 61.81 7.17
6/14/2022 6:00:00 AM 19.8 67.64 0.277 7.79 67.4 7.18
6/14/2022 6:15:00 AM 19.76 67.568 0.277 7.78 67.11 7.19
6/14/2022 6:30:00 AM 19.75 67.55 0.276 7.77 71.83 7.13
6/14/2022 6:45:00 AM 19.71 67.478 0.275 7.78 69.26 7.14
6/14/2022 7:00:00 AM 19.69 67.442 0.274 7.77 71 7.1
6/14/2022 7:15:00 AM 19.66 67.388 0.273 7.78 76.83 7.2
6/14/2022 7:30:00 AM 19.63 67.334 0.273 7.78 77.93 7.2
6/14/2022 7:45:00 AM 19.6 67.28 0.272 7.77 79.13 7.2
6/14/2022 8:00:00 AM 19.58 67.244 0.272 7.76 81.05 7.24
6/14/2022 8:15:00 AM 19.57 67.226 0.273 7.77 79.38 7.26
6/14/2022 8:30:00 AM 19.56 67.208 0.274 7.77 86.62 7.31
6/14/2022 8:45:00 AM 19.56 67.208 0.274 7.78 87.95 7.38
6/14/2022 9:00:00 AM 19.54 67.172 0.274 7.78 89.77 7.45
6/14/2022 9:15:00 AM 19.51 67.118 0.274 7.78 90.74 7.5
6/14/2022 9:30:00 AM 19.52 67.136 0.272 7.78 91.99 7.5
6/14/2022 9:45:00 AM 19.53 67.154 0.271